U2830 / G-EZAX 7700 Squawk Report (25th of January, 2021)

Aircraft A319 Reg No. G-EZAX Age 14 years old
Model A319 Jet engines 2 First flight 14-06-06
Registered 06-07-06 Rollout 06-06 Delivered 06-07-06
Construction No. 2818 Line No. N/A Series 111
ADSHEX 400E5A Airline name easyJet Owner N/A
Airfield based Luton~Beds~G First tracked N/A

Flight history for G-EZAX

Route Flight No Date Playback
Gatwick (LGW) - Barcelona–El Prat (BCN) U28573 2021-02-21 12:57:00
???? N/A 2021-02-20 21:42:00
Geneve Cointrin (GVA) - Gatwick (LGW) U28471 2021-02-14 19:37:00
Gatwick (LGW) - Geneve Cointrin (GVA) U28468 2021-02-14 12:10:00
Barcelona–El Prat (BCN) - Gatwick (LGW) U28570 2021-02-14 07:32:00
Gatwick (LGW) - Barcelona–El Prat (BCN) U28569 2021-02-13 16:20:00
Edinburgh (EDI) - Gatwick (LGW) U2810 2021-02-12 13:36:00
Gatwick (LGW) - Edinburgh (EDI) U2809 2021-02-11 16:47:00
Edinburgh (EDI) - Gatwick (LGW) U2808 2021-02-07 16:27:00
Gatwick (LGW) - Edinburgh (EDI) U2807 2021-02-07 14:02:00
???? N/A 2021-02-06 16:12:00
Belfast International (BFS) - Gatwick (LGW) U2838 2021-01-31 21:07:00
Gatwick (LGW) - Belfast International (BFS) U2835 2021-01-31 17:06:00
Malaga (AGP) - Gatwick (LGW) U28606 2021-01-30 17:12:00
Gatwick (LGW) - Malaga (AGP) U28605 2021-01-30 13:52:00
???? N/A 2021-01-29 04:52:00
???? N/A 2021-01-27 04:06:00
Belfast International (BFS) - Gatwick (LGW) U2830 2021-01-25 11:24:00
Newcastle (NCL) - Belfast International (BFS) U2553 2021-01-24 17:38:00
Belfast International (BFS) - Newcastle (NCL) U2554 2021-01-24 16:23:00
Time Lat Lon Altitude Heading Speed Vertical Rate
2021-01-25 09:57:06 GMT 51.157837 -0.179326 0 33 0 0
2021-01-25 09:57:04 GMT 51.157837 -0.179329 0 33 0 0
2021-01-25 09:57:03 GMT 51.157837 -0.179326 0 33 0 0
2021-01-25 09:57:02 GMT 51.157837 -0.179329 0 33 0 0
2021-01-25 09:57:00 GMT 51.157837 -0.179307 0 33 0 0
2021-01-25 09:56:58 GMT 51.157848 -0.179310 0 33 0 0
2021-01-25 09:56:56 GMT 51.157825 -0.179344 0 33 0 0
2021-01-25 09:56:55 GMT 51.157814 -0.179363 0 33 0 0
2021-01-25 09:56:53 GMT 51.157803 -0.179381 0 33 0 0
2021-01-25 09:56:52 GMT 51.157848 -0.179307 0 33 0 0
2021-01-25 09:56:51 GMT 51.157814 -0.179348 0 33 0 0
2021-01-25 09:56:49 GMT 51.157814 -0.179363 0 33 0 0
2021-01-25 09:56:48 GMT 51.157803 -0.179363 0 33 0 0
2021-01-25 09:56:44 GMT 51.157791 -0.179381 0 30 2 0
2021-01-25 09:56:43 GMT 51.157780 -0.179381 0 30 2 0
2021-01-25 09:56:39 GMT 51.157757 -0.179424 0 30 3 0
2021-01-25 09:56:36 GMT 51.157722 -0.179443 0 30 3 0
2021-01-25 09:56:34 GMT 51.157700 -0.179474 0 30 3 0
2021-01-25 09:56:33 GMT 51.157684 -0.179482 0 30 4 0
2021-01-25 09:56:32 GMT 51.157677 -0.179493 0 30 4 0
2021-01-25 09:56:30 GMT 51.157650 -0.179520 0 30 4 0
2021-01-25 09:56:29 GMT 51.157642 -0.179530 0 30 4 0
2021-01-25 09:56:28 GMT 51.157619 -0.179549 0 30 4 0
2021-01-25 09:56:26 GMT 51.157597 -0.179567 0 30 5 0
2021-01-25 09:56:18 GMT 51.157459 -0.179716 0 33 6 0
2021-01-25 09:56:16 GMT 51.157394 -0.179768 0 33 7 0
2021-01-25 09:56:15 GMT 51.157349 -0.179825 0 33 7 0
2021-01-25 09:56:12 GMT 51.157299 -0.179864 0 33 8 0
2021-01-25 09:56:11 GMT 51.157265 -0.179901 0 33 8 0
2021-01-25 09:56:10 GMT 51.157242 -0.179920 0 33 8 0
2021-01-25 09:56:09 GMT 51.157139 -0.180031 0 39 9 0
2021-01-25 09:56:07 GMT 51.157139 -0.180031 0 39 9 0
2021-01-25 09:56:05 GMT 51.157093 -0.180087 0 42 9 0
2021-01-25 09:56:04 GMT 51.157059 -0.180111 0 45 9 0
2021-01-25 09:56:03 GMT 51.157021 -0.180187 0 50 9 0
2021-01-25 09:56:00 GMT 51.156944 -0.180309 0 61 9 0
2021-01-25 09:55:58 GMT 51.156895 -0.180435 0 70 10 0
2021-01-25 09:55:52 GMT 51.156822 -0.180798 0 78 9 0
2021-01-25 09:55:51 GMT 51.156815 -0.180855 0 78 9 0
2021-01-25 09:55:49 GMT 51.156807 -0.180959 0 78 9 0
2021-01-25 09:55:48 GMT 51.156784 -0.181126 0 78 10 0
2021-01-25 09:55:46 GMT 51.156765 -0.181198 0 78 10 0
2021-01-25 09:55:43 GMT 51.156742 -0.181427 0 78 12 0
2021-01-25 09:55:41 GMT 51.156715 -0.181590 0 78 13 0
2021-01-25 09:55:40 GMT 51.156708 -0.181675 0 78 14 0
2021-01-25 09:55:39 GMT 51.156693 -0.181775 0 78 14 0
2021-01-25 09:55:38 GMT 51.156685 -0.181866 0 75 14 0
2021-01-25 09:55:36 GMT 51.156635 -0.182165 0 78 15 0
2021-01-25 09:55:35 GMT 51.156635 -0.182165 0 78 15 0
2021-01-25 09:55:34 GMT 51.156624 -0.182277 0 78 15 0
2021-01-25 09:55:33 GMT 51.156616 -0.182381 0 78 15 0
2021-01-25 09:55:31 GMT 51.156578 -0.182592 0 75 15 0
2021-01-25 09:55:29 GMT 51.156555 -0.182781 0 75 16 0
2021-01-25 09:55:27 GMT 51.156521 -0.183000 0 75 17 0
2021-01-25 09:55:26 GMT 51.156498 -0.183167 0 75 17 0
2021-01-25 09:55:23 GMT 51.156452 -0.183483 0 78 18 0
2021-01-25 09:55:22 GMT 51.156429 -0.183620 0 78 18 0
2021-01-25 09:55:17 GMT 51.156349 -0.184244 0 78 18 0
2021-01-25 09:55:13 GMT 51.156288 -0.184708 0 78 17 0
2021-01-25 09:55:08 GMT 51.156200 -0.185357 0 78 16 0
2021-01-25 09:55:03 GMT 51.156124 -0.185909 0 78 15 0
2021-01-25 09:54:58 GMT 51.156052 -0.186378 0 78 14 0
2021-01-25 09:54:55 GMT 51.156021 -0.186615 0 78 13 0
2021-01-25 09:54:54 GMT 51.156006 -0.186749 0 75 13 0
2021-01-25 09:54:52 GMT 51.155994 -0.186860 0 75 13 0
2021-01-25 09:54:48 GMT 51.155941 -0.187187 0 78 12 0
2021-01-25 09:54:46 GMT 51.155918 -0.187378 0 78 12 0
2021-01-25 09:54:43 GMT 51.155891 -0.187621 0 70 10 0
2021-01-25 09:54:41 GMT 51.155869 -0.187759 0 61 10 0
2021-01-25 09:54:39 GMT 51.155834 -0.187912 0 50 10 0
2021-01-25 09:54:34 GMT 51.155697 -0.188160 0 19 10 0
2021-01-25 09:54:33 GMT 51.155647 -0.188198 0 14 10 0
2021-01-25 09:54:32 GMT 51.155617 -0.188215 0 8 10 0
2021-01-25 09:54:31 GMT 51.155571 -0.188252 0 0 11 0
2021-01-25 09:54:30 GMT 51.155476 -0.188274 0 351 11 0
2021-01-25 09:54:28 GMT 51.155422 -0.188252 0 348 11 0
2021-01-25 09:54:27 GMT 51.155376 -0.188252 0 348 11 0
2021-01-25 09:54:26 GMT 51.155331 -0.188234 0 345 11 0
2021-01-25 09:54:25 GMT 51.155289 -0.188217 0 345 11 0
2021-01-25 09:54:23 GMT 51.155170 -0.188179 0 348 14 0
2021-01-25 09:54:22 GMT 51.155125 -0.188160 0 348 14 0
2021-01-25 09:54:20 GMT 51.154999 -0.188122 0 348 16 0
2021-01-25 09:54:19 GMT 51.154926 -0.188084 0 345 16 0
2021-01-25 09:54:18 GMT 51.154858 -0.188065 0 345 16 0
2021-01-25 09:54:15 GMT 51.154682 -0.188007 0 348 15 0
2021-01-25 09:54:13 GMT 51.154507 -0.187950 0 348 15 0
2021-01-25 09:54:12 GMT 51.154438 -0.187918 0 345 15 0
2021-01-25 09:54:11 GMT 51.154369 -0.187893 0 345 15 0
2021-01-25 09:54:10 GMT 51.154301 -0.187874 0 345 15 0
2021-01-25 09:54:05 GMT 51.153969 -0.187751 0 348 15 0
2021-01-25 09:54:04 GMT 51.153912 -0.187733 0 348 15 0
2021-01-25 09:54:03 GMT 51.153763 -0.187677 0 348 15 0
2021-01-25 09:54:01 GMT 51.153706 -0.187658 0 348 15 0
2021-01-25 09:54:00 GMT 51.153637 -0.187640 0 345 15 0
2021-01-25 09:53:59 GMT 51.153564 -0.187607 0 345 15 0
2021-01-25 09:53:58 GMT 51.153507 -0.187588 0 345 15 0
2021-01-25 09:53:56 GMT 51.153374 -0.187547 0 345 15 0
2021-01-25 09:53:53 GMT 51.153202 -0.187491 0 345 15 0
2021-01-25 09:53:52 GMT 51.153156 -0.187473 0 345 15 0
2021-01-25 09:53:51 GMT 51.153076 -0.187435 0 345 15 0
2021-01-25 09:53:50 GMT 51.152996 -0.187416 0 348 15 0
2021-01-25 09:53:47 GMT 51.152802 -0.187343 0 348 14 0
2021-01-25 09:53:46 GMT 51.152740 -0.187321 0 348 14 0
2021-01-25 09:53:43 GMT 51.152241 -0.187157 0 348 13 0
2021-01-25 09:53:38 GMT 51.152241 -0.187157 0 345 12 0
2021-01-25 09:53:35 GMT 51.152111 -0.187111 0 345 12 0
2021-01-25 09:53:34 GMT 51.152035 -0.187083 0 345 11 0
2021-01-25 09:53:33 GMT 51.151989 -0.187065 0 345 11 0
2021-01-25 09:53:32 GMT 51.151947 -0.187054 0 345 11 0
2021-01-25 09:53:30 GMT 51.151844 -0.187016 0 348 10 0
2021-01-25 09:53:29 GMT 51.151806 -0.186990 0 348 10 0
2021-01-25 09:53:28 GMT 51.151760 -0.186977 0 354 10 0
2021-01-25 09:53:26 GMT 51.151669 -0.186939 0 2 11 0
2021-01-25 09:53:25 GMT 51.151611 -0.186935 0 16 11 0
2021-01-25 09:53:24 GMT 51.151566 -0.186939 0 25 11 0
2021-01-25 09:53:23 GMT 51.151516 -0.186958 0 33 11 0
2021-01-25 09:53:22 GMT 51.151470 -0.186996 0 42 11 0
2021-01-25 09:53:21 GMT 51.151440 -0.187027 0 50 11 0
2021-01-25 09:53:20 GMT 51.151249 -0.187721 0 75 13 0
2021-01-25 09:53:11 GMT 51.151249 -0.187721 0 75 13 0
2021-01-25 09:53:10 GMT 51.151237 -0.187817 0 75 14 0
2021-01-25 09:53:09 GMT 51.151226 -0.187912 0 75 15 0
2021-01-25 09:53:08 GMT 51.151192 -0.188160 0 75 17 0
2021-01-25 09:53:05 GMT 51.151169 -0.188313 0 75 18 0
2021-01-25 09:53:04 GMT 51.151154 -0.188438 0 78 18 0
2021-01-25 09:53:03 GMT 51.151119 -0.188642 0 78 20 0
2021-01-25 09:52:54 GMT 51.150925 -0.190071 0 78 27 0
2021-01-25 09:52:52 GMT 51.150867 -0.190498 0 78 28 0
2021-01-25 09:52:51 GMT 51.150841 -0.190697 0 78 27 0
2021-01-25 09:52:49 GMT 51.150784 -0.191116 0 75 27 0
2021-01-25 09:52:47 GMT 51.150742 -0.191407 0 75 27 0
2021-01-25 09:52:46 GMT 51.150719 -0.191574 0 75 27 0
2021-01-25 09:52:45 GMT 51.150681 -0.191879 0 75 27 0
2021-01-25 09:52:44 GMT 51.150593 -0.192502 0 75 26 0
2021-01-25 09:52:41 GMT 51.150593 -0.192502 0 75 26 0
2021-01-25 09:52:40 GMT 51.150570 -0.192669 0 75 26 0
2021-01-25 09:52:39 GMT 51.150547 -0.192855 0 75 26 0
2021-01-25 09:52:38 GMT 51.150505 -0.193119 0 75 26 0
2021-01-25 09:52:34 GMT 51.150421 -0.193748 0 75 25 0
2021-01-25 09:52:33 GMT 51.150387 -0.193987 0 75 25 0
2021-01-25 09:52:32 GMT 51.150352 -0.194187 0 78 25 0
2021-01-25 09:52:31 GMT 51.150295 -0.194636 0 78 25 0
2021-01-25 09:52:26 GMT 51.150215 -0.195211 0 75 24 0
2021-01-25 09:52:25 GMT 51.150192 -0.195397 0 75 24 0
2021-01-25 09:52:23 GMT 51.150143 -0.195751 0 75 24 0
2021-01-25 09:52:22 GMT 51.150120 -0.195923 0 78 24 0
2021-01-25 09:52:19 GMT 51.150055 -0.196362 0 78 24 0
2021-01-25 09:52:18 GMT 51.150028 -0.196609 0 78 24 0
2021-01-25 09:52:15 GMT 51.149944 -0.197182 0 75 24 0
2021-01-25 09:52:12 GMT 51.149887 -0.197582 0 75 23 0
2021-01-25 09:52:11 GMT 51.149853 -0.197830 0 75 23 0
2021-01-25 09:52:09 GMT 51.149815 -0.198144 0 78 23 0
2021-01-25 09:52:08 GMT 51.149792 -0.198311 0 78 23 0
2021-01-25 09:52:05 GMT 51.149727 -0.198822 0 75 23 0
2021-01-25 09:52:04 GMT 51.149700 -0.198979 0 75 23 0
2021-01-25 09:52:03 GMT 51.149677 -0.199146 0 78 23 0
2021-01-25 09:52:01 GMT 51.149643 -0.199424 0 78 22 0
2021-01-25 09:51:59 GMT 51.149597 -0.199757 0 75 22 0
2021-01-25 09:51:58 GMT 51.149574 -0.199888 0 75 22 0
2021-01-25 09:51:57 GMT 51.149551 -0.200024 0 75 22 0
2021-01-25 09:51:55 GMT 51.149517 -0.200315 0 75 22 0
2021-01-25 09:51:54 GMT 51.149494 -0.200482 0 75 22 0
2021-01-25 09:51:50 GMT 51.149422 -0.200958 0 78 21 0
2021-01-25 09:51:49 GMT 51.149399 -0.201168 0 78 21 0
2021-01-25 09:51:45 GMT 51.149319 -0.201702 0 75 21 0
2021-01-25 09:51:44 GMT 51.149300 -0.201837 0 75 21 0
2021-01-25 09:51:42 GMT 51.149261 -0.202122 0 75 20 0
2021-01-25 09:51:40 GMT 51.149235 -0.202370 0 75 19 0
2021-01-25 09:51:39 GMT 51.149200 -0.202599 0 75 19 0
2021-01-25 09:51:38 GMT 51.149185 -0.202727 0 75 18 0
2021-01-25 09:51:37 GMT 51.149166 -0.202866 0 75 18 0
2021-01-25 09:51:36 GMT 51.149139 -0.202987 0 75 17 0
2021-01-25 09:51:34 GMT 51.149109 -0.203228 0 75 17 0
2021-01-25 09:51:33 GMT 51.149097 -0.203285 0 75 16 0
2021-01-25 09:51:32 GMT 51.149086 -0.203400 0 75 16 0
2021-01-25 09:51:31 GMT 51.149063 -0.203552 0 75 15 0
2021-01-25 09:51:29 GMT 51.149014 -0.203897 0 78 14 0
2021-01-25 09:51:24 GMT 51.148979 -0.204182 0 78 13 0
2021-01-25 09:51:23 GMT 51.148956 -0.204361 0 75 13 0
2021-01-25 09:51:21 GMT 51.148933 -0.204525 0 75 13 0
2021-01-25 09:51:20 GMT 51.148922 -0.204620 0 75 13 0
2021-01-25 09:51:18 GMT 51.148899 -0.204754 0 75 13 0
2021-01-25 09:51:17 GMT 51.148888 -0.204843 0 78 13 0
2021-01-25 09:51:16 GMT 51.148876 -0.204945 0 78 13 0
2021-01-25 09:51:14 GMT 51.148853 -0.205121 0 75 13 0
2021-01-25 09:51:12 GMT 51.148830 -0.205288 0 75 13 0
2021-01-25 09:51:11 GMT 51.148796 -0.205493 0 75 13 0
2021-01-25 09:51:08 GMT 51.148773 -0.205678 0 73 13 0
2021-01-25 09:51:07 GMT 51.148758 -0.205746 0 70 13 0
2021-01-25 09:51:05 GMT 51.148724 -0.205936 0 56 13 0
2021-01-25 09:51:02 GMT 51.148647 -0.206124 0 42 13 0
2021-01-25 09:51:00 GMT 51.148560 -0.206280 0 28 12 0
2021-01-25 09:50:58 GMT 51.148491 -0.206356 0 19 12 0
2021-01-25 09:50:56 GMT 51.148407 -0.206420 0 5 12 0
2021-01-25 09:50:55 GMT 51.148327 -0.206458 0 354 12 0
2021-01-25 09:50:54 GMT 51.148270 -0.206470 0 348 11 0
2021-01-25 09:50:52 GMT 51.148083 -0.206394 0 323 11 0
2021-01-25 09:50:50 GMT 51.148083 -0.206394 0 320 11 0
2021-01-25 09:50:49 GMT 51.148037 -0.206356 0 312 11 0
2021-01-25 09:50:48 GMT 51.148003 -0.206318 0 306 11 0
2021-01-25 09:50:47 GMT 51.147957 -0.206261 0 300 10 0
2021-01-25 09:50:46 GMT 51.147926 -0.206198 0 292 10 0
2021-01-25 09:50:44 GMT 51.147881 -0.206068 0 281 10 0
2021-01-25 09:50:42 GMT 51.147858 -0.205957 0 272 10 0
2021-01-25 09:50:41 GMT 51.147858 -0.205882 0 267 10 0
2021-01-25 09:50:40 GMT 51.147846 -0.205808 0 261 10 0
2021-01-25 09:50:39 GMT 51.147850 -0.205746 0 258 10 0
2021-01-25 09:50:38 GMT 51.147850 -0.205669 0 258 10 0
2021-01-25 09:50:36 GMT 51.147869 -0.205548 0 258 11 0
2021-01-25 09:50:35 GMT 51.147884 -0.205460 0 258 11 0
2021-01-25 09:50:34 GMT 51.147884 -0.205383 0 255 11 0
2021-01-25 09:50:33 GMT 51.147900 -0.205307 0 255 12 0
2021-01-25 09:50:32 GMT 51.147911 -0.205212 0 255 13 0
2021-01-25 09:50:30 GMT 51.147945 -0.205040 0 255 15 0
2021-01-25 09:50:28 GMT 51.147972 -0.204824 0 255 18 0
2021-01-25 09:50:27 GMT 51.147984 -0.204713 0 255 19 0
2021-01-25 09:50:25 GMT 51.148029 -0.204453 0 255 23 0
2021-01-25 09:50:24 GMT 51.148048 -0.204277 0 258 25 0
2021-01-25 09:50:23 GMT 51.148075 -0.204101 0 258 27 0
2021-01-25 09:50:21 GMT 51.148132 -0.203705 0 258 32 0
2021-01-25 09:50:19 GMT 51.148190 -0.203247 0 258 36 0
2021-01-25 09:50:18 GMT 51.148224 -0.203018 0 258 38 0
2021-01-25 09:50:17 GMT 51.148258 -0.202751 0 258 39 0
2021-01-25 09:50:16 GMT 51.148293 -0.202484 0 258 40 0
2021-01-25 09:50:15 GMT 51.148338 -0.202189 0 258 43 0
2021-01-25 09:50:14 GMT 51.148430 -0.201577 0 258 51 0
2021-01-25 09:50:12 GMT 51.148479 -0.201187 0 258 55 0
2021-01-25 09:50:11 GMT 51.148525 -0.200806 0 258 59 0
2021-01-25 09:50:10 GMT 51.148636 -0.199981 0 258 67 0
2021-01-25 09:50:08 GMT 51.148705 -0.199517 0 258 72 0
2021-01-25 09:50:06 GMT 51.148815 -0.198727 0 258 74 0
2021-01-25 09:50:05 GMT 51.148911 -0.198014 0 255 82 0
2021-01-25 09:50:04 GMT 51.149006 -0.197411 0 255 86 0
2021-01-25 09:50:02 GMT 51.149162 -0.196214 0 258 94 0
2021-01-25 09:50:01 GMT 51.149261 -0.195522 250 258 98 0
2021-01-25 09:49:58 GMT 51.149551 -0.193405 250 258 112 -128
2021-01-25 09:49:55 GMT 51.149918 -0.190702 250 258 120 -128
2021-01-25 09:49:54 GMT 51.150017 -0.189972 250 258 123 -192
2021-01-25 09:49:53 GMT 51.150154 -0.189056 250 258 123 -192
2021-01-25 09:49:51 GMT 51.150341 -0.187759 250 258 123 -320
2021-01-25 09:49:49 GMT 51.150604 -0.185951 275 258 125 -448
2021-01-25 09:49:48 GMT 51.150761 -0.184631 300 258 125 -576
2021-01-25 09:49:46 GMT 51.150970 -0.183204 325 258 125 -640
2021-01-25 09:49:45 GMT 51.151089 -0.182266 350 258 124 -640
2021-01-25 09:49:44 GMT 51.151291 -0.180903 375 258 125 -640
2021-01-25 09:49:43 GMT 51.151413 -0.179901 375 258 124 -640
2021-01-25 09:49:42 GMT 51.151566 -0.178973 400 258 124 -640
2021-01-25 09:49:41 GMT 51.151691 -0.178070 400 258 124 -704
2021-01-25 09:49:40 GMT 51.151737 -0.177460 400 258 124 -704
2021-01-25 09:49:38 GMT 51.152020 -0.175629 425 258 124 -704
2021-01-25 09:49:37 GMT 51.152157 -0.174637 450 258 124 -704
2021-01-25 09:49:36 GMT 51.152252 -0.173777 450 258 124 -704
2021-01-25 09:49:35 GMT 51.152390 -0.172812 475 258 124 -768
2021-01-25 09:49:34 GMT 51.152481 -0.171995 475 258 123 -704
2021-01-25 09:49:33 GMT 51.152622 -0.171051 500 258 123 -704
2021-01-25 09:49:32 GMT 51.152847 -0.169175 525 258 123 -640
2021-01-25 09:49:30 GMT 51.152985 -0.168135 525 258 123 -704
2021-01-25 09:49:28 GMT 51.153275 -0.166321 550 258 123 -640
2021-01-25 09:49:27 GMT 51.153370 -0.165405 575 258 123 -640
2021-01-25 09:49:25 GMT 51.153488 -0.164646 575 257 123 -640
2021-01-25 09:49:24 GMT 51.153763 -0.162791 600 257 123 -576
2021-01-25 09:49:21 GMT 51.154018 -0.161133 625 258 121 -768
2021-01-25 09:49:20 GMT 51.154129 -0.160267 625 258 121 -768
2021-01-25 09:49:19 GMT 51.154251 -0.159302 650 258 121 -832
2021-01-25 09:49:18 GMT 51.154358 -0.158411 650 258 121 -832
2021-01-25 09:49:17 GMT 51.154724 -0.155739 675 258 121 -640
2021-01-25 09:49:15 GMT 51.154724 -0.155739 700 258 121 -640
2021-01-25 09:49:14 GMT 51.154907 -0.154551 700 258 121 -704
2021-01-25 09:49:13 GMT 51.155045 -0.153732 725 258 120 -704
2021-01-25 09:49:12 GMT 51.155136 -0.152817 725 258 120 -704
2021-01-25 09:49:11 GMT 51.155415 -0.150986 750 258 121 -704
2021-01-25 09:49:09 GMT 51.155510 -0.150146 775 258 121 -768
2021-01-25 09:49:08 GMT 51.155594 -0.149652 775 258 121 -768
2021-01-25 09:49:06 GMT 51.155834 -0.147934 800 258 121 -768
2021-01-25 09:49:05 GMT 51.156006 -0.146682 825 258 121 -704
2021-01-25 09:49:04 GMT 51.156162 -0.145798 825 258 120 -704
2021-01-25 09:49:03 GMT 51.156235 -0.145346 825 258 120 -640
2021-01-25 09:49:01 GMT 51.156487 -0.143280 850 258 120 -640
2021-01-25 09:48:59 GMT 51.156738 -0.141486 875 258 120 -640
2021-01-25 09:48:58 GMT 51.156860 -0.140686 900 259 120 -640
2021-01-25 09:48:57 GMT 51.156967 -0.139779 900 259 120 -640
2021-01-25 09:48:56 GMT 51.157104 -0.138962 900 259 120 -640
2021-01-25 09:48:55 GMT 51.157196 -0.138071 925 259 120 -576
2021-01-25 09:48:53 GMT 51.157425 -0.136290 950 259 120 -576
2021-01-25 09:48:52 GMT 51.157558 -0.135345 950 258 120 -576
2021-01-25 09:48:51 GMT 51.157696 -0.134506 950 258 120 -576
2021-01-25 09:48:50 GMT 51.157837 -0.133667 975 257 120 -576
2021-01-25 09:48:49 GMT 51.157974 -0.132652 975 257 120 -576
2021-01-25 09:48:48 GMT 51.158020 -0.132133 1,000 257 120 -576
2021-01-25 09:48:46 GMT 51.158302 -0.130310 1,000 257 120 -640
2021-01-25 09:48:45 GMT 51.158432 -0.129535 1,025 257 120 -640
2021-01-25 09:48:44 GMT 51.158581 -0.128479 1,025 257 120 -640
2021-01-25 09:48:43 GMT 51.158707 -0.127679 1,050 257 120 -640
2021-01-25 09:48:42 GMT 51.158981 -0.125823 1,075 257 121 -640
2021-01-25 09:48:40 GMT 51.159142 -0.124969 1,075 257 121 -704
2021-01-25 09:48:39 GMT 51.159256 -0.124042 1,100 258 121 -704
2021-01-25 09:48:37 GMT 51.159393 -0.123077 1,100 258 121 -704
2021-01-25 09:48:36 GMT 51.159622 -0.121443 1,125 258 121 -704
2021-01-25 09:48:35 GMT 51.159794 -0.120544 1,125 258 120 -576
2021-01-25 09:48:34 GMT 51.159851 -0.120033 1,150 259 120 -640
2021-01-25 09:48:33 GMT 51.160027 -0.118790 1,150 259 120 -640
2021-01-25 09:48:32 GMT 51.160080 -0.118029 1,175 259 121 -640
2021-01-25 09:48:31 GMT 51.160217 -0.117064 1,175 259 121 -576
2021-01-25 09:48:29 GMT 51.160397 -0.115509 1,200 259 121 -576
2021-01-25 09:48:28 GMT 51.160538 -0.114614 1,200 259 121 -576
2021-01-25 09:48:27 GMT 51.160679 -0.113602 1,225 259 121 -640
2021-01-25 09:48:26 GMT 51.160770 -0.112839 1,225 259 121 -640
2021-01-25 09:48:25 GMT 51.160862 -0.111847 1,225 259 121 -640
2021-01-25 09:48:23 GMT 51.161095 -0.110092 1,250 259 121 -640
2021-01-25 09:48:22 GMT 51.161236 -0.109253 1,275 259 121 -640
2021-01-25 09:48:21 GMT 51.161362 -0.108230 1,275 259 121 -640
2021-01-25 09:48:20 GMT 51.161469 -0.107422 1,300 259 121 -640
2021-01-25 09:48:18 GMT 51.161682 -0.105632 1,300 259 121 -576
2021-01-25 09:48:17 GMT 51.161793 -0.104675 1,325 259 121 -576
2021-01-25 09:48:15 GMT 51.162048 -0.102885 1,350 259 121 -640
2021-01-25 09:48:13 GMT 51.162212 -0.101547 1,350 260 121 -576
2021-01-25 09:48:12 GMT 51.162369 -0.100362 1,375 260 121 -576
2021-01-25 09:48:11 GMT 51.162445 -0.099487 1,375 260 121 -512
2021-01-25 09:48:09 GMT 51.162678 -0.097733 1,400 259 121 -576
2021-01-25 09:48:08 GMT 51.162781 -0.096947 1,400 259 121 -576
2021-01-25 09:48:07 GMT 51.162872 -0.096056 1,425 259 121 -512
2021-01-25 09:48:06 GMT 51.163010 -0.095165 1,425 259 121 -512
2021-01-25 09:48:05 GMT 51.163147 -0.094126 1,450 259 121 -512
2021-01-25 09:48:04 GMT 51.163376 -0.092392 1,450 259 121 -512
2021-01-25 09:48:01 GMT 51.163609 -0.090714 1,475 258 121 -512
2021-01-25 09:48:00 GMT 51.163700 -0.089951 1,475 258 121 -576
2021-01-25 09:47:59 GMT 51.163841 -0.089035 1,500 258 121 -576
2021-01-25 09:47:57 GMT 51.164028 -0.087357 1,500 258 121 -576
2021-01-25 09:47:56 GMT 51.164154 -0.086480 1,525 258 121 -576
2021-01-25 09:47:55 GMT 51.164291 -0.085664 1,525 258 122 -576
2021-01-25 09:47:54 GMT 51.164429 -0.084699 1,550 258 122 -640
2021-01-25 09:47:53 GMT 51.164539 -0.083694 1,550 258 122 -640
2021-01-25 09:47:51 GMT 51.164772 -0.082016 1,575 258 123 -704
2021-01-25 09:47:50 GMT 51.164932 -0.081061 1,575 258 123 -704
2021-01-25 09:47:49 GMT 51.165054 -0.080261 1,600 258 124 -704
2021-01-25 09:47:48 GMT 51.165161 -0.079354 1,600 258 125 -704
2021-01-25 09:47:47 GMT 51.165253 -0.078612 1,625 258 125 -768
2021-01-25 09:47:45 GMT 51.165573 -0.076385 1,650 258 128 -832
2021-01-25 09:47:43 GMT 51.165756 -0.075048 1,675 258 129 -832
2021-01-25 09:47:42 GMT 51.165939 -0.073638 1,700 258 130 -768
2021-01-25 09:47:40 GMT 51.166168 -0.072153 1,725 258 134 -640
2021-01-25 09:47:39 GMT 51.166351 -0.070817 1,725 258 134 -576
2021-01-25 09:47:37 GMT 51.166580 -0.069258 1,750 258 136 -576
2021-01-25 09:47:36 GMT 51.166683 -0.068207 1,750 258 137 -576
2021-01-25 09:47:34 GMT 51.166992 -0.066215 1,800 258 138 -768
2021-01-25 09:47:33 GMT 51.167103 -0.065155 1,800 258 138 -832
2021-01-25 09:47:31 GMT 51.167404 -0.063023 1,825 258 139 -704
2021-01-25 09:47:30 GMT 51.167725 -0.060870 1,850 258 140 -768
2021-01-25 09:47:28 GMT 51.167847 -0.059891 1,875 258 141 -832
2021-01-25 09:47:27 GMT 51.168034 -0.058746 1,875 258 141 -832
2021-01-25 09:47:26 GMT 51.168125 -0.057831 1,900 258 142 -832
2021-01-25 09:47:25 GMT 51.168274 -0.056787 1,900 258 142 -832
2021-01-25 09:47:24 GMT 51.168358 -0.056229 1,900 258 143 -832
2021-01-25 09:47:22 GMT 51.168686 -0.053967 1,950 258 144 -832
2021-01-25 09:47:21 GMT 51.168823 -0.052795 1,950 258 145 -832
2021-01-25 09:47:20 GMT 51.169010 -0.051727 1,975 258 146 -832
2021-01-25 09:47:19 GMT 51.169147 -0.050735 1,975 258 147 -832
2021-01-25 09:47:18 GMT 51.169289 -0.049667 2,000 258 147 -832
2021-01-25 09:47:15 GMT 51.169708 -0.046539 2,150 258 150 -896
2021-01-25 09:47:12 GMT 51.170174 -0.043335 2,100 258 150 -832
2021-01-25 09:47:09 GMT 51.170517 -0.040976 2,125 258 151 -832
2021-01-25 09:47:06 GMT 51.170929 -0.037858 2,275 258 151 -768
2021-01-25 09:47:04 GMT 51.171337 -0.035172 2,250 258 151 -768
2021-01-25 09:47:01 GMT 51.171707 -0.032365 2,225 258 151 -768
2021-01-25 09:46:58 GMT 51.172256 -0.028579 2,275 258 151 -768
2021-01-25 09:46:55 GMT 51.172733 -0.025253 2,325 258 152 -768
2021-01-25 09:46:52 GMT 51.173244 -0.021591 2,375 258 152 -768
2021-01-25 09:46:49 GMT 51.173805 -0.017853 2,375 258 152 -768
2021-01-25 09:46:46 GMT 51.174316 -0.013885 2,425 258 152 -768
2021-01-25 09:46:42 GMT 51.174637 -0.011654 2,450 258 153 -768
2021-01-25 09:46:39 GMT 51.175201 -0.007706 2,500 258 153 -768
2021-01-25 09:46:36 GMT 51.175598 -0.004825 2,550 257 155 -832
2021-01-25 09:46:34 GMT 51.175900 -0.002899 2,600 257 155 -832
2021-01-25 09:46:31 GMT 51.176468 0.001188 2,625 256 155 -832
2021-01-25 09:46:28 GMT 51.177246 0.005716 2,675 254 158 -768
2021-01-25 09:46:25 GMT 51.177612 0.007943 2,700 254 158 -768
2021-01-25 09:46:22 GMT 51.178253 0.011209 2,750 252 160 -768
2021-01-25 09:46:19 GMT 51.179077 0.015143 2,775 251 161 -768
2021-01-25 09:46:16 GMT 51.179581 0.017370 2,925 253 163 -832
2021-01-25 09:46:14 GMT 51.180954 0.023532 2,850 251 162 -768
2021-01-25 09:46:11 GMT 51.180954 0.023532 2,900 252 163 -768
2021-01-25 09:46:08 GMT 51.181595 0.026575 2,925 285 177 -64
2021-01-25 09:46:05 GMT 51.182419 0.030732 2,950 255 163 -768
2021-01-25 09:46:01 GMT 51.183208 0.035172 3,025 256 164 -832
2021-01-25 09:45:58 GMT 51.183746 0.038601 3,075 256 163 -640
2021-01-25 09:45:55 GMT 51.184418 0.043030 3,100 259 164 -320
2021-01-25 09:45:52 GMT 51.184799 0.045801 3,100 260 164 -128
2021-01-25 09:45:49 GMT 51.185257 0.049290 3,100 263 168 0
2021-01-25 09:45:46 GMT 51.185581 0.052872 3,100 263 170 0
2021-01-25 09:45:42 GMT 51.185944 0.058643 3,100 269 174 0
2021-01-25 09:45:39 GMT 51.186035 0.061613 3,100 272 177 64
2021-01-25 09:45:36 GMT 51.186001 0.065308 3,100 275 178 -64
2021-01-25 09:45:34 GMT 51.185806 0.068665 3,125 283 177 -64
2021-01-25 09:45:31 GMT 51.185581 0.071335 3,125 283 177 -64
2021-01-25 09:45:28 GMT 51.185024 0.075989 3,150 285 178 -256
2021-01-25 09:45:25 GMT 51.184387 0.079799 3,125 287 176 -128
2021-01-25 09:45:22 GMT 51.183765 0.083084 3,150 286 177 -192
2021-01-25 09:45:19 GMT 51.183060 0.087074 3,150 284 178 -256
2021-01-25 09:45:16 GMT 51.182465 0.091019 3,175 281 181 -256
2021-01-25 09:45:14 GMT 51.182007 0.095314 3,175 277 184 -384
2021-01-25 09:45:11 GMT 51.181858 0.098038 3,200 269 189 -576
2021-01-25 09:45:08 GMT 51.181778 0.101549 3,200 267 190 -640
2021-01-25 09:45:06 GMT 51.181950 0.104980 3,250 257 196 -768
2021-01-25 09:45:04 GMT 51.182190 0.107562 3,300 257 196 -832
2021-01-25 09:45:01 GMT 51.182835 0.111465 3,300 251 199 -832
2021-01-25 09:44:58 GMT 51.183952 0.115356 3,350 239 207 -896
2021-01-25 09:44:55 GMT 51.185760 0.119810 3,425 226 214 -896
2021-01-25 09:44:52 GMT 51.188515 0.124435 3,450 221 218 -896
2021-01-25 09:44:49 GMT 51.190052 0.126495 3,500 217 221 -832
2021-01-25 09:44:46 GMT 51.193031 0.129776 3,525 211 225 -896
2021-01-25 09:44:43 GMT 51.195267 0.131683 3,575 204 229 -832
2021-01-25 09:44:40 GMT 51.198669 0.133840 3,625 198 233 -960
2021-01-25 09:44:36 GMT 51.202469 0.135325 3,675 190 238 -960
2021-01-25 09:44:34 GMT 51.205227 0.135956 3,725 184 241 -768
2021-01-25 09:44:31 GMT 51.207642 0.136216 3,750 182 242 -768
2021-01-25 09:44:28 GMT 51.210571 0.136067 3,775 173 245 -832
2021-01-25 09:44:26 GMT 51.213730 0.135473 3,825 169 247 -960
2021-01-25 09:44:23 GMT 51.216587 0.134506 3,850 163 249 -896
2021-01-25 09:44:21 GMT 51.218948 0.133395 3,900 158 250 -960
2021-01-25 09:44:18 GMT 51.221615 0.131760 3,950 155 251 -960
2021-01-25 09:44:16 GMT 51.224716 0.129535 3,975 151 252 -896
2021-01-25 09:44:13 GMT 51.227600 0.127085 4,025 151 253 -896
2021-01-25 09:44:11 GMT 51.229713 0.125198 4,050 150 254 -896
2021-01-25 09:44:08 GMT 51.232368 0.122833 4,100 150 255 -896
2021-01-25 09:44:05 GMT 51.236092 0.119553 4,150 150 256 -896
2021-01-25 09:44:02 GMT 51.239182 0.116767 4,225 150 259 -832
2021-01-25 09:43:59 GMT 51.242523 0.113798 4,250 150 261 -896
2021-01-25 09:43:56 GMT 51.245171 0.111389 4,275 150 262 -960
2021-01-25 09:43:53 GMT 51.248749 0.108230 4,325 150 263 -960
2021-01-25 09:43:51 GMT 51.253647 0.103850 4,375 150 265 -960
2021-01-25 09:43:48 GMT 51.253647 0.103850 4,400 150 265 -960
2021-01-25 09:43:45 GMT 51.257401 0.100510 4,450 150 267 -896
2021-01-25 09:43:42 GMT 51.259926 0.098190 6,450 150 288 -1408
2021-01-25 09:43:39 GMT 51.264114 0.094452 4,550 150 270 -768
2021-01-25 09:43:36 GMT 51.267105 0.091751 4,575 150 270 -768
2021-01-25 09:43:33 GMT 51.270309 0.088930 4,600 150 273 -768
2021-01-25 09:43:31 GMT 51.272308 0.087128 4,675 150 274 -768
2021-01-25 09:43:28 GMT 51.275482 0.084253 4,675 150 275 -768
2021-01-25 09:43:25 GMT 51.278873 0.081253 4,700 150 277 -768
2021-01-25 09:43:22 GMT 51.282223 0.078201 4,750 150 278 -768
2021-01-25 09:43:19 GMT 51.286369 0.074463 4,800 150 281 -832
2021-01-25 09:43:16 GMT 51.289349 0.071869 4,825 150 282 -832
2021-01-25 09:43:13 GMT 51.292328 0.069110 4,875 150 284 -896
2021-01-25 09:43:10 GMT 51.295956 0.065918 4,925 150 285 -896
2021-01-25 09:43:07 GMT 51.299469 0.062726 4,975 150 286 -832
2021-01-25 09:43:04 GMT 51.303314 0.059280 5,100 150 286 -768
2021-01-25 09:43:01 GMT 51.305603 0.057233 5,050 150 286 -768
2021-01-25 09:42:58 GMT 51.309494 0.053670 5,100 150 285 -768
2021-01-25 09:42:55 GMT 51.312202 0.051270 5,125 150 285 -768
2021-01-25 09:42:53 GMT 51.315353 0.048399 5,150 150 285 -768
2021-01-25 09:42:51 GMT 51.317505 0.046395 5,175 150 285 -768
2021-01-25 09:42:48 GMT 51.320908 0.043335 5,250 150 286 -1216
2021-01-25 09:42:45 GMT 51.326775 0.038071 5,275 150 286 -1536
2021-01-25 09:42:43 GMT 51.326775 0.038071 5,300 150 286 -1664
2021-01-25 09:42:41 GMT 51.328499 0.036469 5,725 150 286 -1728
2021-01-25 09:42:38 GMT 51.333107 0.032349 5,500 150 286 -1728
2021-01-25 09:42:35 GMT 51.338600 0.027313 5,575 150 286 -1792
2021-01-25 09:42:33 GMT 51.338600 0.027313 5,675 150 286 -1792
2021-01-25 09:42:30 GMT 51.341995 0.024200 5,800 150 286 -1792
2021-01-25 09:42:27 GMT 51.345108 0.021379 5,825 150 286 -1792
2021-01-25 09:42:24 GMT 51.349865 0.017090 5,900 150 286 -1728
2021-01-25 09:42:21 GMT 51.352890 0.014343 5,975 150 286 -1664
2021-01-25 09:42:18 GMT 51.355453 0.012026 6,025 150 286 -1600
2021-01-25 09:42:15 GMT 51.359024 0.008834 6,100 150 286 -1536
2021-01-25 09:42:12 GMT 51.361969 0.006180 6,200 150 287 -1472
2021-01-25 09:42:10 GMT 51.365616 0.002895 6,250 150 287 -1408
2021-01-25 09:42:07 GMT 51.367741 0.000992 6,325 150 287 -1408
2021-01-25 09:42:05 GMT 51.371559 -0.002518 6,350 150 287 -1408
2021-01-25 09:42:02 GMT 51.374039 -0.004751 6,425 150 288 -1408
2021-01-25 09:42:00 GMT 51.376373 -0.006829 6,475 150 289 -1408
2021-01-25 09:41:57 GMT 51.379852 -0.009947 6,575 150 289 -1408
2021-01-25 09:41:54 GMT 51.383377 -0.013139 6,650 150 290 -1408
2021-01-25 09:41:51 GMT 51.387756 -0.017090 6,700 150 291 -1472
2021-01-25 09:41:48 GMT 51.391716 -0.020676 6,750 150 291 -1472
2021-01-25 09:41:45 GMT 51.394650 -0.023346 6,825 150 292 -1536
2021-01-25 09:41:42 GMT 51.397488 -0.025864 6,900 150 292 -1600
2021-01-25 09:41:40 GMT 51.400097 -0.028152 6,950 150 292 -1600
2021-01-25 09:41:37 GMT 51.403027 -0.030823 7,050 150 292 -1472
2021-01-25 09:41:35 GMT 51.408100 -0.035400 7,075 150 293 -1472
2021-01-25 09:41:33 GMT 51.408100 -0.035400 7,125 150 293 -1472
2021-01-25 09:41:31 GMT 51.410477 -0.037460 7,200 150 293 -1600
2021-01-25 09:41:28 GMT 51.414185 -0.040828 7,275 150 294 -1728
2021-01-25 09:41:25 GMT 51.417133 -0.043411 7,350 150 293 -1728
2021-01-25 09:41:23 GMT 51.419998 -0.046024 7,400 150 293 -1792
2021-01-25 09:41:20 GMT 51.423203 -0.048845 7,550 150 293 -1728
2021-01-25 09:41:17 GMT 51.426865 -0.052111 7,575 150 293 -1664
2021-01-25 09:41:15 GMT 51.429283 -0.054321 7,650 150 292 -1600
2021-01-25 09:41:13 GMT 51.432262 -0.056915 7,700 150 292 -1536
2021-01-25 09:41:11 GMT 51.434647 -0.059089 7,775 150 291 -1344
2021-01-25 09:41:08 GMT 51.437714 -0.061835 7,825 150 291 -1344
2021-01-25 09:41:05 GMT 51.442272 -0.065994 8,000 150 291 0
2021-01-25 09:41:02 GMT 51.444672 -0.068145 7,925 150 291 -896
2021-01-25 09:41:00 GMT 51.446869 -0.070149 7,975 150 291 -704
2021-01-25 09:40:57 GMT 51.450027 -0.073044 8,000 150 291 0
2021-01-25 09:40:55 GMT 51.453186 -0.075939 8,000 150 291 -64
2021-01-25 09:40:52 GMT 51.456711 -0.079131 8,000 150 291 0
2021-01-25 09:40:50 GMT 51.459587 -0.081787 8,000 150 292 0
2021-01-25 09:40:47 GMT 51.461746 -0.083808 8,000 150 292 0
2021-01-25 09:40:45 GMT 51.464310 -0.086109 8,000 150 292 0
2021-01-25 09:40:43 GMT 51.471321 -0.092545 8,000 150 292 0
2021-01-25 09:40:40 GMT 51.471321 -0.092545 8,000 150 291 0
2021-01-25 09:40:37 GMT 51.473648 -0.094681 8,000 150 291 0
2021-01-25 09:40:35 GMT 51.476074 -0.096798 8,000 150 291 0
2021-01-25 09:40:33 GMT 51.479046 -0.099564 8,000 150 291 0
2021-01-25 09:40:31 GMT 51.480118 -0.100479 8,000 150 291 0
2021-01-25 09:40:28 GMT 51.484680 -0.104675 8,000 150 291 0
2021-01-25 09:40:26 GMT 51.487656 -0.107414 8,000 150 291 0
2021-01-25 09:40:23 GMT 51.490967 -0.110397 8,000 150 291 0
2021-01-25 09:40:20 GMT 51.493469 -0.112758 8,000 150 291 0
2021-01-25 09:40:17 GMT 51.497086 -0.116025 8,000 150 292 0
2021-01-25 09:40:15 GMT 51.499649 -0.118400 8,000 150 290 0
2021-01-25 09:40:13 GMT 51.502716 -0.121147 8,000 150 290 0
2021-01-25 09:40:10 GMT 51.506512 -0.124588 8,000 150 289 0
2021-01-25 09:40:07 GMT 51.509445 -0.127308 8,000 150 290 0
2021-01-25 09:40:04 GMT 51.512970 -0.130500 8,000 150 290 0
2021-01-25 09:40:01 GMT 51.517181 -0.134286 8,000 150 290 0
2021-01-25 09:39:58 GMT 51.520061 -0.136871 8,000 150 290 0
2021-01-25 09:39:55 GMT 51.523270 -0.139779 8,000 150 290 0
2021-01-25 09:39:53 GMT 51.525742 -0.141931 8,000 150 291 0
2021-01-25 09:39:50 GMT 51.529404 -0.145198 8,000 150 291 0
2021-01-25 09:39:47 GMT 51.532394 -0.147934 8,000 150 291 0
2021-01-25 09:39:45 GMT 51.535400 -0.150617 8,000 150 291 0
2021-01-25 09:39:42 GMT 51.537937 -0.152893 8,000 150 292 0
2021-01-25 09:39:40 GMT 51.541473 -0.156021 8,000 150 292 64
2021-01-25 09:39:37 GMT 51.544235 -0.158559 8,000 150 292 0
2021-01-25 09:39:35 GMT 51.547710 -0.161667 8,000 150 292 0
2021-01-25 09:39:32 GMT 51.549480 -0.163269 8,000 150 292 0
2021-01-25 09:39:30 GMT 51.552017 -0.165537 8,000 150 292 0
2021-01-25 09:39:27 GMT 51.556091 -0.169220 8,000 150 292 0
2021-01-25 09:39:24 GMT 51.563004 -0.175484 8,000 150 292 0
2021-01-25 09:39:21 GMT 51.563004 -0.175484 8,000 150 292 0
2021-01-25 09:39:18 GMT 51.566704 -0.178833 8,000 150 292 0
2021-01-25 09:39:16 GMT 51.571701 -0.183353 8,000 150 293 0
2021-01-25 09:39:14 GMT 51.571701 -0.183353 8,000 150 293 0
2021-01-25 09:39:11 GMT 51.575729 -0.187065 8,000 150 292 0
2021-01-25 09:39:08 GMT 51.578751 -0.189811 8,000 150 292 0
2021-01-25 09:39:06 GMT 51.580994 -0.191890 8,000 150 292 0
2021-01-25 09:39:03 GMT 51.584152 -0.194785 8,000 150 292 0
2021-01-25 09:39:00 GMT 51.591522 -0.201614 8,000 150 292 0
2021-01-25 09:38:57 GMT 51.591522 -0.201614 8,000 150 291 0
2021-01-25 09:38:54 GMT 51.595242 -0.205002 8,000 150 291 0
2021-01-25 09:38:51 GMT 51.598801 -0.208295 8,000 150 292 0
2021-01-25 09:38:48 GMT 51.601898 -0.211182 8,000 150 292 0
2021-01-25 09:38:46 GMT 51.604923 -0.213928 8,000 150 292 0
2021-01-25 09:38:43 GMT 51.607857 -0.216675 8,000 150 292 -64
2021-01-25 09:38:40 GMT 51.611256 -0.219803 8,000 150 291 0
2021-01-25 09:38:37 GMT 51.615509 -0.223735 8,000 150 291 0
2021-01-25 09:38:34 GMT 51.618439 -0.226407 8,000 150 291 0
2021-01-25 09:38:31 GMT 51.621826 -0.229525 8,000 150 291 0
2021-01-25 09:38:29 GMT 51.624161 -0.231678 8,000 150 291 0
2021-01-25 09:38:26 GMT 51.627228 -0.234424 8,000 150 291 0
2021-01-25 09:38:24 GMT 51.630615 -0.237542 8,000 150 291 0
2021-01-25 09:38:21 GMT 51.636440 -0.242844 8,000 150 291 0
2021-01-25 09:38:19 GMT 51.636440 -0.242844 8,000 150 291 0
2021-01-25 09:38:16 GMT 51.638767 -0.244980 8,000 150 291 0
2021-01-25 09:38:14 GMT 51.641003 -0.246964 8,000 150 291 0
2021-01-25 09:38:12 GMT 51.644073 -0.249710 8,000 150 291 0
2021-01-25 09:38:10 GMT 51.646500 -0.251869 8,000 151 291 -64
2021-01-25 09:38:07 GMT 51.649616 -0.254669 8,000 151 291 0
2021-01-25 09:38:04 GMT 51.654373 -0.258847 8,000 151 291 0
2021-01-25 09:38:01 GMT 51.657257 -0.261296 8,000 151 291 0
2021-01-25 09:37:59 GMT 51.659592 -0.263375 8,000 151 291 0
2021-01-25 09:37:56 GMT 51.665085 -0.268052 8,000 152 292 0
2021-01-25 09:37:54 GMT 51.665085 -0.268052 8,000 152 291 -64
2021-01-25 09:37:51 GMT 51.669296 -0.271466 8,000 152 292 -64
2021-01-25 09:37:49 GMT 51.671082 -0.272951 8,000 153 292 -64
2021-01-25 09:37:46 GMT 51.675064 -0.276217 8,000 155 291 0
2021-01-25 09:37:43 GMT 51.681290 -0.281042 8,000 154 292 0
2021-01-25 09:37:40 GMT 51.682617 -0.282007 8,000 154 292 0
2021-01-25 09:37:37 GMT 51.684952 -0.283789 8,000 155 292 0
2021-01-25 09:37:35 GMT 51.688889 -0.286684 8,000 155 291 0
2021-01-25 09:37:32 GMT 51.692047 -0.289059 8,000 156 292 0
2021-01-25 09:37:30 GMT 51.694351 -0.290680 8,000 156 291 -64
2021-01-25 09:37:27 GMT 51.699234 -0.294107 8,000 156 292 -64
2021-01-25 09:37:24 GMT 51.701752 -0.295814 8,000 157 293 -64
2021-01-25 09:37:22 GMT 51.704407 -0.297699 8,000 157 293 0
2021-01-25 09:37:20 GMT 51.706970 -0.299377 8,000 157 292 0
2021-01-25 09:37:17 GMT 51.711731 -0.302569 8,000 157 292 0
2021-01-25 09:37:14 GMT 51.714134 -0.304184 8,000 157 292 0
2021-01-25 09:37:12 GMT 51.717396 -0.306396 8,000 157 292 0
2021-01-25 09:37:09 GMT 51.720512 -0.308456 8,000 157 293 0
2021-01-25 09:37:06 GMT 51.723587 -0.310512 8,000 156 292 0
2021-01-25 09:37:04 GMT 51.730103 -0.315094 8,000 156 293 64
2021-01-25 09:37:02 GMT 51.730103 -0.315094 8,000 155 293 64
2021-01-25 09:36:59 GMT 51.733246 -0.317416 8,000 154 293 64
2021-01-25 09:36:56 GMT 51.736267 -0.319791 7,975 153 293 128
2021-01-25 09:36:54 GMT 51.739506 -0.322342 7,975 151 293 192
2021-01-25 09:36:51 GMT 51.742020 -0.324554 7,975 150 293 256
2021-01-25 09:36:49 GMT 51.745148 -0.327363 7,975 147 294 256
2021-01-25 09:36:46 GMT 51.748211 -0.330353 7,950 145 293 320
2021-01-25 09:36:44 GMT 51.750549 -0.332856 7,950 145 292 384
2021-01-25 09:36:42 GMT 51.752823 -0.335388 7,925 141 292 448
2021-01-25 09:36:40 GMT 51.755630 -0.338943 7,925 138 292 448
2021-01-25 09:36:37 GMT 51.757755 -0.341873 7,925 136 292 448
2021-01-25 09:36:35 GMT 51.760178 -0.345917 7,875 126 286 896
2021-01-25 09:36:32 GMT 51.762634 -0.350820 7,850 124 283 1088
2021-01-25 09:36:30 GMT 51.764374 -0.355274 7,825 115 275 1344
2021-01-25 09:36:27 GMT 51.765839 -0.359876 7,775 110 270 1472
2021-01-25 09:36:24 GMT 51.767166 -0.365295 7,700 103 264 1728
2021-01-25 09:36:22 GMT 51.767944 -0.370120 7,625 101 263 1856
2021-01-25 09:36:19 GMT 51.768494 -0.376059 7,500 94 256 2048
2021-01-25 09:36:16 GMT 51.768600 -0.380859 7,375 87 252 2048
2021-01-25 09:36:13 GMT 51.768463 -0.385513 7,325 83 248 1920
2021-01-25 09:36:11 GMT 51.768127 -0.388901 7,275 80 247 1984
2021-01-25 09:36:09 GMT 51.767532 -0.394320 7,175 79 245 2112
2021-01-25 09:36:06 GMT 51.766972 -0.399475 7,075 92 246 1984
2021-01-25 09:36:03 GMT 51.766415 -0.406113 7,000 86 245 2048
2021-01-25 09:36:00 GMT 51.766319 -0.409775 6,875 92 246 1984
2021-01-25 09:35:58 GMT 51.766388 -0.413695 6,725 96 247 1984
2021-01-25 09:35:55 GMT 51.766693 -0.418549 6,725 98 247 1984
2021-01-25 09:35:52 GMT 51.767624 -0.425572 6,600 108 249 2048
2021-01-25 09:35:50 GMT 51.768173 -0.428170 6,475 112 250 2048
2021-01-25 09:35:47 GMT 51.769253 -0.432663 6,450 116 250 2048
2021-01-25 09:35:45 GMT 51.770279 -0.436020 6,375 117 250 2048
2021-01-25 09:35:42 GMT 51.772659 -0.442274 6,250 125 250 2048
2021-01-25 09:35:39 GMT 51.774673 -0.446357 6,150 131 250 2048
2021-01-25 09:35:36 GMT 51.776367 -0.449400 6,075 138 250 2048
2021-01-25 09:35:34 GMT 51.781776 -0.456619 5,975 142 250 1984
2021-01-25 09:35:31 GMT 51.781776 -0.456619 5,825 152 251 1984
2021-01-25 09:35:28 GMT 51.784847 -0.459595 5,800 154 251 1984
2021-01-25 09:35:25 GMT 51.787033 -0.461203 5,700 157 251 2176
2021-01-25 09:35:22 GMT 51.791225 -0.463715 5,575 163 250 2624
2021-01-25 09:35:19 GMT 51.794022 -0.464859 5,475 168 249 3200
2021-01-25 09:35:16 GMT 51.796921 -0.465731 5,300 172 249 3520
2021-01-25 09:35:13 GMT 51.799896 -0.466102 5,150 177 248 3840
2021-01-25 09:35:11 GMT 51.802212 -0.466156 4,975 184 246 3904
2021-01-25 09:35:08 GMT 51.806541 -0.465622 4,625 189 244 3904
2021-01-25 09:35:05 GMT 51.809753 -0.464630 4,575 195 243 3840
2021-01-25 09:35:02 GMT 51.813709 -0.462723 4,325 204 239 3776
2021-01-25 09:34:59 GMT 51.816238 -0.460980 4,000 208 237 3584
2021-01-25 09:34:56 GMT 51.819019 -0.458679 4,025 208 237 3520
2021-01-25 09:34:53 GMT 51.821274 -0.456675 3,775 210 236 2688
2021-01-25 09:34:51 GMT 51.824184 -0.454025 3,750 210 231 1536
2021-01-25 09:34:48 GMT 51.826511 -0.451889 3,650 210 227 1920
2021-01-25 09:34:45 GMT 51.829445 -0.449142 3,600 210 226 2176
2021-01-25 09:34:42 GMT 51.831261 -0.447464 3,400 211 220 1472
2021-01-25 09:34:40 GMT 51.834194 -0.444717 3,425 211 217 1472
2021-01-25 09:34:37 GMT 51.836430 -0.442581 3,375 211 214 1792
2021-01-25 09:34:34 GMT 51.839035 -0.440121 3,225 211 209 1856
2021-01-25 09:34:31 GMT 51.841225 -0.438004 3,175 212 206 1664
2021-01-25 09:34:29 GMT 51.842606 -0.436707 3,100 212 200 1600
2021-01-25 09:34:26 GMT 51.845367 -0.433960 2,975 213 195 1664
2021-01-25 09:34:23 GMT 51.847603 -0.431671 2,925 214 193 1600
2021-01-25 09:34:20 GMT 51.849880 -0.429230 2,900 214 191 1600
2021-01-25 09:34:17 GMT 51.852081 -0.426759 2,800 216 182 1664
2021-01-25 09:34:14 GMT 51.854725 -0.423660 2,650 220 172 1728
2021-01-25 09:34:11 GMT 51.856064 -0.422009 2,500 219 175 1728
2021-01-25 09:34:09 GMT 51.857071 -0.420747 2,450 223 166 1792
2021-01-25 09:34:06 GMT 51.859100 -0.417938 2,525 221 169 1728
2021-01-25 09:34:03 GMT 51.860821 -0.415497 2,425 224 163 1792
2021-01-25 09:34:00 GMT 51.862453 -0.412903 2,300 229 156 2048
2021-01-25 09:33:57 GMT 51.864166 -0.409909 2,175 232 152 2112
2021-01-25 09:33:54 GMT 51.865105 -0.408096 2,150 232 152 2112
2021-01-25 09:33:51 GMT 51.866592 -0.404787 2,025 238 147 2176
2021-01-25 09:33:49 GMT 51.867016 -0.403748 1,975 239 145 2304
2021-01-25 09:33:48 GMT 51.867462 -0.402560 1,925 240 145 2560
2021-01-25 09:33:47 GMT 51.868317 -0.400085 1,800 244 141 3008
2021-01-25 09:33:45 GMT 51.868607 -0.399294 1,750 246 141 3072
2021-01-25 09:33:43 GMT 51.869156 -0.397263 1,625 249 140 3136
2021-01-25 09:33:41 GMT 51.869614 -0.395285 1,525 251 139 3200
2021-01-25 09:33:40 GMT 51.869843 -0.394246 1,475 252 139 3200
2021-01-25 09:33:39 GMT 51.870071 -0.393281 1,425 252 140 3136
2021-01-25 09:33:37 GMT 51.870438 -0.391277 1,300 253 139 2944
2021-01-25 09:33:36 GMT 51.870667 -0.390163 1,250 253 140 2880
2021-01-25 09:33:35 GMT 51.870876 -0.389252 1,200 253 140 2688
2021-01-25 09:33:34 GMT 51.871033 -0.388307 1,175 253 139 2432
2021-01-25 09:33:32 GMT 51.871353 -0.386748 1,100 253 139 2432
2021-01-25 09:33:31 GMT 51.871582 -0.385486 1,075 253 139 2240
2021-01-25 09:33:29 GMT 51.871948 -0.383482 975 255 138 2240
2021-01-25 09:33:28 GMT 51.872135 -0.382385 925 255 138 2048
2021-01-25 09:33:26 GMT 51.872543 -0.380290 875 255 138 1920
2021-01-25 09:33:25 GMT 51.872681 -0.379325 825 254 136 1856
2021-01-25 09:33:24 GMT 51.872864 -0.378434 800 254 136 1856
2021-01-25 09:33:22 GMT 51.873230 -0.376430 725 254 135 1536
2021-01-25 09:33:21 GMT 51.873779 -0.373387 650 255 132 576
2021-01-25 09:33:19 GMT 51.873779 -0.373387 650 255 128 192
2021-01-25 09:33:18 GMT 51.873917 -0.372496 650 255 125 128
2021-01-25 09:33:12 GMT 51.874741 -0.367889 700 255 100 0
2021-01-25 09:33:07 GMT 51.875324 -0.364405 0 253 80
2021-01-25 09:33:06 GMT 51.875477 -0.363541 0 253 74
2021-01-25 09:33:04 GMT 51.875656 -0.362512 0 255 64
2021-01-25 09:33:02 GMT 51.875744 -0.362034 0 253 59
2021-01-25 09:33:01 GMT 51.875828 -0.361584 0 255 54
2021-01-25 09:33:00 GMT 51.875927 -0.361004 0 253 44
2021-01-25 09:32:59 GMT 51.875999 -0.360603 0 253 39
2021-01-25 09:32:56 GMT 51.876114 -0.359955 0 253 24
2021-01-25 09:32:55 GMT 51.876125 -0.359859 0 255 24
2021-01-25 09:32:54 GMT 51.876171 -0.359617 0 255 13
2021-01-25 09:32:53 GMT 51.876183 -0.359524 0 255 9
2021-01-25 09:32:52 GMT 51.876209 -0.359383 0 258 3
2021-01-25 09:32:49 GMT 51.876209 -0.359364 0 255 2
2021-01-25 09:32:47 GMT 51.876209 -0.359344 0 255 1
2021-01-25 09:32:46 GMT 51.876217 -0.359338 0 255 1
2021-01-25 09:32:45 GMT 51.876217 -0.359301 0 255 2
2021-01-25 09:32:42 GMT 51.876228 -0.359283 0 255 3
2021-01-25 09:32:41 GMT 51.876221 -0.359268 0 253 4
2021-01-25 09:32:35 GMT 51.876205 -0.359116 0 219 5
2021-01-25 09:32:30 GMT 51.876251 -0.358967 0 182 5
2021-01-25 09:32:29 GMT 51.876274 -0.358949 0 177 5
2021-01-25 09:32:25 GMT 51.876343 -0.358930 0 160 6
2021-01-25 09:32:20 GMT 51.876526 -0.359041 0 160 7
2021-01-25 09:32:19 GMT 51.876556 -0.359077 0 160 8
2021-01-25 09:32:17 GMT 51.876614 -0.359097 0 163 8
2021-01-25 09:32:16 GMT 51.876637 -0.359116 0 163 8
2021-01-25 09:32:15 GMT 51.876686 -0.359135 0 165 8
2021-01-25 09:32:14 GMT 51.876720 -0.359153 0 165 8
2021-01-25 09:32:13 GMT 51.876743 -0.359173 0 165 8
2021-01-25 09:32:12 GMT 51.876778 -0.359192 0 165 8
2021-01-25 09:32:10 GMT 51.876862 -0.359230 0 165 8
2021-01-25 09:32:09 GMT 51.876892 -0.359227 0 165 8
2021-01-25 09:32:08 GMT 51.876926 -0.359246 0 165 8
2021-01-25 09:32:07 GMT 51.876961 -0.359264 0 165 8
2021-01-25 09:32:06 GMT 51.877033 -0.359306 0 165 8
2021-01-25 09:32:04 GMT 51.877052 -0.359301 0 165 8
2021-01-25 09:32:02 GMT 51.877098 -0.359320 0 163 8
2021-01-25 09:32:01 GMT 51.877140 -0.359344 0 163 8
2021-01-25 09:31:57 GMT 51.877270 -0.359394 0 160 8
2021-01-25 09:31:51 GMT 51.877499 -0.359542 0 146 8
2021-01-25 09:31:49 GMT 51.877567 -0.359612 0 137 8
2021-01-25 09:31:47 GMT 51.877605 -0.359631 0 135 8
2021-01-25 09:31:37 GMT 51.877815 -0.360107 0 104 9
2021-01-25 09:31:30 GMT 51.877876 -0.360563 0 81 9
2021-01-25 09:31:27 GMT 51.877808 -0.361064 0 75 9
2021-01-25 09:31:23 GMT 51.877819 -0.360990 0 75 9
2021-01-25 09:31:17 GMT 51.877754 -0.361366 0 73 10
2021-01-25 09:31:14 GMT 51.877716 -0.361584 0 75 10
2021-01-25 09:31:11 GMT 51.877686 -0.361786 0 73 11
2021-01-25 09:31:06 GMT 51.877617 -0.362167 0 75 12
2021-01-25 09:31:02 GMT 51.877544 -0.362586 0 73 15
2021-01-25 09:30:57 GMT 51.877441 -0.363143 0 73 19
2021-01-25 09:30:52 GMT 51.877316 -0.363885 0 73 20
2021-01-25 09:30:46 GMT 51.877186 -0.364628 0 73 19
2021-01-25 09:30:41 GMT 51.877064 -0.365314 0 75 17
2021-01-25 09:30:37 GMT 51.876987 -0.365772 0 73 15
2021-01-25 09:30:31 GMT 51.876896 -0.366325 0 73 12
2021-01-25 09:30:26 GMT 51.876823 -0.366707 0 73 10
2021-01-25 09:30:22 GMT 51.876766 -0.367031 0 73 8
2021-01-25 09:30:14 GMT 51.876698 -0.367430 0 73 10
2021-01-25 09:30:10 GMT 51.876640 -0.367727 0 73 11
2021-01-25 09:30:06 GMT 51.876602 -0.367966 0 73 11
2021-01-25 09:30:04 GMT 51.876560 -0.368190 0 73 11
2021-01-25 09:29:56 GMT 51.876469 -0.368729 0 92 9
2021-01-25 09:29:54 GMT 51.876453 -0.368881 0 104 8
2021-01-25 09:29:50 GMT 51.876476 -0.369091 0 126 9
2021-01-25 09:29:45 GMT 51.876572 -0.369304 0 149 8
2021-01-25 09:29:37 GMT 51.876881 -0.369527 0 163 10
2021-01-25 09:29:30 GMT 51.877151 -0.369663 0 160 10
2021-01-25 09:29:27 GMT 51.877300 -0.369740 0 160 10
2021-01-25 09:29:21 GMT 51.877556 -0.369879 0 160 10
2021-01-25 09:29:17 GMT 51.877731 -0.369968 0 160 10
2021-01-25 09:29:07 GMT 51.878174 -0.370216 0 160 11
2021-01-25 09:29:01 GMT 51.878426 -0.370362 0 160 11
2021-01-25 09:28:55 GMT 51.878723 -0.370510 0 160 11
2021-01-25 09:28:51 GMT 51.878941 -0.370622 0 160 11
2021-01-25 09:28:46 GMT 51.879143 -0.370731 0 160 11
2021-01-25 09:28:37 GMT 51.879593 -0.370956 0 160 10
2021-01-25 09:28:34 GMT 51.879684 -0.371048 0 163 10
2021-01-25 09:28:25 GMT 51.880039 -0.371215 0 157 10
2021-01-25 09:28:22 GMT 51.880165 -0.371290 0 149 10
2021-01-25 09:28:15 GMT 51.880405 -0.371549 0 106 8
2021-01-25 09:28:11 GMT 51.880455 -0.371723 0 90 8
2021-01-25 09:28:00 GMT 51.880417 -0.372218 0 70 6
2021-01-25 09:25:01 GMT 51.880302 -0.372719 0 73 0
2021-01-25 09:24:54 GMT 51.880314 -0.372663 0 73 3
2021-01-25 09:24:47 GMT 51.880337 -0.372514 0 78 3
2021-01-25 09:24:33 GMT 51.880268 -0.372310 0 109 3
2021-01-25 09:24:24 GMT 51.880211 -0.372199 0 135 3
2021-01-25 09:24:10 GMT 51.880081 -0.372105 0 157 3
2021-01-25 09:23:58 GMT 51.879910 -0.372066 0 160 3
2021-01-25 09:23:49 GMT 51.879776 -0.372032 0 160 3
We lost coverage of the aircraft here for a total of 71 minutes
2021-01-25 08:12:20 GMT 51.879684 -0.371958 0 160 0 0
2021-01-25 08:12:13 GMT 51.879707 -0.371976 0 160 0 0
2021-01-25 08:12:05 GMT 51.879745 -0.372009 0 160 0 0
2021-01-25 08:12:04 GMT 51.879753 -0.372013 0 160 0 0
2021-01-25 08:11:59 GMT 51.879780 -0.372028 0 160 1 0
2021-01-25 08:11:53 GMT 51.879814 -0.372028 0 163 2 0
2021-01-25 08:11:43 GMT 51.879925 -0.372088 0 163 3 0
2021-01-25 08:11:20 GMT 51.880318 -0.372334 0 219 5 0
2021-01-25 08:11:13 GMT 51.880405 -0.372236 0 253 5 0
2021-01-25 08:11:10 GMT 51.880432 -0.372162 0 258 5 0
2021-01-25 08:11:08 GMT 51.880440 -0.372088 0 264 5 0
2021-01-25 08:11:04 GMT 51.880463 -0.371958 0 275 5 0
2021-01-25 08:11:02 GMT 51.880466 -0.371914 0 278 5 0
2021-01-25 08:11:01 GMT 51.880466 -0.371895 0 281 5 0
2021-01-25 08:10:57 GMT 51.880463 -0.371754 0 292 4 0
2021-01-25 08:10:55 GMT 51.880455 -0.371704 0 298 2 0
2021-01-25 08:10:50 GMT 51.880451 -0.371661 0 303 0 0
2021-01-25 08:10:42 GMT 51.880451 -0.371624 0 309 0 0
2021-01-25 08:10:39 GMT 51.880463 -0.371624 0 309 0 0
2021-01-25 08:10:37 GMT 51.880455 -0.371628 0 309 0 0
2021-01-25 08:10:34 GMT 51.880463 -0.371624 0 309 0 0
2021-01-25 08:10:28 GMT 51.880432 -0.371552 0 320 3 0
2021-01-25 08:10:25 GMT 51.880409 -0.371494 0 323 3 0
2021-01-25 08:10:22 GMT 51.880398 -0.371456 0 329 3 0
2021-01-25 08:10:20 GMT 51.880375 -0.371437 0 331 3 0
2021-01-25 08:10:18 GMT 51.880360 -0.371420 0 334 4 0
2021-01-25 08:10:17 GMT 51.880234 -0.371308 0 334 4 0
2021-01-25 08:09:38 GMT 51.880234 -0.371308 0 340 0 0
2021-01-25 08:09:33 GMT 51.880234 -0.371304 0 340 0 0
2021-01-25 08:09:23 GMT 51.880222 -0.371323 0 340 0 0
2021-01-25 08:09:08 GMT 51.880222 -0.371327 0 340 0 0
2021-01-25 08:09:03 GMT 51.880222 -0.371327 0 340 0 0
2021-01-25 08:08:43 GMT 51.880222 -0.371323 0 340 0 0
2021-01-25 08:08:38 GMT 51.880222 -0.371308 0 340 0 0
2021-01-25 08:08:32 GMT 51.880211 -0.371304 0 340 0 0
2021-01-25 08:08:26 GMT 51.880222 -0.371308 0 340 0 0
2021-01-25 08:08:23 GMT 51.880222 -0.371323 0 340 0 0
2021-01-25 08:08:14 GMT 51.880222 -0.371323 0 340 0 0
2021-01-25 08:08:12 GMT 51.880234 -0.371308 0 340 0 0
2021-01-25 08:08:04 GMT 51.880222 -0.371308 0 340 0 0
2021-01-25 08:08:01 GMT 51.880211 -0.371284 0 343 3 0
2021-01-25 08:07:57 GMT 51.880177 -0.371265 0 343 2 0
2021-01-25 08:07:55 GMT 51.880154 -0.371265 0 343 3 0
2021-01-25 08:07:50 GMT 51.880096 -0.371234 0 343 5 0
2021-01-25 08:07:46 GMT 51.880024 -0.371208 0 343 5 0
2021-01-25 08:07:45 GMT 51.880001 -0.371189 0 340 5 0
2021-01-25 08:07:40 GMT 51.879887 -0.371132 0 340 7 0
2021-01-25 08:07:36 GMT 51.879780 -0.371075 0 340 8 0
2021-01-25 08:07:31 GMT 51.879581 -0.370956 0 340 11 0
2021-01-25 08:07:30 GMT 51.879478 -0.370900 0 343 12 0
2021-01-25 08:07:27 GMT 51.879410 -0.370863 0 343 11 0
2021-01-25 08:07:25 GMT 51.879303 -0.370808 0 343 10 0
2021-01-25 08:07:24 GMT 51.879272 -0.370789 0 343 10 0
2021-01-25 08:07:21 GMT 51.879135 -0.370733 0 343 10 0
2021-01-25 08:07:20 GMT 51.879093 -0.370712 0 343 11 0
2021-01-25 08:07:18 GMT 51.879002 -0.370655 0 343 11 0
2021-01-25 08:07:16 GMT 51.878906 -0.370617 0 340 11 0
2021-01-25 08:07:07 GMT 51.878490 -0.370388 0 343 11 0
2021-01-25 08:07:06 GMT 51.878426 -0.370343 0 343 10 0
2021-01-25 08:07:04 GMT 51.878345 -0.370306 0 340 10 0
2021-01-25 08:07:01 GMT 51.878220 -0.370235 0 343 11 0
2021-01-25 08:06:59 GMT 51.878105 -0.370176 0 343 11 0
2021-01-25 08:06:57 GMT 51.878036 -0.370139 0 343 10 0
2021-01-25 08:06:55 GMT 51.877941 -0.370102 0 340 10 0
2021-01-25 08:06:52 GMT 51.877850 -0.370045 0 340 11 0
2021-01-25 08:06:51 GMT 51.877762 -0.369991 0 343 11 0
2021-01-25 08:06:50 GMT 51.877739 -0.369991 0 343 11 0
2021-01-25 08:06:49 GMT 51.877625 -0.369916 0 343 10 0
2021-01-25 08:06:47 GMT 51.877583 -0.369911 0 340 10 0
2021-01-25 08:06:46 GMT 51.877544 -0.369879 0 340 10 0
2021-01-25 08:06:44 GMT 51.877453 -0.369835 0 340 10 0
2021-01-25 08:06:42 GMT 51.877361 -0.369778 0 340 10 0
2021-01-25 08:06:41 GMT 51.877316 -0.369768 0 343 9 0
2021-01-25 08:06:40 GMT 51.877281 -0.369731 0 343 9 0
2021-01-25 08:06:39 GMT 51.877243 -0.369720 0 343 9 0
2021-01-25 08:06:38 GMT 51.877201 -0.369694 0 343 9 0
2021-01-25 08:06:37 GMT 51.877167 -0.369675 0 343 9 0
2021-01-25 08:06:35 GMT 51.877090 -0.369644 0 343 9 0
2021-01-25 08:06:33 GMT 51.877010 -0.369606 0 343 8 0
2021-01-25 08:06:32 GMT 51.876987 -0.369587 0 343 8 0
2021-01-25 08:06:31 GMT 51.876915 -0.369545 0 345 8 0
2021-01-25 08:06:28 GMT 51.876862 -0.369511 0 345 8 0
2021-01-25 08:06:27 GMT 51.876812 -0.369492 0 351 8 0
2021-01-25 08:06:25 GMT 51.876755 -0.369473 0 357 8 0
2021-01-25 08:06:22 GMT 51.876652 -0.369434 0 11 8 0
2021-01-25 08:06:21 GMT 51.876606 -0.369434 0 19 8 0
2021-01-25 08:06:19 GMT 51.876522 -0.369453 0 33 7 0
2021-01-25 08:06:17 GMT 51.876465 -0.369492 0 42 7 0
2021-01-25 08:06:15 GMT 51.876423 -0.369527 0 50 7 0
2021-01-25 08:06:14 GMT 51.876408 -0.369568 0 56 7 0
2021-01-25 08:06:12 GMT 51.876358 -0.369644 0 64 7 0
2021-01-25 08:06:10 GMT 51.876320 -0.369712 0 70 7 0
2021-01-25 08:06:09 GMT 51.876312 -0.369740 0 73 7 0
2021-01-25 08:06:06 GMT 51.876278 -0.369949 0 73 8 0
2021-01-25 08:06:05 GMT 51.876263 -0.370009 0 75 8 0
2021-01-25 08:06:04 GMT 51.876251 -0.370065 0 75 8 0
2021-01-25 08:06:02 GMT 51.876244 -0.370178 0 75 8 0
2021-01-25 08:06:00 GMT 51.876194 -0.370436 0 73 9 0
2021-01-25 08:05:57 GMT 51.876194 -0.370436 0 73 9 0
2021-01-25 08:05:55 GMT 51.876171 -0.370566 0 73 10 0
2021-01-25 08:05:54 GMT 51.876160 -0.370640 0 73 10 0
2021-01-25 08:05:53 GMT 51.876148 -0.370712 0 73 11 0
2021-01-25 08:05:51 GMT 51.876125 -0.370846 0 73 11 0
2021-01-25 08:05:49 GMT 51.876091 -0.371037 0 73 10 0
2021-01-25 08:05:46 GMT 51.876068 -0.371170 0 73 10 0
2021-01-25 08:05:42 GMT 51.876011 -0.371475 0 73 11 0
2021-01-25 08:05:40 GMT 51.875988 -0.371587 0 73 11 0
2021-01-25 08:05:37 GMT 51.875954 -0.371828 0 75 11 0
2021-01-25 08:05:31 GMT 51.875851 -0.372366 0 75 11 0
2021-01-25 08:05:29 GMT 51.875835 -0.372505 0 78 10 0
2021-01-25 08:05:27 GMT 51.875828 -0.372589 0 81 10 0
2021-01-25 08:05:26 GMT 51.875805 -0.372719 0 84 10 0
2021-01-25 08:05:22 GMT 51.875793 -0.372997 0 90 9 0
2021-01-25 08:05:20 GMT 51.875782 -0.373090 0 95 9 0
2021-01-25 08:05:18 GMT 51.875782 -0.373220 0 98 8 0
2021-01-25 08:05:15 GMT 51.875801 -0.373383 0 104 9 0
2021-01-25 08:05:12 GMT 51.875824 -0.373535 0 104 8 0
2021-01-25 08:05:11 GMT 51.875839 -0.373628 0 101 8 0
2021-01-25 08:05:06 GMT 51.875881 -0.373898 0 78 7 0
2021-01-25 08:05:05 GMT 51.875881 -0.373955 0 73 7 0
2021-01-25 08:05:04 GMT 51.875870 -0.374050 0 64 7 0
2021-01-25 08:05:01 GMT 51.875862 -0.374129 0 59 7 0
2021-01-25 08:05:00 GMT 51.875847 -0.374165 0 56 7 0
2021-01-25 08:04:59 GMT 51.875824 -0.374260 0 50 7 0
2021-01-25 08:04:58 GMT 51.875771 -0.374389 0 39 7 0
2021-01-25 08:04:56 GMT 51.875771 -0.374389 0 39 7 0
2021-01-25 08:04:55 GMT 51.875759 -0.374407 0 36 6 0
2021-01-25 08:04:51 GMT 51.875671 -0.374527 0 22 7 0
2021-01-25 08:04:50 GMT 51.875637 -0.374565 0 22 8 0
2021-01-25 08:04:45 GMT 51.875507 -0.374641 0 22 8 0
2021-01-25 08:04:43 GMT 51.875427 -0.374680 0 28 8 0
2021-01-25 08:04:42 GMT 51.875393 -0.374699 0 33 8 0
2021-01-25 08:04:41 GMT 51.875359 -0.374723 0 36 8 0
2021-01-25 08:04:39 GMT 51.875290 -0.374797 0 45 8 0
2021-01-25 08:04:37 GMT 51.875233 -0.374853 0 50 8 0
2021-01-25 08:04:36 GMT 51.875221 -0.374871 0 53 8 0
2021-01-25 08:04:35 GMT 51.875195 -0.374908 0 59 8 0
2021-01-25 08:04:34 GMT 51.875175 -0.374964 0 61 8 0
2021-01-25 08:04:32 GMT 51.875130 -0.375075 0 67 8 0
2021-01-25 08:04:30 GMT 51.875107 -0.375150 0 73 7 0
2021-01-25 08:04:29 GMT 51.875092 -0.375214 0 73 8 0
2021-01-25 08:04:27 GMT 51.875072 -0.375298 0 75 8 0
2021-01-25 08:04:26 GMT 51.875069 -0.375328 0 75 9 0
2021-01-25 08:04:25 GMT 51.875046 -0.375443 0 75 9 0
2021-01-25 08:04:24 GMT 51.875038 -0.375502 0 75 9 0
2021-01-25 08:04:22 GMT 51.875015 -0.375651 0 75 9 0
2021-01-25 08:04:21 GMT 51.875008 -0.375671 0 75 9 0
2021-01-25 08:04:20 GMT 51.875004 -0.375725 0 75 9 0
2021-01-25 08:04:18 GMT 51.874973 -0.375881 0 75 9 0
2021-01-25 08:04:15 GMT 51.874939 -0.376091 0 73 11 0
2021-01-25 08:04:13 GMT 51.874912 -0.376245 0 73 11 0
2021-01-25 08:04:12 GMT 51.874905 -0.376320 0 73 10 0
2021-01-25 08:04:10 GMT 51.874893 -0.376358 0 73 10 0
2021-01-25 08:04:09 GMT 51.874882 -0.376415 0 73 10 0
2021-01-25 08:04:08 GMT 51.874878 -0.376486 0 73 10 0
2021-01-25 08:04:07 GMT 51.874859 -0.376549 0 73 9 0
2021-01-25 08:04:05 GMT 51.874821 -0.376746 0 73 9 0
2021-01-25 08:04:02 GMT 51.874798 -0.376876 0 75 9 0
2021-01-25 08:04:01 GMT 51.874786 -0.376930 0 75 9 0
2021-01-25 08:04:00 GMT 51.874775 -0.377005 0 75 9 0
2021-01-25 08:03:57 GMT 51.874752 -0.377173 0 75 9 0
2021-01-25 08:03:51 GMT 51.874683 -0.377581 0 75 10 0
2021-01-25 08:03:50 GMT 51.874672 -0.377636 0 75 9 0
2021-01-25 08:03:49 GMT 51.874660 -0.377712 0 75 9 0
2021-01-25 08:03:47 GMT 51.874638 -0.377841 0 75 9 0
2021-01-25 08:03:44 GMT 51.874603 -0.378026 0 73 9 0
2021-01-25 08:03:43 GMT 51.874603 -0.378082 0 73 8 0
2021-01-25 08:03:41 GMT 51.874580 -0.378193 0 75 8 0
2021-01-25 08:03:40 GMT 51.874565 -0.378265 0 75 8 0
2021-01-25 08:03:39 GMT 51.874554 -0.378323 0 75 8 0
2021-01-25 08:03:38 GMT 51.874542 -0.378361 0 73 8 0
2021-01-25 08:03:37 GMT 51.874542 -0.378418 0 73 8 0
2021-01-25 08:03:35 GMT 51.874535 -0.378472 0 73 8 0
2021-01-25 08:03:33 GMT 51.874500 -0.378620 0 75 8 0
2021-01-25 08:03:32 GMT 51.874496 -0.378685 0 75 8 0
2021-01-25 08:03:30 GMT 51.874485 -0.378761 0 73 8 0
2021-01-25 08:03:29 GMT 51.874474 -0.378819 0 73 8 0
2021-01-25 08:03:28 GMT 51.874462 -0.378895 0 73 8 0
2021-01-25 08:03:27 GMT 51.874451 -0.378933 0 73 8 0
2021-01-25 08:03:26 GMT 51.874439 -0.378990 0 73 8 0
2021-01-25 08:03:24 GMT 51.874428 -0.379066 0 73 8 0
2021-01-25 08:03:22 GMT 51.874405 -0.379162 0 73 8 0
2021-01-25 08:03:21 GMT 51.874397 -0.379251 0 73 8 0
2021-01-25 08:03:20 GMT 51.874386 -0.379288 0 73 8 0
2021-01-25 08:03:19 GMT 51.874382 -0.379353 0 73 8 0
2021-01-25 08:03:17 GMT 51.874355 -0.379486 0 73 8 0
2021-01-25 08:03:15 GMT 51.874352 -0.379529 0 70 8 0
2021-01-25 08:03:13 GMT 51.874329 -0.379641 0 67 8 0
2021-01-25 08:03:10 GMT 51.874283 -0.379826 0 61 7 0
2021-01-25 08:03:08 GMT 51.874260 -0.379919 0 56 7 0
2021-01-25 08:03:07 GMT 51.874226 -0.380012 0 50 7 0
2021-01-25 08:03:05 GMT 51.874218 -0.380039 0 47 7 0
2021-01-25 08:03:04 GMT 51.874195 -0.380077 0 45 7 0
2021-01-25 08:03:03 GMT 51.874180 -0.380123 0 45 7 0
2021-01-25 08:03:02 GMT 51.874168 -0.380142 0 42 7 0
2021-01-25 08:03:00 GMT 51.874123 -0.380216 0 39 7 0
2021-01-25 08:02:59 GMT 51.874100 -0.380253 0 39 7 0
2021-01-25 08:02:58 GMT 51.874088 -0.380268 0 36 7 0
2021-01-25 08:02:57 GMT 51.874054 -0.380309 0 36 7 0
2021-01-25 08:02:56 GMT 51.874008 -0.380383 0 30 7 0
2021-01-25 08:02:53 GMT 51.873951 -0.380439 0 28 7 0
2021-01-25 08:02:50 GMT 51.873871 -0.380513 0 25 7 0
2021-01-25 08:02:48 GMT 51.873787 -0.380573 0 25 7 0
2021-01-25 08:02:47 GMT 51.873787 -0.380573 0 25 7 0
2021-01-25 08:02:46 GMT 51.873756 -0.380606 0 25 7 0
2021-01-25 08:02:45 GMT 51.873722 -0.380624 0 25 7 0
2021-01-25 08:02:43 GMT 51.873676 -0.380661 0 25 7 0
2021-01-25 08:02:40 GMT 51.873596 -0.380717 0 25 7 0
2021-01-25 08:02:39 GMT 51.873577 -0.380745 0 25 7 0
2021-01-25 08:02:38 GMT 51.873528 -0.380773 0 25 8 0
2021-01-25 08:02:37 GMT 51.873497 -0.380802 0 25 8 0
2021-01-25 08:02:35 GMT 51.873447 -0.380828 0 25 8 0
2021-01-25 08:02:33 GMT 51.873390 -0.380878 0 25 8 0
2021-01-25 08:02:32 GMT 51.873344 -0.380921 0 22 7 0
2021-01-25 08:02:31 GMT 51.873310 -0.380936 0 22 7 0
2021-01-25 08:02:28 GMT 51.873241 -0.380995 0 16 7 0
2021-01-25 08:02:27 GMT 51.873219 -0.381014 0 14 7 0
2021-01-25 08:02:26 GMT 51.873161 -0.381051 0 8 7 0
2021-01-25 08:02:25 GMT 51.873135 -0.381069 0 5 8 0
2021-01-25 08:02:23 GMT 51.873066 -0.381088 0 357 7 0
2021-01-25 08:02:22 GMT 51.873035 -0.381107 0 351 7 0
2021-01-25 08:02:21 GMT 51.873009 -0.381107 0 348 7 0
2021-01-25 08:02:20 GMT 51.872959 -0.381107 0 340 7 0
2021-01-25 08:02:19 GMT 51.872944 -0.381107 0 337 6 0
2021-01-25 08:02:17 GMT 51.872890 -0.381088 0 329 6 0
2021-01-25 08:02:16 GMT 51.872864 -0.381070 0 326 6 0
2021-01-25 08:02:14 GMT 51.872829 -0.381051 0 320 6 0
2021-01-25 08:02:13 GMT 51.872810 -0.381031 0 315 6 0
2021-01-25 08:02:12 GMT 51.872761 -0.380995 0 309 6 0
2021-01-25 08:02:10 GMT 51.872749 -0.380974 0 303 6 0
2021-01-25 08:02:07 GMT 51.872704 -0.380884 0 295 6 0
2021-01-25 08:02:04 GMT 51.872646 -0.380783 0 286 6 0
2021-01-25 08:02:01 GMT 51.872612 -0.380650 0 275 6 0
2021-01-25 08:01:59 GMT 51.872601 -0.380573 0 267 6 0
2021-01-25 08:01:58 GMT 51.872601 -0.380532 0 264 7 0
2021-01-25 08:01:55 GMT 51.872601 -0.380364 0 258 9 0
2021-01-25 08:01:53 GMT 51.872612 -0.380272 0 255 10 0
2021-01-25 08:01:51 GMT 51.872635 -0.380105 0 253 11 0
2021-01-25 08:01:49 GMT 51.872669 -0.379887 0 253 14 0
2021-01-25 08:01:47 GMT 51.872692 -0.379734 0 253 15 0
2021-01-25 08:01:45 GMT 51.872726 -0.379585 0 253 16 0
2021-01-25 08:01:44 GMT 51.872765 -0.379391 0 253 17 0
2021-01-25 08:01:43 GMT 51.872784 -0.379270 0 253 18 0
2021-01-25 08:01:39 GMT 51.872913 -0.378532 0 253 19 0
2021-01-25 08:01:36 GMT 51.872936 -0.378399 0 253 20 0
2021-01-25 08:01:34 GMT 51.872978 -0.378138 0 253 20 0
2021-01-25 08:01:30 GMT 51.873093 -0.377469 0 253 23 0
2021-01-25 08:01:26 GMT 51.873207 -0.376820 0 253 24 0
2021-01-25 08:01:21 GMT 51.873402 -0.375706 0 255 27 0
2021-01-25 08:01:18 GMT 51.873447 -0.375428 0 253 29 0
2021-01-25 08:01:15 GMT 51.873508 -0.375023 0 253 29 0
2021-01-25 08:01:14 GMT 51.873554 -0.374832 0 253 30 0
2021-01-25 08:01:13 GMT 51.873596 -0.374537 0 253 31 0
2021-01-25 08:01:11 GMT 51.873657 -0.374222 0 253 34 0
2021-01-25 08:01:09 GMT 51.873768 -0.373591 0 255 37 0
2021-01-25 08:01:08 GMT 51.873802 -0.373350 0 255 38 0
2021-01-25 08:01:06 GMT 51.873871 -0.372941 0 255 41 0
2021-01-25 08:01:04 GMT 51.873985 -0.372295 0 255 45 0
2021-01-25 08:00:56 GMT 51.874535 -0.369137 0 255 65 0
2021-01-25 08:00:53 GMT 51.874786 -0.367680 0 253 76 0
2021-01-25 08:00:52 GMT 51.874878 -0.367114 0 255 80 0
2021-01-25 08:00:51 GMT 51.874985 -0.366535 0 253 84 0
2021-01-25 08:00:49 GMT 51.875187 -0.365351 0 253 92 0
2021-01-25 08:00:45 GMT 51.875671 -0.362473 650 255 107 -64
2021-01-25 08:00:44 GMT 51.875813 -0.361710 650 255 113 -128
2021-01-25 08:00:42 GMT 51.876114 -0.360099 650 255 114 -64
2021-01-25 08:00:41 GMT 51.876232 -0.359268 650 255 115 -192
2021-01-25 08:00:38 GMT 51.876663 -0.356907 675 255 117 -320
2021-01-25 08:00:37 GMT 51.876789 -0.356064 700 255 117 -448
2021-01-25 08:00:36 GMT 51.876984 -0.354903 725 255 117 -512
2021-01-25 08:00:34 GMT 51.877213 -0.353493 725 255 117 -640
2021-01-25 08:00:32 GMT 51.877533 -0.351785 750 255 116 -640
2021-01-25 08:00:31 GMT 51.877674 -0.350952 775 255 117 -704
2021-01-25 08:00:29 GMT 51.878311 -0.347331 825 255 117 -704
2021-01-25 08:00:27 GMT 51.878311 -0.347331 825 255 117 -704
2021-01-25 08:00:25 GMT 51.878586 -0.345698 850 255 117 -704
2021-01-25 08:00:23 GMT 51.878883 -0.344086 875 255 116 -704
2021-01-25 08:00:22 GMT 51.879044 -0.343174 875 255 116 -704
2021-01-25 08:00:21 GMT 51.879181 -0.342358 875 255 116 -704
2021-01-25 08:00:20 GMT 51.879303 -0.341568 900 255 116 -704
2021-01-25 08:00:19 GMT 51.879456 -0.340650 900 255 116 -704
2021-01-25 08:00:17 GMT 51.879768 -0.338898 925 255 116 -704
2021-01-25 08:00:14 GMT 51.880142 -0.336716 975 255 116 -640
2021-01-25 08:00:13 GMT 51.880234 -0.336304 975 255 116 -640
2021-01-25 08:00:12 GMT 51.880371 -0.335380 975 255 116 -576
2021-01-25 08:00:11 GMT 51.880783 -0.333153 1,000 255 117 -640
2021-01-25 08:00:10 GMT 51.880783 -0.333153 1,000 255 117 -640
2021-01-25 08:00:09 GMT 51.880932 -0.332260 1,025 255 117 -704
2021-01-25 08:00:07 GMT 51.881241 -0.330481 1,050 255 117 -768
2021-01-25 08:00:05 GMT 51.881653 -0.327883 1,075 255 117 -704
2021-01-25 08:00:03 GMT 51.881817 -0.326996 1,100 255 116 -640
2021-01-25 08:00:00 GMT 51.882111 -0.325136 1,125 255 116 -640
2021-01-25 07:59:59 GMT 51.882339 -0.323948 1,125 255 116 -576
2021-01-25 07:59:58 GMT 51.882610 -0.322266 1,150 255 116 -576
2021-01-25 07:59:57 GMT 51.882610 -0.322266 1,150 255 116 -576
2021-01-25 07:59:56 GMT 51.882748 -0.321503 1,150 255 117 -640
2021-01-25 07:59:55 GMT 51.882980 -0.320206 1,175 255 117 -640
2021-01-25 07:59:54 GMT 51.883118 -0.319420 1,175 255 117 -640
2021-01-25 07:59:53 GMT 51.883259 -0.318604 1,200 255 117 -704
2021-01-25 07:59:52 GMT 51.883575 -0.316822 1,225 255 117 -768
2021-01-25 07:59:50 GMT 51.883713 -0.315931 1,225 256 116 -768
2021-01-25 07:59:49 GMT 51.883759 -0.315560 1,250 256 116 -768
2021-01-25 07:59:48 GMT 51.884007 -0.314255 1,250 255 117 -704
2021-01-25 07:59:46 GMT 51.884445 -0.311403 1,300 255 117 -576
2021-01-25 07:59:44 GMT 51.884537 -0.311032 1,300 255 117 -576
2021-01-25 07:59:43 GMT 51.884705 -0.310135 1,300 255 117 -576
2021-01-25 07:59:42 GMT 51.884842 -0.309296 1,325 255 117 -640
2021-01-25 07:59:41 GMT 51.884995 -0.308360 1,325 255 117 -640
2021-01-25 07:59:40 GMT 51.885132 -0.307543 1,350 255 117 -640
2021-01-25 07:59:38 GMT 51.885452 -0.305836 1,350 254 117 -704
2021-01-25 07:59:36 GMT 51.885727 -0.304108 1,375 254 117 -704
2021-01-25 07:59:35 GMT 51.885822 -0.303726 1,400 254 117 -640
2021-01-25 07:59:34 GMT 51.886005 -0.302505 1,400 254 117 -640
2021-01-25 07:59:32 GMT 51.886333 -0.300903 1,425 254 117 -576
2021-01-25 07:59:31 GMT 51.886475 -0.299988 1,450 254 117 -576
2021-01-25 07:59:30 GMT 51.886612 -0.299225 1,450 255 117 -640
2021-01-25 07:59:28 GMT 51.886890 -0.297623 1,475 255 117 -640
2021-01-25 07:59:26 GMT 51.887238 -0.295814 1,475 255 117 -640
2021-01-25 07:59:25 GMT 51.887356 -0.294952 1,500 255 118 -640
2021-01-25 07:59:23 GMT 51.887684 -0.293121 1,525 255 118 -640
2021-01-25 07:59:22 GMT 51.887821 -0.292282 1,525 255 118 -704
2021-01-25 07:59:20 GMT 51.888103 -0.290604 1,550 255 118 -704
2021-01-25 07:59:19 GMT 51.888428 -0.288696 1,575 255 118 -704
2021-01-25 07:59:17 GMT 51.888519 -0.288317 1,600 255 118 -704
2021-01-25 07:59:15 GMT 51.888847 -0.286331 1,625 255 117 -576
2021-01-25 07:59:14 GMT 51.889034 -0.285416 1,625 255 117 -576
2021-01-25 07:59:12 GMT 51.889297 -0.283715 1,650 255 117 -576
2021-01-25 07:59:11 GMT 51.889435 -0.282824 1,650 255 117 -576
2021-01-25 07:59:09 GMT 51.889755 -0.281116 1,675 255 117 -576
2021-01-25 07:59:07 GMT 51.889893 -0.280300 1,675 255 117 -576
2021-01-25 07:59:06 GMT 51.890030 -0.279335 1,700 255 118 -576
2021-01-25 07:59:05 GMT 51.890289 -0.277786 1,725 255 118 -576
2021-01-25 07:59:03 GMT 51.890442 -0.276959 1,725 255 118 -576
2021-01-25 07:59:02 GMT 51.890579 -0.276143 1,725 255 118 -640
2021-01-25 07:59:01 GMT 51.890717 -0.275326 1,750 255 119 -640
2021-01-25 07:59:00 GMT 51.890854 -0.274584 1,750 255 119 -640
2021-01-25 07:58:59 GMT 51.890991 -0.273619 1,775 255 119 -640
2021-01-25 07:58:58 GMT 51.891266 -0.271912 1,800 256 120 -704
2021-01-25 07:58:56 GMT 51.891453 -0.270920 1,800 256 120 -704
2021-01-25 07:58:55 GMT 51.891586 -0.269982 1,825 255 120 -704
2021-01-25 07:58:54 GMT 51.891724 -0.269239 1,825 255 120 -704
2021-01-25 07:58:52 GMT 51.891998 -0.267755 1,850 255 120 -704
2021-01-25 07:58:51 GMT 51.892181 -0.266641 1,850 255 120 -704
2021-01-25 07:58:50 GMT 51.892338 -0.265732 1,875 255 121 -704
2021-01-25 07:58:49 GMT 51.892502 -0.264711 1,900 255 121 -640
2021-01-25 07:58:48 GMT 51.892639 -0.263820 1,900 255 122 -640
2021-01-25 07:58:46 GMT 51.892899 -0.262451 1,925 254 122 -640
2021-01-25 07:58:45 GMT 51.893143 -0.261074 1,925 255 125 -640
2021-01-25 07:58:43 GMT 51.893410 -0.259552 1,950 255 128 -704
2021-01-25 07:58:41 GMT 51.893734 -0.257629 1,975 255 129 -640
2021-01-25 07:58:39 GMT 51.894108 -0.255354 2,025 255 133 -640
2021-01-25 07:58:36 GMT 51.894482 -0.253235 2,050 256 135 -768
2021-01-25 07:58:33 GMT 51.895504 -0.247035 2,125 255 136 -960
2021-01-25 07:58:30 GMT 51.895504 -0.247035 2,150 255 137 -768
2021-01-25 07:58:28 GMT 51.896027 -0.244141 2,175 255 138 -704
2021-01-25 07:58:25 GMT 51.896389 -0.242013 2,175 255 139 -832
2021-01-25 07:58:22 GMT 51.897034 -0.238419 2,225 255 142 -768
2021-01-25 07:58:19 GMT 51.897507 -0.235578 2,275 255 151 -832
2021-01-25 07:58:16 GMT 51.898251 -0.231498 2,300 255 147 -768
2021-01-25 07:58:13 GMT 51.898624 -0.229222 2,350 255 150 -768
2021-01-25 07:58:10 GMT 51.899273 -0.225455 2,375 255 151 -832
2021-01-25 07:58:06 GMT 51.899872 -0.222015 2,425 255 151 -832
2021-01-25 07:58:03 GMT 51.900375 -0.219040 2,450 255 151 -832
2021-01-25 07:58:00 GMT 51.901062 -0.214996 2,525 255 152 -896
2021-01-25 07:57:58 GMT 51.901428 -0.212860 2,525 255 151 -896
2021-01-25 07:57:55 GMT 51.902527 -0.206375 2,600 255 152 -896
2021-01-25 07:57:52 GMT 51.902527 -0.206375 2,675 255 152 -960
2021-01-25 07:57:49 GMT 51.903091 -0.203247 2,700 256 151 -896
2021-01-25 07:57:46 GMT 51.903763 -0.198898 2,725 256 151 -896
2021-01-25 07:57:43 GMT 51.904129 -0.196609 2,750 256 151 -832
2021-01-25 07:57:40 GMT 51.904770 -0.192719 2,800 256 152 -896
2021-01-25 07:57:37 GMT 51.905094 -0.190613 2,825 256 152 -896
2021-01-25 07:57:34 GMT 51.905685 -0.186691 2,900 257 153 -960
2021-01-25 07:57:31 GMT 51.906399 -0.182138 2,950 258 153 -960
2021-01-25 07:57:28 GMT 51.906738 -0.179443 3,000 258 153 -960
2021-01-25 07:57:25 GMT 51.907143 -0.176644 3,125 269 156 -576
2021-01-25 07:57:22 GMT 51.907562 -0.173270 3,075 260 153 -832
2021-01-25 07:57:19 GMT 51.908066 -0.168991 3,125 260 153 -768
2021-01-25 07:57:16 GMT 51.908306 -0.166521 3,175 262 154 -832
2021-01-25 07:57:13 GMT 51.908676 -0.162990 3,225 262 154 -832
2021-01-25 07:57:10 GMT 51.909027 -0.159149 3,250 263 155 -832
2021-01-25 07:57:08 GMT 51.909164 -0.157242 3,275 265 155 -768
2021-01-25 07:57:05 GMT 51.909485 -0.153198 3,325 266 155 -704
2021-01-25 07:57:02 GMT 51.909622 -0.150146 3,350 267 156 -640
2021-01-25 07:56:59 GMT 51.909714 -0.146637 3,375 270 156 -576
2021-01-25 07:56:56 GMT 51.909702 -0.143215 3,400 275 156 -576
2021-01-25 07:56:53 GMT 51.909424 -0.139369 3,425 281 156 -576
2021-01-25 07:56:50 GMT 51.908913 -0.135917 3,450 288 156 -576
2021-01-25 07:56:48 GMT 51.908539 -0.134112 3,475 290 155 -576
2021-01-25 07:56:45 GMT 51.907516 -0.130157 3,525 295 158 -768
2021-01-25 07:56:42 GMT 51.906967 -0.128250 3,550 295 159 -768
2021-01-25 07:56:39 GMT 51.905838 -0.124146 3,575 295 161 -768
2021-01-25 07:56:37 GMT 51.905182 -0.121918 3,600 295 161 -704
2021-01-25 07:56:34 GMT 51.904358 -0.118866 3,650 295 162 -704
2021-01-25 07:56:31 GMT 51.903419 -0.115592 3,675 295 162 -768
2021-01-25 07:56:28 GMT 51.902580 -0.112610 3,700 295 162 -768
2021-01-25 07:56:26 GMT 51.901695 -0.109314 3,775 295 163 -832
2021-01-25 07:56:22 GMT 51.900650 -0.105667 3,825 294 163 -832
2021-01-25 07:56:19 GMT 51.899090 -0.099897 3,850 294 163 -896
2021-01-25 07:56:17 GMT 51.899090 -0.099897 3,875 294 164 -896
2021-01-25 07:56:14 GMT 51.898155 -0.096523 3,925 294 165 -832
2021-01-25 07:56:11 GMT 51.896255 -0.089569 3,975 295 165 -832
2021-01-25 07:56:08 GMT 51.896255 -0.089569 4,000 295 165 -832
2021-01-25 07:56:05 GMT 51.895226 -0.086086 4,050 298 165 -832
2021-01-25 07:56:02 GMT 51.894333 -0.083389 4,100 302 164 -768
2021-01-25 07:55:59 GMT 51.893097 -0.080171 4,125 307 164 -832
2021-01-25 07:55:57 GMT 51.892384 -0.078659 4,150 313 163 -896
2021-01-25 07:55:54 GMT 51.890755 -0.075836 4,175 319 163 -896
2021-01-25 07:55:51 GMT 51.888428 -0.073193 4,250 332 163 -1152
2021-01-25 07:55:48 GMT 51.886753 -0.071945 4,300 339 163 -1408
2021-01-25 07:55:45 GMT 51.884766 -0.070966 4,375 351 164 -1472
2021-01-25 07:55:42 GMT 51.882431 -0.070446 4,475 3 166 -1280
2021-01-25 07:55:39 GMT 51.879723 -0.070496 4,525 5 166 -1280
2021-01-25 07:55:37 GMT 51.877953 -0.070801 4,575 7 167 -1152
2021-01-25 07:55:34 GMT 51.873962 -0.071708 4,650 7 168 -960
2021-01-25 07:55:31 GMT 51.873962 -0.071708 4,675 7 169 -896
2021-01-25 07:55:28 GMT 51.871296 -0.072250 4,700 7 171 -704
2021-01-25 07:55:25 GMT 51.868469 -0.072822 4,725 7 173 -448
2021-01-25 07:55:22 GMT 51.866867 -0.073193 4,775 7 177 -640
2021-01-25 07:55:19 GMT 51.863987 -0.073776 4,800 7 178 -768
2021-01-25 07:55:17 GMT 51.862869 -0.074005 4,800 7 179 -704
2021-01-25 07:55:14 GMT 51.859589 -0.074677 4,850 7 181 -576
2021-01-25 07:55:11 GMT 51.857098 -0.075226 4,875 7 183 -640
2021-01-25 07:55:08 GMT 51.854492 -0.075760 4,900 7 184 -640
2021-01-25 07:55:05 GMT 51.852303 -0.076294 4,950 8 186 -704
2021-01-25 07:55:02 GMT 51.850254 -0.076752 4,975 9 188 -704
2021-01-25 07:54:59 GMT 51.847229 -0.077515 5,000 10 190 -640
2021-01-25 07:54:57 GMT 51.844994 -0.078201 5,025 11 191 -640
2021-01-25 07:54:54 GMT 51.843246 -0.078760 5,075 12 192 -640
2021-01-25 07:54:51 GMT 51.840572 -0.079727 5,100 13 194 -704
2021-01-25 07:54:48 GMT 51.837963 -0.080719 5,125 13 195 -640
2021-01-25 07:54:45 GMT 51.834641 -0.081952 5,150 12 197 -448
2021-01-25 07:54:42 GMT 51.832706 -0.082626 5,175 12 201 0
2021-01-25 07:54:39 GMT 51.829494 -0.083847 5,175 12 203 64
2021-01-25 07:54:37 GMT 51.827679 -0.084534 5,175 12 203 0
2021-01-25 07:54:34 GMT 51.824387 -0.085738 5,175 12 208 -64
2021-01-25 07:54:31 GMT 51.819530 -0.087509 5,175 12 211 0
2021-01-25 07:54:28 GMT 51.819530 -0.087509 5,200 12 211 0
2021-01-25 07:54:26 GMT 51.817749 -0.088113 5,200 12 211 0
2021-01-25 07:54:23 GMT 51.814968 -0.089188 5,200 12 211 0
2021-01-25 07:54:20 GMT 51.812454 -0.090027 5,200 12 211 0
2021-01-25 07:54:17 GMT 51.809055 -0.091324 5,200 12 211 0
2021-01-25 07:54:14 GMT 51.805424 -0.092621 5,200 12 211 0
2021-01-25 07:54:11 GMT 51.803558 -0.093310 5,200 12 211 0
2021-01-25 07:54:08 GMT 51.800537 -0.094423 5,200 12 211 0
2021-01-25 07:54:06 GMT 51.798752 -0.095091 5,200 12 211 0
2021-01-25 07:54:03 GMT 51.795929 -0.096130 5,200 12 211 0
2021-01-25 07:54:00 GMT 51.790375 -0.098135 5,200 13 211 0
2021-01-25 07:53:57 GMT 51.790375 -0.098135 5,200 13 211 0
2021-01-25 07:53:54 GMT 51.786530 -0.099619 5,200 13 212 -64
2021-01-25 07:53:51 GMT 51.782570 -0.101166 5,200 13 213 -64
2021-01-25 07:53:48 GMT 51.781540 -0.101549 5,200 12 214 -64
2021-01-25 07:53:46 GMT 51.779495 -0.102310 5,225 12 214 -64
2021-01-25 07:53:43 GMT 51.776413 -0.103405 5,225 12 214 0
2021-01-25 07:53:40 GMT 51.773491 -0.104446 5,225 11 215 0
2021-01-25 07:53:37 GMT 51.770279 -0.105558 5,225 7 217 64
2021-01-25 07:53:33 GMT 51.766754 -0.106449 5,200 5 218 64
2021-01-25 07:53:30 GMT 51.763760 -0.106888 5,200 3 220 64
2021-01-25 07:53:27 GMT 51.760178 -0.107040 5,200 0 223 0
2021-01-25 07:53:24 GMT 51.757141 -0.106894 5,200 357 227 0
2021-01-25 07:53:21 GMT 51.755100 -0.106735 5,175 358 229 0
2021-01-25 07:53:18 GMT 51.751286 -0.106430 5,200 357 233 -128
2021-01-25 07:53:16 GMT 51.748535 -0.106152 5,200 357 234 -192
2021-01-25 07:53:13 GMT 51.745747 -0.105896 5,225 357 238 -256
2021-01-25 07:53:10 GMT 51.742485 -0.105667 5,225 357 238 -256
2021-01-25 07:53:07 GMT 51.739334 -0.105335 5,225 357 238 -320
2021-01-25 07:53:04 GMT 51.736038 -0.105038 5,275 357 238 -512
2021-01-25 07:53:01 GMT 51.732803 -0.104752 5,300 357 238 -576
2021-01-25 07:52:58 GMT 51.729309 -0.104444 5,325 357 239 -576
2021-01-25 07:52:56 GMT 51.727661 -0.104296 5,350 357 239 -576
2021-01-25 07:52:53 GMT 51.723495 -0.103999 5,375 357 239 -576
2021-01-25 07:52:50 GMT 51.720558 -0.103760 5,400 357 239 -576
2021-01-25 07:52:47 GMT 51.718231 -0.103531 5,425 357 239 -576
2021-01-25 07:52:44 GMT 51.713158 -0.103073 5,475 358 239 -576
2021-01-25 07:52:41 GMT 51.709854 -0.102844 5,500 357 240 -576
2021-01-25 07:52:38 GMT 51.707108 -0.102589 5,525 357 240 -576
2021-01-25 07:52:36 GMT 51.703995 -0.102366 5,550 357 240 -576
2021-01-25 07:52:33 GMT 51.701660 -0.102143 5,575 357 240 -576
2021-01-25 07:52:30 GMT 51.698307 -0.101852 5,600 357 240 -640
2021-01-25 07:52:27 GMT 51.694862 -0.101547 5,625 357 240 -640
2021-01-25 07:52:24 GMT 51.691978 -0.101242 5,675 357 240 -640
2021-01-25 07:52:21 GMT 51.688568 -0.100955 5,725 357 241 -576
2021-01-25 07:52:18 GMT 51.683121 -0.100436 5,725 357 241 -576
2021-01-25 07:52:16 GMT 51.683121 -0.100436 5,750 357 241 -576
2021-01-25 07:52:13 GMT 51.680466 -0.100213 5,825 357 241 -576
2021-01-25 07:52:10 GMT 51.676346 -0.099768 5,825 357 241 -576
2021-01-25 07:52:07 GMT 51.673077 -0.099487 5,900 357 241 -576
2021-01-25 07:52:05 GMT 51.666550 -0.098877 5,900 357 240 -576
2021-01-25 07:52:02 GMT 51.666550 -0.098877 5,900 357 240 -576
2021-01-25 07:51:59 GMT 51.663116 -0.098506 5,925 357 240 -576
2021-01-25 07:51:56 GMT 51.656799 -0.097912 6,000 357 241 -768
2021-01-25 07:51:53 GMT 51.656799 -0.097912 5,975 357 240 -576
2021-01-25 07:51:50 GMT 51.653458 -0.097541 6,025 357 240 -640
2021-01-25 07:51:47 GMT 51.651260 -0.097318 6,025 357 241 -768
2021-01-25 07:51:45 GMT 51.648403 -0.097046 6,100 357 241 -1024
2021-01-25 07:51:42 GMT 51.644260 -0.096664 6,150 357 242 -960
2021-01-25 07:51:39 GMT 51.641933 -0.096512 6,200 357 243 -960
2021-01-25 07:51:36 GMT 51.638947 -0.096205 6,300 357 244 -960
2021-01-25 07:51:34 GMT 51.635975 -0.095978 6,300 357 243 -960
2021-01-25 07:51:31 GMT 51.632538 -0.095685 6,300 357 244 -960
2021-01-25 07:51:28 GMT 51.628899 -0.095367 6,350 357 245 -960
2021-01-25 07:51:25 GMT 51.625992 -0.095091 6,375 357 246 -1088
2021-01-25 07:51:22 GMT 51.622604 -0.094794 6,475 357 247 -1344
2021-01-25 07:51:19 GMT 51.619400 -0.094497 6,575 357 248 -1344
2021-01-25 07:51:16 GMT 51.611862 -0.093918 6,600 357 249 -1472
2021-01-25 07:51:13 GMT 51.611862 -0.093918 6,650 357 249 -1472
2021-01-25 07:51:10 GMT 51.607773 -0.093532 6,775 357 249 -1600
2021-01-25 07:51:07 GMT 51.605995 -0.093384 6,800 357 249 -1664
2021-01-25 07:51:05 GMT 51.602509 -0.093013 7,250 357 249 -1408
2021-01-25 07:51:02 GMT 51.599030 -0.092716 7,000 357 251 -1408
2021-01-25 07:50:59 GMT 51.596237 -0.092493 7,125 357 251 -1472
2021-01-25 07:50:56 GMT 51.591797 -0.092087 7,075 357 252 -1536
2021-01-25 07:50:53 GMT 51.588821 -0.091751 7,175 357 252 -1600
2021-01-25 07:50:50 GMT 51.585140 -0.091476 7,300 357 252 -1728
2021-01-25 07:50:47 GMT 51.582672 -0.091248 7,300 357 252 -1728
2021-01-25 07:50:45 GMT 51.580536 -0.091008 7,375 357 252 -1920
2021-01-25 07:50:43 GMT 51.576992 -0.090714 7,475 357 251 -2112
2021-01-25 07:50:40 GMT 51.573967 -0.090408 7,800 358 249 -2176
2021-01-25 07:50:37 GMT 51.570419 -0.090118 7,675 358 250 -2176
2021-01-25 07:50:35 GMT 51.568817 -0.089969 7,700 358 249 -2176
2021-01-25 07:50:33 GMT 51.565704 -0.089746 7,825 357 248 -2048
2021-01-25 07:50:30 GMT 51.562500 -0.089449 7,950 357 248 -1600
2021-01-25 07:50:27 GMT 51.558651 -0.089188 8,000 358 249 -1472
2021-01-25 07:50:25 GMT 51.556698 -0.089035 8,050 357 249 -1472
2021-01-25 07:50:22 GMT 51.553207 -0.088707 8,100 357 250 -1408
2021-01-25 07:50:19 GMT 51.549728 -0.088410 8,200 357 251 -1280
2021-01-25 07:50:16 GMT 51.546158 -0.088039 8,250 357 252 -1280
2021-01-25 07:50:13 GMT 51.543198 -0.087814 8,425 357 254 -1536
2021-01-25 07:50:10 GMT 51.539799 -0.087433 8,450 357 253 -1536
2021-01-25 07:50:07 GMT 51.535793 -0.087051 8,475 357 254 -1536
2021-01-25 07:50:05 GMT 51.533981 -0.086926 8,500 357 254 -1536
2021-01-25 07:50:03 GMT 51.531464 -0.086670 8,575 357 255 -1600
2021-01-25 07:50:00 GMT 51.527298 -0.086258 8,650 357 255 -1600
2021-01-25 07:49:57 GMT 51.524017 -0.085983 8,700 357 256 -1664
2021-01-25 07:49:55 GMT 51.522247 -0.085754 8,750 357 256 -1664
2021-01-25 07:49:53 GMT 51.519314 -0.085449 8,825 357 256 -1728
2021-01-25 07:49:50 GMT 51.515579 -0.085144 8,925 357 256 -1728
2021-01-25 07:49:47 GMT 51.512146 -0.084847 9,000 357 257 -1792
2021-01-25 07:49:45 GMT 51.507660 -0.084476 9,050 358 257 -1792
2021-01-25 07:49:43 GMT 51.507660 -0.084476 9,125 358 256 -1856
2021-01-25 07:49:40 GMT 51.502899 -0.084105 9,250 358 256 -1984
2021-01-25 07:49:37 GMT 51.500519 -0.083882 9,300 358 256 -1984
2021-01-25 07:49:35 GMT 51.496830 -0.083542 9,575 357 255 -1728
2021-01-25 07:49:32 GMT 51.494316 -0.083389 9,500 357 255 -1856
2021-01-25 07:49:29 GMT 51.491226 -0.083066 9,575 357 255 -1792
2021-01-25 07:49:26 GMT 51.483982 -0.082474 9,700 357 255 -1600
2021-01-25 07:49:24 GMT 51.483982 -0.082474 9,750 357 255 -1472
2021-01-25 07:49:21 GMT 51.480743 -0.082175 9,800 357 255 -1344
2021-01-25 07:49:18 GMT 51.477745 -0.081863 9,875 357 255 -1088
2021-01-25 07:49:15 GMT 51.474670 -0.081635 9,900 357 256 -896
2021-01-25 07:49:13 GMT 51.471176 -0.081284 9,950 357 256 -704
2021-01-25 07:49:10 GMT 51.468933 -0.081136 9,975 357 257 -512
2021-01-25 07:49:07 GMT 51.464767 -0.080764 10,000 357 257 -256
2021-01-25 07:49:05 GMT 51.462845 -0.080616 10,000 357 257 -128
2021-01-25 07:49:03 GMT 51.458084 -0.080171 10,000 357 258 0
2021-01-25 07:49:00 GMT 51.456299 -0.080022 10,000 357 258 0
2021-01-25 07:48:57 GMT 51.452728 -0.079725 10,000 357 258 0
2021-01-25 07:48:55 GMT 51.451023 -0.079575 10,000 357 258 0
2021-01-25 07:48:52 GMT 51.447372 -0.079205 10,000 357 258 0
2021-01-25 07:48:49 GMT 51.443855 -0.078964 10,000 357 258 0
2021-01-25 07:48:46 GMT 51.440411 -0.078659 10,000 357 258 0
2021-01-25 07:48:44 GMT 51.437347 -0.078315 10,000 357 258 0
2021-01-25 07:48:41 GMT 51.434219 -0.078049 10,000 357 258 0
2021-01-25 07:48:38 GMT 51.430492 -0.077744 10,000 357 258 -64
2021-01-25 07:48:35 GMT 51.426865 -0.077424 10,000 357 258 -64
2021-01-25 07:48:32 GMT 51.422195 -0.076979 10,000 357 258 0
2021-01-25 07:48:29 GMT 51.419739 -0.076828 10,000 357 258 -64
2021-01-25 07:48:26 GMT 51.416203 -0.076523 10,000 357 258 0
2021-01-25 07:48:24 GMT 51.413635 -0.076310 10,000 357 258 0
2021-01-25 07:48:21 GMT 51.406891 -0.075684 10,000 357 257 0
2021-01-25 07:48:18 GMT 51.406265 -0.075642 10,000 357 257 0
2021-01-25 07:48:15 GMT 51.403152 -0.075345 10,000 357 257 0
2021-01-25 07:48:12 GMT 51.399582 -0.075048 10,000 357 257 0
2021-01-25 07:48:09 GMT 51.395348 -0.074692 10,000 357 257 0
2021-01-25 07:48:06 GMT 51.392075 -0.074380 10,000 357 258 0
2021-01-25 07:48:04 GMT 51.390366 -0.074234 10,000 357 258 0
2021-01-25 07:48:01 GMT 51.385105 -0.073776 10,000 357 259 -64
2021-01-25 07:47:58 GMT 51.382187 -0.073490 10,000 357 259 -64
2021-01-25 07:47:55 GMT 51.379669 -0.073267 10,000 357 259 0
2021-01-25 07:47:52 GMT 51.375366 -0.072896 10,000 357 259 0
2021-01-25 07:47:49 GMT 51.372620 -0.072673 10,000 357 259 0
2021-01-25 07:47:46 GMT 51.368484 -0.072327 10,000 357 258 0
2021-01-25 07:47:44 GMT 51.364670 -0.072021 10,000 357 258 64
2021-01-25 07:47:41 GMT 51.362389 -0.071793 10,000 357 258 0
2021-01-25 07:47:38 GMT 51.358429 -0.071411 10,000 357 258 0
2021-01-25 07:47:35 GMT 51.355682 -0.071188 10,000 357 258 0
2021-01-25 07:47:32 GMT 51.350750 -0.070724 10,000 357 258 0
2021-01-25 07:47:29 GMT 51.344696 -0.070149 10,000 357 258 0
2021-01-25 07:47:26 GMT 51.344696 -0.070149 10,000 357 258 0
2021-01-25 07:47:24 GMT 51.341579 -0.069885 10,000 357 258 0
2021-01-25 07:47:21 GMT 51.338379 -0.069630 10,000 357 258 0
2021-01-25 07:47:18 GMT 51.333984 -0.069184 10,000 357 258 0
2021-01-25 07:47:15 GMT 51.331661 -0.068970 10,000 357 257 0
2021-01-25 07:47:12 GMT 51.327805 -0.068590 10,000 357 257 0
2021-01-25 07:47:09 GMT 51.324074 -0.068283 10,000 357 257 0
2021-01-25 07:47:06 GMT 51.320629 -0.067978 10,000 357 257 0
2021-01-25 07:47:04 GMT 51.318859 -0.067825 10,000 357 257 0
2021-01-25 07:47:01 GMT 51.314671 -0.067444 10,000 357 257 0
2021-01-25 07:46:58 GMT 51.310390 -0.067062 10,000 357 257 0
2021-01-25 07:46:55 GMT 51.306992 -0.066757 10,000 357 257 0
2021-01-25 07:46:52 GMT 51.303955 -0.066512 10,000 357 257 0
2021-01-25 07:46:49 GMT 51.299122 -0.066147 10,000 357 258 0
2021-01-25 07:46:46 GMT 51.296768 -0.065918 10,000 357 258 0
2021-01-25 07:46:44 GMT 51.294933 -0.065765 10,000 357 258 0
2021-01-25 07:46:41 GMT 51.286926 -0.065079 10,000 357 260 0
2021-01-25 07:46:38 GMT 51.286926 -0.065079 10,000 358 259 0
2021-01-25 07:46:35 GMT 51.283714 -0.064850 10,000 357 260 0
2021-01-25 07:46:32 GMT 51.280594 -0.064545 10,000 357 260 0
2021-01-25 07:46:29 GMT 51.276443 -0.064211 10,000 357 260 0
2021-01-25 07:46:26 GMT 51.272827 -0.063914 10,000 357 260 0
2021-01-25 07:46:24 GMT 51.270214 -0.063705 10,000 357 261 -64
2021-01-25 07:46:21 GMT 51.266628 -0.063400 10,000 357 261 -64
2021-01-25 07:46:18 GMT 51.262997 -0.063095 10,000 357 261 -64
2021-01-25 07:46:15 GMT 51.259323 -0.062800 10,000 357 261 -64
2021-01-25 07:46:12 GMT 51.255875 -0.062485 10,000 357 261 -64
2021-01-25 07:46:09 GMT 51.252914 -0.062206 10,000 357 261 0
2021-01-25 07:46:06 GMT 51.246780 -0.061687 10,000 357 260 0
2021-01-25 07:46:04 GMT 51.246780 -0.061687 10,000 357 260 64
2021-01-25 07:46:01 GMT 51.243164 -0.061316 10,000 357 260 0
2021-01-25 07:45:58 GMT 51.239319 -0.061019 10,000 357 260 64
2021-01-25 07:45:55 GMT 51.235016 -0.060648 10,000 357 259 0
2021-01-25 07:45:52 GMT 51.232269 -0.060351 10,000 357 260 0
2021-01-25 07:45:49 GMT 51.228737 -0.060043 10,000 357 260 -64
2021-01-25 07:45:46 GMT 51.224808 -0.059757 10,000 357 260 -64
2021-01-25 07:45:44 GMT 51.222500 -0.059509 10,000 357 260 -64
2021-01-25 07:45:41 GMT 51.218445 -0.059237 10,000 358 260 0
2021-01-25 07:45:38 GMT 51.215515 -0.058975 10,000 358 260 0
2021-01-25 07:45:35 GMT 51.211792 -0.058670 10,000 358 260 0
2021-01-25 07:45:33 GMT 51.209370 -0.058441 10,000 358 260 0
2021-01-25 07:45:30 GMT 51.205879 -0.058212 10,000 358 259 0
2021-01-25 07:45:27 GMT 51.201363 -0.057831 10,000 358 259 0
2021-01-25 07:45:24 GMT 51.198944 -0.057602 10,000 358 258 0
2021-01-25 07:45:21 GMT 51.195404 -0.057373 10,000 358 258 0
2021-01-25 07:45:18 GMT 51.191586 -0.057068 10,000 358 257 0
2021-01-25 07:45:15 GMT 51.187958 -0.056787 10,000 358 257 0
2021-01-25 07:45:13 GMT 51.185349 -0.056565 10,000 358 257 0
2021-01-25 07:45:10 GMT 51.181046 -0.056268 10,000 358 257 0
2021-01-25 07:45:07 GMT 51.178665 -0.056045 10,000 358 257 -64
2021-01-25 07:45:04 GMT 51.173584 -0.055600 10,000 357 257 0
2021-01-25 07:45:01 GMT 51.171661 -0.055451 10,000 357 256 0
2021-01-25 07:44:58 GMT 51.164108 -0.054783 10,000 357 256 64
2021-01-25 07:44:55 GMT 51.164108 -0.054783 10,000 357 256 64
2021-01-25 07:44:53 GMT 51.161591 -0.054560 10,000 357 256 64
2021-01-25 07:44:50 GMT 51.158203 -0.054264 10,000 357 256 0
2021-01-25 07:44:47 GMT 51.154037 -0.053818 10,000 357 256 0
2021-01-25 07:44:44 GMT 51.151039 -0.053558 10,000 356 256 0
2021-01-25 07:44:41 GMT 51.147446 -0.053150 10,000 356 256 64
2021-01-25 07:44:38 GMT 51.144524 -0.052795 10,000 356 256 192
2021-01-25 07:44:35 GMT 51.136917 -0.051814 9,975 356 256 320
2021-01-25 07:44:33 GMT 51.136917 -0.051814 9,975 356 256 448
2021-01-25 07:44:30 GMT 51.134033 -0.051517 9,925 357 255 704
2021-01-25 07:44:27 GMT 51.129765 -0.051041 9,900 359 255 832
2021-01-25 07:44:24 GMT 51.126785 -0.050888 9,875 1 255 832
2021-01-25 07:44:20 GMT 51.119198 -0.052185 9,800 12 255 704
2021-01-25 07:44:17 GMT 51.119198 -0.052185 9,800 14 256 704
2021-01-25 07:44:14 GMT 51.116219 -0.053558 9,750 20 257 640
2021-01-25 07:44:11 GMT 51.111786 -0.056565 9,725 28 256 640
2021-01-25 07:44:08 GMT 51.108540 -0.059433 9,675 31 256 704
2021-01-25 07:44:05 GMT 51.106201 -0.061761 9,650 32 253 704
2021-01-25 07:44:03 GMT 51.103912 -0.064136 9,650 32 250 768
2021-01-25 07:44:00 GMT 51.101303 -0.066809 9,600 32 245 832
2021-01-25 07:43:57 GMT 51.095921 -0.072327 9,575 32 240 832
2021-01-25 07:43:54 GMT 51.095921 -0.072327 9,525 33 235 896
2021-01-25 07:43:51 GMT 51.093246 -0.075123 9,500 33 232 896
2021-01-25 07:43:48 GMT 51.090427 -0.078049 9,425 33 227 704
2021-01-25 07:43:45 GMT 51.087868 -0.080719 9,400 33 225 1024
2021-01-25 07:43:43 GMT 51.086102 -0.082550 9,375 33 227 704
2021-01-25 07:43:40 GMT 51.083542 -0.085220 9,350 33 227 640
2021-01-25 07:43:37 GMT 51.080326 -0.088577 9,325 33 227 640
2021-01-25 07:43:34 GMT 51.078140 -0.090860 9,300 33 225 960
2021-01-25 07:43:31 GMT 51.075211 -0.093903 9,250 33 221 1600
2021-01-25 07:43:28 GMT 51.072739 -0.096588 9,125 33 214 1920
2021-01-25 07:43:25 GMT 51.070553 -0.098801 9,075 33 212 2112
2021-01-25 07:43:23 GMT 51.066269 -0.103378 8,975 33 208 2304
2021-01-25 07:43:20 GMT 51.066269 -0.103378 8,900 33 204 2560
2021-01-25 07:43:17 GMT 51.062759 -0.107042 8,675 33 203 2816
2021-01-25 07:43:14 GMT 51.061203 -0.108676 8,600 33 204 2944
2021-01-25 07:43:11 GMT 51.058773 -0.111160 8,400 32 203 2880
2021-01-25 07:43:08 GMT 51.056725 -0.113297 8,250 32 202 2240
2021-01-25 07:43:05 GMT 51.054630 -0.115433 8,175 32 202 1792
2021-01-25 07:43:03 GMT 51.052956 -0.117111 8,125 32 202 1344
2021-01-25 07:43:00 GMT 51.050114 -0.119934 8,050 32 203 768
2021-01-25 07:42:57 GMT 51.048065 -0.121994 8,025 32 203 448
2021-01-25 07:42:54 GMT 51.046326 -0.123745 8,000 31 203 256
2021-01-25 07:42:52 GMT 51.043831 -0.126190 8,000 31 203 0
2021-01-25 07:42:49 GMT 51.041473 -0.128570 8,000 32 204 0
2021-01-25 07:42:46 GMT 51.039230 -0.130797 8,000 32 204 0
2021-01-25 07:42:43 GMT 51.037079 -0.132949 8,000 32 204 0
2021-01-25 07:42:40 GMT 51.034428 -0.135651 8,000 32 204 0
2021-01-25 07:42:37 GMT 51.032425 -0.137634 8,000 32 204 -64
2021-01-25 07:42:34 GMT 51.029957 -0.140076 8,000 32 205 -64
2021-01-25 07:42:31 GMT 51.027164 -0.142899 8,000 32 205 -64
2021-01-25 07:42:28 GMT 51.025131 -0.144975 8,000 32 205 -64
2021-01-25 07:42:25 GMT 51.022797 -0.147350 8,000 23 202 64
2021-01-25 07:42:22 GMT 51.019714 -0.150452 8,000 32 204 -64
2021-01-25 07:42:19 GMT 51.018040 -0.152206 8,025 32 204 0
2021-01-25 07:42:16 GMT 51.013092 -0.157223 8,025 32 204 0
2021-01-25 07:42:13 GMT 51.013092 -0.157223 8,000 29 203 128
2021-01-25 07:42:10 GMT 51.011307 -0.158931 8,000 29 203 128
2021-01-25 07:42:07 GMT 51.008148 -0.161677 8,000 25 202 128
2021-01-25 07:42:04 GMT 51.005100 -0.163651 8,000 15 200 0
2021-01-25 07:42:01 GMT 51.002865 -0.164566 8,000 7 199 0
2021-01-25 07:41:58 GMT 51.000957 -0.165024 8,000 2 199 0
2021-01-25 07:41:55 GMT 50.997093 -0.165100 8,000 350 198 0
2021-01-25 07:41:52 GMT 50.994717 -0.164566 8,000 347 198 64
2021-01-25 07:41:49 GMT 50.992035 -0.163385 8,000 337 198 64
2021-01-25 07:41:46 GMT 50.988667 -0.160828 8,000 331 199 64
2021-01-25 07:41:43 GMT 50.987549 -0.159747 8,000 323 200 64
2021-01-25 07:41:40 GMT 50.985214 -0.156778 8,000 313 201 64
2021-01-25 07:41:37 GMT 50.983109 -0.153066 7,975 300 205 0
2021-01-25 07:41:34 GMT 50.981312 -0.148926 8,000 298 205 -64
2021-01-25 07:41:31 GMT 50.980194 -0.145493 8,000 291 207 -128
2021-01-25 07:41:27 GMT 50.979034 -0.140224 8,000 285 209 -64
2021-01-25 07:41:24 GMT 50.978333 -0.136032 8,000 283 209 0
2021-01-25 07:41:22 GMT 50.977913 -0.133057 8,000 283 209 0
2021-01-25 07:41:20 GMT 50.977493 -0.130157 8,000 283 209 0
2021-01-25 07:41:17 GMT 50.976837 -0.125304 8,000 283 209 64
2021-01-25 07:41:14 GMT 50.976242 -0.120924 8,000 282 209 0
2021-01-25 07:41:11 GMT 50.975121 -0.112534 8,000 283 209 0
2021-01-25 07:41:08 GMT 50.975121 -0.112534 8,000 282 209 0
2021-01-25 07:41:06 GMT 50.974548 -0.108527 8,000 282 209 0
2021-01-25 07:41:03 GMT 50.973862 -0.103257 8,000 282 210 -64
2021-01-25 07:41:00 GMT 50.973495 -0.100139 8,000 282 210 -64
2021-01-25 07:40:58 GMT 50.973072 -0.097046 8,000 281 209 -64
2021-01-25 07:40:56 GMT 50.972763 -0.094572 8,000 281 209 -64
2021-01-25 07:40:54 GMT 50.972122 -0.088930 8,000 281 209 0
2021-01-25 07:40:51 GMT 50.971767 -0.085907 8,000 281 209 0
2021-01-25 07:40:49 GMT 50.971481 -0.083659 8,000 281 209 0
2021-01-25 07:40:47 GMT 50.970928 -0.078812 8,000 282 208 64
2021-01-25 07:40:44 GMT 50.969833 -0.070520 8,000 282 208 64
2021-01-25 07:40:41 GMT 50.969833 -0.070520 8,000 284 207 0
2021-01-25 07:40:39 GMT 50.969650 -0.069036 8,000 285 207 0
2021-01-25 07:40:37 GMT 50.969147 -0.066215 8,000 292 206 -64
2021-01-25 07:40:34 GMT 50.968094 -0.061687 8,000 299 203 0
2021-01-25 07:40:31 GMT 50.966507 -0.056534 8,000 302 202 0
2021-01-25 07:40:27 GMT 50.964157 -0.050923 8,000 311 199 0
2021-01-25 07:40:24 GMT 50.962643 -0.048065 8,000 315 198 0
2021-01-25 07:40:21 GMT 50.959991 -0.043945 8,000 324 197 0
2021-01-25 07:40:19 GMT 50.959991 -0.043945 8,000 322 197 0
2021-01-25 07:40:17 GMT 50.958710 -0.042312 8,000 324 197 0
2021-01-25 07:40:14 GMT 50.956055 -0.039417 8,000 331 197 0
2021-01-25 07:40:11 GMT 50.953262 -0.037116 8,000 337 196 0
2021-01-25 07:40:08 GMT 50.951111 -0.035631 8,000 341 196 0
2021-01-25 07:40:05 GMT 50.948303 -0.034180 8,000 348 196 0
2021-01-25 07:40:02 GMT 50.945652 -0.033188 8,000 351 195 0
2021-01-25 07:39:59 GMT 50.943138 -0.032654 8,000 356 196 0
2021-01-25 07:39:57 GMT 50.940811 -0.032425 8,000 358 196 0
2021-01-25 07:39:54 GMT 50.938904 -0.032349 8,000 3 197 0
2021-01-25 07:39:52 GMT 50.936646 -0.032662 8,000 8 197 0
2021-01-25 07:39:49 GMT 50.934402 -0.033107 8,000 11 198 0
2021-01-25 07:39:47 GMT 50.932251 -0.033850 8,000 13 198 0
2021-01-25 07:39:44 GMT 50.929688 -0.035037 8,000 21 200 0
2021-01-25 07:39:42 GMT 50.926563 -0.037003 8,000 26 201 -64
2021-01-25 07:39:40 GMT 50.926563 -0.037003 8,000 26 201 -64
2021-01-25 07:39:38 GMT 50.923233 -0.039863 8,000 32 203 0
2021-01-25 07:39:35 GMT 50.922096 -0.041046 8,000 33 203 0
2021-01-25 07:39:32 GMT 50.919678 -0.043945 8,000 41 205 0
2021-01-25 07:39:29 GMT 50.916412 -0.049067 8,000 50 208 0
2021-01-25 07:39:27 GMT 50.916412 -0.049067 8,000 101 229 -64
2021-01-25 07:39:24 GMT 50.914646 -0.052643 8,000 56 210 64
2021-01-25 07:39:22 GMT 50.913803 -0.054635 8,000 62 213 64
2021-01-25 07:39:19 GMT 50.912319 -0.059128 8,000 67 214 64
2021-01-25 07:39:17 GMT 50.911621 -0.061874 8,000 76 218 64
2021-01-25 07:39:14 GMT 50.910645 -0.066957 8,000 78 219 64
2021-01-25 07:39:12 GMT 50.910095 -0.072525 7,975 84 221 0
2021-01-25 07:39:10 GMT 50.910095 -0.072525 7,975 87 223 0
2021-01-25 07:39:08 GMT 50.909992 -0.075912 7,975 91 225 0
2021-01-25 07:39:06 GMT 50.910038 -0.080032 8,000 100 228 -64
2021-01-25 07:39:03 GMT 50.910461 -0.085515 8,000 100 228 -64
2021-01-25 07:39:00 GMT 50.910873 -0.089301 8,000 101 229 -64
2021-01-25 07:38:57 GMT 50.911560 -0.094349 8,000 101 228 -64
2021-01-25 07:38:54 GMT 50.912228 -0.099411 8,000 101 228 -64
2021-01-25 07:38:52 GMT 50.912693 -0.102844 8,000 102 229 0
2021-01-25 07:38:50 GMT 50.913116 -0.106152 8,000 102 229 0
2021-01-25 07:38:47 GMT 50.913857 -0.111465 8,000 102 228 0
2021-01-25 07:38:44 GMT 50.914581 -0.116618 8,000 102 227 0
2021-01-25 07:38:41 GMT 50.915115 -0.120621 8,000 102 227 0
2021-01-25 07:38:39 GMT 50.915588 -0.124042 8,000 102 226 64
2021-01-25 07:38:37 GMT 50.916790 -0.132370 8,000 102 226 0
2021-01-25 07:38:34 GMT 50.916790 -0.132370 8,000 102 226 0
2021-01-25 07:38:31 GMT 50.917488 -0.137253 8,000 102 226 0
2021-01-25 07:38:29 GMT 50.918278 -0.142899 8,000 102 226 0
2021-01-25 07:38:27 GMT 50.918278 -0.142899 8,000 102 226 0
2021-01-25 07:38:24 GMT 50.919117 -0.148697 8,000 102 226 0
2021-01-25 07:38:22 GMT 50.919525 -0.151582 8,000 102 226 0
2021-01-25 07:38:20 GMT 50.919983 -0.154922 8,000 102 226 0
2021-01-25 07:38:17 GMT 50.920944 -0.161603 8,000 102 227 0
2021-01-25 07:38:14 GMT 50.921398 -0.164719 8,000 102 227 0
2021-01-25 07:38:12 GMT 50.921722 -0.167160 8,000 102 227 0
2021-01-25 07:38:10 GMT 50.922272 -0.171179 8,000 101 226 0
2021-01-25 07:38:07 GMT 50.922913 -0.176004 8,000 101 226 0
2021-01-25 07:38:04 GMT 50.923492 -0.180664 8,000 100 226 -64
2021-01-25 07:38:01 GMT 50.924103 -0.185803 8,000 100 225 -64
2021-01-25 07:37:58 GMT 50.924789 -0.191815 8,000 99 225 -64
2021-01-25 07:37:54 GMT 50.925385 -0.197012 8,000 99 224 -64
2021-01-25 07:37:52 GMT 50.925728 -0.200500 8,025 98 224 -64
2021-01-25 07:37:49 GMT 50.926147 -0.204697 8,025 98 224 0
2021-01-25 07:37:47 GMT 50.926620 -0.209854 8,000 98 224 64
2021-01-25 07:37:44 GMT 50.926983 -0.213776 8,000 99 224 64
2021-01-25 07:37:42 GMT 50.927265 -0.216370 8,000 100 225 128
2021-01-25 07:37:39 GMT 50.927731 -0.220108 8,000 102 226 64
2021-01-25 07:37:37 GMT 50.928429 -0.224609 8,000 116 231 0
2021-01-25 07:37:34 GMT 50.929596 -0.229599 8,000 114 230 0
2021-01-25 07:37:31 GMT 50.931313 -0.234985 8,000 120 233 0
2021-01-25 07:37:28 GMT 50.932804 -0.238571 8,000 128 236 0
2021-01-25 07:37:26 GMT 50.933899 -0.240808 8,000 130 236 0
2021-01-25 07:37:23 GMT 50.936188 -0.244743 8,000 137 238 0
2021-01-25 07:37:20 GMT 50.938934 -0.248454 8,000 145 240 -64
2021-01-25 07:37:17 GMT 50.941277 -0.251007 8,000 149 240 0
2021-01-25 07:37:15 GMT 50.944210 -0.253525 8,000 153 240 0
2021-01-25 07:37:12 GMT 50.946899 -0.255358 8,000 162 241 64
2021-01-25 07:37:09 GMT 50.953720 -0.257956 8,000 170 241 0
2021-01-25 07:37:06 GMT 50.953720 -0.257956 8,000 174 241 0
2021-01-25 07:37:03 GMT 50.956512 -0.258327 8,000 181 241 0
2021-01-25 07:37:00 GMT 50.959396 -0.258253 8,000 186 239 0
2021-01-25 07:36:57 GMT 50.964180 -0.257187 8,000 192 239 0
2021-01-25 07:36:55 GMT 50.964180 -0.257187 8,000 198 237 0
2021-01-25 07:36:52 GMT 50.969810 -0.254288 8,000 224 230 0
2021-01-25 07:36:50 GMT 50.969810 -0.254288 8,000 206 236 -64
2021-01-25 07:36:48 GMT 50.972214 -0.252389 8,000 210 234 -64
2021-01-25 07:36:46 GMT 50.973675 -0.251083 8,000 214 233 0
2021-01-25 07:36:43 GMT 50.976887 -0.247345 8,000 224 230 0
2021-01-25 07:36:40 GMT 50.978989 -0.244372 8,000 227 229 0
2021-01-25 07:36:37 GMT 50.981232 -0.240363 8,000 233 226 0
2021-01-25 07:36:34 GMT 50.984161 -0.233385 8,000 239 224 64
2021-01-25 07:36:32 GMT 50.984161 -0.233385 8,000 243 223 64
2021-01-25 07:36:29 GMT 50.985359 -0.229340 8,000 249 220 64
2021-01-25 07:36:27 GMT 50.986107 -0.226288 8,000 253 218 64
2021-01-25 07:36:24 GMT 50.986862 -0.221731 8,000 260 216 64
2021-01-25 07:36:22 GMT 50.987228 -0.218613 7,975 266 214 0
2021-01-25 07:36:20 GMT 50.987457 -0.214615 7,975 270 214 -64
2021-01-25 07:36:17 GMT 50.987457 -0.210724 8,000 273 213 -64
2021-01-25 07:36:15 GMT 50.987320 -0.207627 8,000 278 211 -64
2021-01-25 07:36:12 GMT 50.986679 -0.200723 8,000 281 211 0
2021-01-25 07:36:10 GMT 50.986679 -0.200723 8,000 281 211 0
2021-01-25 07:36:08 GMT 50.986221 -0.196789 8,000 281 211 0
2021-01-25 07:36:06 GMT 50.985920 -0.194550 8,000 281 211 0
2021-01-25 07:36:03 GMT 50.985352 -0.189960 8,000 282 212 0
2021-01-25 07:36:01 GMT 50.984940 -0.186471 8,000 281 211 0
2021-01-25 07:35:58 GMT 50.984299 -0.181126 8,000 281 210 64
2021-01-25 07:35:56 GMT 50.983932 -0.178231 8,000 282 211 64
2021-01-25 07:35:53 GMT 50.983543 -0.175018 8,000 282 210 0
2021-01-25 07:35:51 GMT 50.983032 -0.171051 8,000 282 210 0
2021-01-25 07:35:48 GMT 50.982521 -0.167007 8,000 282 210 0
2021-01-25 07:35:46 GMT 50.982101 -0.163756 8,000 282 210 -64
2021-01-25 07:35:43 GMT 50.981598 -0.159821 8,000 282 210 -64
2021-01-25 07:35:40 GMT 50.980892 -0.154343 8,000 282 210 0
2021-01-25 07:35:37 GMT 50.980518 -0.151138 8,000 282 209 0
2021-01-25 07:35:35 GMT 50.980042 -0.147499 8,000 282 209 0
2021-01-25 07:35:32 GMT 50.979034 -0.140150 8,000 282 208 64
2021-01-25 07:35:30 GMT 50.979034 -0.140150 8,000 282 208 64
2021-01-25 07:35:28 GMT 50.978565 -0.136642 8,000 283 208 0
2021-01-25 07:35:25 GMT 50.977818 -0.131073 8,000 283 208 -64
2021-01-25 07:35:22 GMT 50.977341 -0.127456 8,000 283 208 -64
2021-01-25 07:35:20 GMT 50.977020 -0.125081 8,000 283 207 0
2021-01-25 07:35:18 GMT 50.976059 -0.118029 8,000 283 207 0
2021-01-25 07:35:16 GMT 50.976059 -0.118029 8,000 283 207 64
2021-01-25 07:35:13 GMT 50.975647 -0.115060 8,000 283 207 0
2021-01-25 07:35:11 GMT 50.975258 -0.112305 8,000 283 207 0
2021-01-25 07:35:09 GMT 50.974594 -0.107339 8,000 282 208 0
2021-01-25 07:35:06 GMT 50.974140 -0.104141 8,000 282 208 -64
2021-01-25 07:35:03 GMT 50.973537 -0.099487 8,000 282 208 -64
2021-01-25 07:35:00 GMT 50.972992 -0.095091 8,000 282 208 -64
2021-01-25 07:34:58 GMT 50.972511 -0.091629 8,000 282 208 -64
2021-01-25 07:34:55 GMT 50.972141 -0.088654 8,000 282 207 -64
2021-01-25 07:34:53 GMT 50.971676 -0.084763 8,000 282 207 -64
2021-01-25 07:34:50 GMT 50.971115 -0.080261 8,000 282 206 0
2021-01-25 07:34:48 GMT 50.970291 -0.073787 8,000 283 206 64
2021-01-25 07:34:46 GMT 50.970291 -0.073787 8,000 283 206 64
2021-01-25 07:34:43 GMT 50.969582 -0.068893 8,000 286 205 64
2021-01-25 07:34:40 GMT 50.969055 -0.065918 8,000 290 204 0
2021-01-25 07:34:38 GMT 50.968277 -0.062355 8,000 293 203 0
2021-01-25 07:34:36 GMT 50.967670 -0.060120 8,000 295 203 0
2021-01-25 07:34:34 GMT 50.966812 -0.057381 8,000 299 201 0
2021-01-25 07:34:31 GMT 50.965248 -0.053329 8,000 306 200 0
2021-01-25 07:34:28 GMT 50.963528 -0.049667 8,000 311 200 0
2021-01-25 07:34:26 GMT 50.960644 -0.044785 8,000 318 198 0
2021-01-25 07:34:23 GMT 50.960644 -0.044785 8,000 355 196 0
2021-01-25 07:34:20 GMT 50.958710 -0.042238 8,000 325 197 0
2021-01-25 07:34:18 GMT 50.956779 -0.040131 8,000 328 197 0
2021-01-25 07:34:16 GMT 50.955276 -0.038675 8,000 333 196 0
2021-01-25 07:34:13 GMT 50.953007 -0.036774 8,000 337 196 0
2021-01-25 07:34:10 GMT 50.950333 -0.035037 8,000 342 196 0
2021-01-25 07:34:07 GMT 50.947701 -0.033722 8,000 350 196 0
2021-01-25 07:34:05 GMT 50.945618 -0.032959 8,000 350 196 0
2021-01-25 07:34:02 GMT 50.943371 -0.032425 8,000 355 196 0
2021-01-25 07:34:00 GMT 50.941498 -0.032142 8,000 0 197 0
2021-01-25 07:33:58 GMT 50.939182 -0.032043 8,000 0 197 -64
2021-01-25 07:33:56 GMT 50.937927 -0.032142 8,000 4 197 0
2021-01-25 07:33:53 GMT 50.934807 -0.032654 8,000 8 198 0
2021-01-25 07:33:50 GMT 50.932480 -0.033330 8,000 12 199 0
2021-01-25 07:33:47 GMT 50.930374 -0.034147 8,000 22 201 0
2021-01-25 07:33:45 GMT 50.928085 -0.035409 8,000 23 201 0
2021-01-25 07:33:42 GMT 50.923599 -0.038749 8,000 66 214 64
2021-01-25 07:33:40 GMT 50.923599 -0.038749 8,000 30 203 0
2021-01-25 07:33:37 GMT 50.921864 -0.040436 8,000 37 205 0
2021-01-25 07:33:35 GMT 50.920212 -0.042238 8,000 37 205 0
2021-01-25 07:33:33 GMT 50.917999 -0.045242 8,000 43 207 0
2021-01-25 07:33:30 GMT 50.916229 -0.048065 8,000 49 209 0
2021-01-25 07:33:27 GMT 50.913300 -0.054264 8,000 55 211 64
2021-01-25 07:33:25 GMT 50.913300 -0.054264 8,000 68 216 64
2021-01-25 07:33:22 GMT 50.911949 -0.058136 8,000 66 214 64
2021-01-25 07:33:19 GMT 50.910416 -0.064730 8,000 70 216 64
2021-01-25 07:33:17 GMT 50.910416 -0.064730 8,000 75 218 64
2021-01-25 07:33:15 GMT 50.909912 -0.067996 8,000 101 228 0
2021-01-25 07:33:13 GMT 50.909573 -0.072098 8,000 88 224 -64
2021-01-25 07:33:11 GMT 50.909481 -0.074539 8,000 88 224 -64
2021-01-25 07:33:09 GMT 50.909500 -0.077944 8,000 94 225 -64
2021-01-25 07:33:06 GMT 50.909821 -0.083066 8,000 97 226 -64
2021-01-25 07:33:03 GMT 50.910370 -0.088484 8,000 102 229 -64
2021-01-25 07:33:00 GMT 50.911469 -0.096798 8,000 101 228 0
2021-01-25 07:32:57 GMT 50.911469 -0.096798 8,000 102 229 0
2021-01-25 07:32:55 GMT 50.911949 -0.100327 8,000 102 229 0
2021-01-25 07:32:53 GMT 50.912506 -0.104446 8,000 102 229 -64
2021-01-25 07:32:50 GMT 50.913162 -0.109047 8,000 102 229 0
2021-01-25 07:32:47 GMT 50.913902 -0.114594 8,000 102 229 0
2021-01-25 07:32:45 GMT 50.914276 -0.117188 8,000 102 229 0
2021-01-25 07:32:43 GMT 50.914883 -0.121460 8,000 102 229 0
2021-01-25 07:32:40 GMT 50.915672 -0.127029 8,000 102 229 0
2021-01-25 07:32:37 GMT 50.916183 -0.130768 8,000 102 229 0
2021-01-25 07:32:35 GMT 50.917419 -0.139853 8,000 102 229 0
2021-01-25 07:32:32 GMT 50.917419 -0.139853 8,000 102 229 64
2021-01-25 07:32:30 GMT 50.917908 -0.143051 8,000 102 229 64
2021-01-25 07:32:27 GMT 50.918373 -0.146484 8,000 102 229 0
2021-01-25 07:32:25 GMT 50.918839 -0.149918 8,000 102 229 0
2021-01-25 07:32:23 GMT 50.919479 -0.154402 8,000 102 229 0
2021-01-25 07:32:20 GMT 50.920074 -0.158708 8,000 102 229 0
2021-01-25 07:32:17 GMT 50.920746 -0.163498 8,000 102 229 0
2021-01-25 07:32:15 GMT 50.921082 -0.166205 8,000 102 229 0
2021-01-25 07:32:13 GMT 50.921677 -0.170593 8,000 101 228 0
2021-01-25 07:32:10 GMT 50.922237 -0.174866 8,000 101 229 0
2021-01-25 07:32:07 GMT 50.923004 -0.180681 8,000 101 229 0
2021-01-25 07:32:05 GMT 50.923279 -0.182982 8,000 100 229 0
2021-01-25 07:32:03 GMT 50.923771 -0.187149 8,000 100 228 -64
2021-01-25 07:32:01 GMT 50.924103 -0.189663 8,000 100 228 -64
2021-01-25 07:31:59 GMT 50.924984 -0.197678 8,000 99 227 -64
2021-01-25 07:31:56 GMT 50.925568 -0.203470 8,000 99 225 -64
2021-01-25 07:31:53 GMT 50.925568 -0.203470 8,000 99 226 -64
2021-01-25 07:31:51 GMT 50.925842 -0.206068 8,000 99 225 0
2021-01-25 07:31:49 GMT 50.926052 -0.208435 8,000 99 225 0
2021-01-25 07:31:47 GMT 50.926483 -0.212452 8,000 99 225 0
2021-01-25 07:31:45 GMT 50.926849 -0.215718 8,000 100 225 64
2021-01-25 07:31:42 GMT 50.927307 -0.219578 8,000 102 226 64
2021-01-25 07:31:40 GMT 50.928360 -0.225814 8,000 109 228 0
2021-01-25 07:31:37 GMT 50.928909 -0.228337 8,000 111 228 0
2021-01-25 07:31:35 GMT 50.929825 -0.231604 8,000 117 231 0
2021-01-25 07:31:33 GMT 50.931152 -0.235464 8,000 121 232 0
2021-01-25 07:31:30 GMT 50.932571 -0.238878 8,000 127 234 64
2021-01-25 07:31:27 GMT 50.935364 -0.244149 8,000 136 236 0
2021-01-25 07:31:24 GMT 50.937057 -0.246673 8,000 140 237 0
2021-01-25 07:31:22 GMT 50.938339 -0.248306 8,000 142 238 0
2021-01-25 07:31:20 GMT 50.941589 -0.251869 8,000 154 240 0
2021-01-25 07:31:17 GMT 50.943146 -0.253279 8,000 154 240 0
2021-01-25 07:31:15 GMT 50.946583 -0.255661 8,000 169 242 0
2021-01-25 07:31:12 GMT 50.948959 -0.256843 8,000 167 241 0
2021-01-25 07:31:09 GMT 50.951424 -0.257797 8,000 167 241 0
2021-01-25 07:31:07 GMT 50.954819 -0.258476 8,000 175 241 0
2021-01-25 07:31:05 GMT 50.957016 -0.258624 8,000 179 242 0
2021-01-25 07:31:02 GMT 50.959167 -0.258550 8,000 186 241 0
2021-01-25 07:31:00 GMT 50.962143 -0.258104 8,000 191 240 0
2021-01-25 07:30:57 GMT 50.964924 -0.257187 8,000 197 239 0
2021-01-25 07:30:55 GMT 50.967857 -0.255737 8,000 202 238 0
2021-01-25 07:30:52 GMT 50.970043 -0.254440 8,000 205 237 0
2021-01-25 07:30:50 GMT 50.972374 -0.252609 8,000 210 236 0
2021-01-25 07:30:47 GMT 50.974960 -0.250162 8,000 218 234 0
2021-01-25 07:30:45 GMT 50.977913 -0.246582 8,000 222 232 0
2021-01-25 07:30:42 GMT 50.979401 -0.244370 8,000 226 231 0
2021-01-25 07:30:39 GMT 50.981171 -0.241394 8,000 230 229 0
2021-01-25 07:30:37 GMT 50.982834 -0.237988 8,000 237 227 0
2021-01-25 07:30:35 GMT 50.984013 -0.235138 8,000 241 226 0
2021-01-25 07:30:32 GMT 50.985641 -0.230179 8,000 249 222 0
2021-01-25 07:30:29 GMT 50.987091 -0.223735 8,000 255 219 64
2021-01-25 07:30:27 GMT 50.987091 -0.223735 8,000 258 218 64
2021-01-25 07:30:25 GMT 50.987595 -0.220469 8,000 262 217 64
2021-01-25 07:30:22 GMT 50.988007 -0.214159 8,000 270 214 0
2021-01-25 07:30:19 GMT 50.988014 -0.211563 8,000 272 213 0
2021-01-25 07:30:17 GMT 50.987869 -0.206810 8,000 277 211 -64
2021-01-25 07:30:14 GMT 50.987503 -0.202789 8,000 280 210 -64
2021-01-25 07:30:12 GMT 50.986771 -0.197086 8,000 282 210 0
2021-01-25 07:30:10 GMT 50.986771 -0.197086 8,000 283 210 0
2021-01-25 07:30:07 GMT 50.986153 -0.192490 8,000 283 209 0
2021-01-25 07:30:05 GMT 50.985718 -0.189291 8,000 283 209 0
2021-01-25 07:30:02 GMT 50.985306 -0.186099 8,000 283 209 0
2021-01-25 07:30:00 GMT 50.984711 -0.181646 8,000 283 209 0
2021-01-25 07:29:57 GMT 50.984196 -0.177917 8,000 283 209 0
2021-01-25 07:29:55 GMT 50.983704 -0.174222 8,000 283 209 0
2021-01-25 07:29:52 GMT 50.983154 -0.170362 8,000 283 208 0
2021-01-25 07:29:50 GMT 50.982101 -0.162964 8,000 283 209 0
2021-01-25 07:29:47 GMT 50.982101 -0.162964 8,000 283 209 0
2021-01-25 07:29:45 GMT 50.981552 -0.159153 8,000 283 209 0
2021-01-25 07:29:42 GMT 50.981003 -0.155442 8,000 284 208 -64
2021-01-25 07:29:40 GMT 50.980473 -0.151749 8,000 284 208 0
2021-01-25 07:29:37 GMT 50.979675 -0.146608 8,000 285 208 0
2021-01-25 07:29:34 GMT 50.978577 -0.140001 8,000 285 207 64
2021-01-25 07:29:32 GMT 50.978577 -0.140001 8,000 286 207 64
2021-01-25 07:29:29 GMT 50.977982 -0.136513 8,000 287 207 64
2021-01-25 07:29:27 GMT 50.977261 -0.132675 8,000 287 206 0
2021-01-25 07:29:24 GMT 50.976562 -0.128860 8,000 289 206 0
2021-01-25 07:29:22 GMT 50.975956 -0.126038 8,000 289 206 0
2021-01-25 07:29:20 GMT 50.975166 -0.122299 8,000 290 206 -64
2021-01-25 07:29:17 GMT 50.973305 -0.114670 8,000 294 205 -64
2021-01-25 07:29:14 GMT 50.973305 -0.114670 8,000 293 205 -64
2021-01-25 07:29:11 GMT 50.971954 -0.109787 8,000 295 204 0
2021-01-25 07:29:09 GMT 50.971115 -0.106888 8,000 297 203 0
2021-01-25 07:29:06 GMT 50.970325 -0.104523 8,000 298 203 0
2021-01-25 07:29:04 GMT 50.969467 -0.101995 8,000 300 202 0
2021-01-25 07:29:02 GMT 50.967819 -0.097318 8,000 303 201 64
2021-01-25 07:28:59 GMT 50.966537 -0.094275 8,000 305 200 0
2021-01-25 07:28:56 GMT 50.965530 -0.091934 8,000 307 200 0
2021-01-25 07:28:54 GMT 50.964367 -0.089417 8,000 310 199 0
2021-01-25 07:28:52 GMT 50.962875 -0.086441 8,000 311 199 0
2021-01-25 07:28:49 GMT 50.960316 -0.082016 8,000 315 199 0
2021-01-25 07:28:46 GMT 50.959442 -0.080616 8,000 319 198 0
2021-01-25 07:28:44 GMT 50.958115 -0.078612 8,000 324 198 0
2021-01-25 07:28:42 GMT 50.956512 -0.076310 8,000 321 198 0
2021-01-25 07:28:40 GMT 50.954170 -0.073318 8,000 322 198 0
2021-01-25 07:28:37 GMT 50.952759 -0.071634 8,000 325 197 0
2021-01-25 07:28:35 GMT 50.950634 -0.069275 8,000 327 197 0
2021-01-25 07:28:32 GMT 50.949142 -0.067673 8,000 328 197 0
2021-01-25 07:28:30 GMT 50.947281 -0.065765 8,000 329 196 0
2021-01-25 07:28:27 GMT 50.944839 -0.063394 8,000 330 196 0
2021-01-25 07:28:24 GMT 50.942871 -0.061538 8,000 330 196 0
2021-01-25 07:28:21 GMT 50.938484 -0.057449 8,000 330 196 0
2021-01-25 07:28:19 GMT 50.938484 -0.057449 8,000 330 196 0
2021-01-25 07:28:16 GMT 50.936806 -0.055847 8,000 330 196 0
2021-01-25 07:28:14 GMT 50.935272 -0.054486 8,000 330 196 0
2021-01-25 07:28:12 GMT 50.933670 -0.052927 8,000 330 196 0
2021-01-25 07:28:10 GMT 50.931595 -0.050964 8,000 330 196 0
2021-01-25 07:28:06 GMT 50.929138 -0.048696 8,000 330 196 0
2021-01-25 07:28:04 GMT 50.927490 -0.047137 8,000 329 196 0
2021-01-25 07:28:02 GMT 50.925865 -0.045624 8,000 329 196 0
2021-01-25 07:28:00 GMT 50.923920 -0.043723 8,000 329 195 0
2021-01-25 07:27:57 GMT 50.921398 -0.041275 8,000 328 195 0
2021-01-25 07:27:54 GMT 50.919815 -0.039673 8,000 328 196 0
2021-01-25 07:27:52 GMT 50.917923 -0.037784 8,000 326 195 0
2021-01-25 07:27:49 GMT 50.915680 -0.035409 8,000 326 195 0
2021-01-25 07:27:46 GMT 50.913857 -0.033417 8,000 324 196 -64
2021-01-25 07:27:44 GMT 50.912247 -0.031549 8,000 322 197 -64
2021-01-25 07:27:42 GMT 50.910141 -0.029025 8,000 322 197 -64
2021-01-25 07:27:39 GMT 50.908783 -0.027313 8,000 321 196 0
2021-01-25 07:27:37 GMT 50.906982 -0.024942 8,000 321 196 0
2021-01-25 07:27:35 GMT 50.904827 -0.022125 8,000 321 196 128
2021-01-25 07:27:32 GMT 50.903458 -0.020340 8,000 323 196 128
2021-01-25 07:27:29 GMT 50.901241 -0.017700 8,000 326 196 64
2021-01-25 07:27:26 GMT 50.899017 -0.015663 8,000 338 195 0
2021-01-25 07:27:24 GMT 50.897369 -0.014475 8,000 45 206 -64
2021-01-25 07:27:22 GMT 50.895767 -0.013584 8,000 359 196 0
2021-01-25 07:27:19 GMT 50.892517 -0.012545 8,000 354 195 0
2021-01-25 07:27:16 GMT 50.890686 -0.012323 8,000 359 196 0
2021-01-25 07:27:14 GMT 50.886765 -0.012741 8,000 9 197 0
2021-01-25 07:27:12 GMT 50.886765 -0.012741 8,000 11 197 0
2021-01-25 07:27:09 GMT 50.881687 -0.015259 8,000 17 198 0
2021-01-25 07:27:06 GMT 50.881687 -0.015259 8,000 25 200 -64
2021-01-25 07:27:04 GMT 50.879967 -0.016708 8,000 32 203 -64
2021-01-25 07:27:01 GMT 50.877640 -0.019226 8,000 37 204 -64
2021-01-25 07:26:59 GMT 50.875580 -0.022047 8,000 47 207 -64
2021-01-25 07:26:56 GMT 50.874023 -0.024719 8,000 50 208 0
2021-01-25 07:26:53 GMT 50.871819 -0.029907 8,000 61 212 0
2021-01-25 07:26:49 GMT 50.870682 -0.033404 8,000 66 214 0
2021-01-25 07:26:46 GMT 50.869122 -0.041199 8,000 75 218 64
2021-01-25 07:26:44 GMT 50.869122 -0.041199 8,000 80 220 0
2021-01-25 07:26:42 GMT 50.868805 -0.044613 8,000 85 222 0
2021-01-25 07:26:39 GMT 50.868622 -0.049513 8,000 105 230 64
2021-01-25 07:26:36 GMT 50.868793 -0.054245 8,000 113 234 128
2021-01-25 07:26:34 GMT 50.869080 -0.057456 8,000 102 229 64
2021-01-25 07:26:32 GMT 50.869766 -0.061687 8,000 107 232 64
2021-01-25 07:26:29 GMT 50.870655 -0.065918 8,000 111 233 64
2021-01-25 07:26:27 GMT 50.871735 -0.069555 7,975 117 235 128
2021-01-25 07:26:24 GMT 50.873016 -0.073193 7,975 123 238 64
2021-01-25 07:26:22 GMT 50.874481 -0.076682 7,975 127 240 0
2021-01-25 07:26:20 GMT 50.876011 -0.079651 7,975 131 241 -64
2021-01-25 07:26:17 GMT 50.878326 -0.083585 8,000 135 243 -128
2021-01-25 07:26:14 GMT 50.880615 -0.086926 8,000 138 243 -128
2021-01-25 07:26:12 GMT 50.882263 -0.089153 8,000 139 243 -64
2021-01-25 07:26:09 GMT 50.884762 -0.092545 8,000 139 243 -64
2021-01-25 07:26:06 GMT 50.886997 -0.095596 8,025 139 243 -64
2021-01-25 07:26:04 GMT 50.889137 -0.098495 8,025 139 241 0
2021-01-25 07:26:02 GMT 50.891373 -0.101475 8,025 139 241 0
2021-01-25 07:25:59 GMT 50.893570 -0.104444 8,025 139 241 0
2021-01-25 07:25:56 GMT 50.895859 -0.107562 8,000 139 240 0
2021-01-25 07:25:53 GMT 50.898468 -0.111125 8,000 139 240 -64
2021-01-25 07:25:50 GMT 50.901123 -0.114688 8,025 139 241 -256
2021-01-25 07:25:48 GMT 50.902908 -0.117064 8,025 139 241 -320
2021-01-25 07:25:45 GMT 50.905106 -0.120033 8,050 139 242 -448
2021-01-25 07:25:42 GMT 50.908131 -0.124130 8,075 139 242 -512
2021-01-25 07:25:39 GMT 50.910095 -0.126862 8,100 139 243 -512
2021-01-25 07:25:36 GMT 50.912785 -0.130539 8,125 138 243 -512
2021-01-25 07:25:34 GMT 50.916412 -0.135473 8,150 138 243 -576
2021-01-25 07:25:32 GMT 50.916412 -0.135473 8,150 138 243 -576
2021-01-25 07:25:29 GMT 50.918652 -0.138626 8,175 138 243 -576
2021-01-25 07:25:26 GMT 50.921307 -0.142212 8,225 138 243 -512
2021-01-25 07:25:24 GMT 50.922981 -0.144577 8,225 139 244 -512
2021-01-25 07:25:22 GMT 50.925121 -0.147476 8,250 139 243 -448
2021-01-25 07:25:19 GMT 50.927589 -0.150909 8,275 139 243 -448
2021-01-25 07:25:16 GMT 50.929688 -0.153734 8,300 139 243 -448
2021-01-25 07:25:14 GMT 50.931686 -0.156403 8,300 139 243 -448
2021-01-25 07:25:11 GMT 50.933533 -0.158931 8,325 139 242 -448
2021-01-25 07:25:09 GMT 50.935730 -0.161900 8,350 139 242 -448
2021-01-25 07:25:06 GMT 50.938019 -0.165018 8,375 139 241 -448
2021-01-25 07:25:04 GMT 50.940624 -0.168533 8,375 139 241 -448
2021-01-25 07:25:01 GMT 50.942066 -0.170517 8,400 139 241 -448
2021-01-25 07:24:59 GMT 50.944256 -0.173492 8,425 139 240 -448
2021-01-25 07:24:56 GMT 50.946899 -0.177117 8,450 139 240 -448
2021-01-25 07:24:54 GMT 50.948540 -0.179367 8,450 139 240 -512
2021-01-25 07:24:51 GMT 50.950306 -0.181732 8,475 139 240 -512
2021-01-25 07:24:49 GMT 50.952728 -0.185089 8,500 139 240 -512
2021-01-25 07:24:46 GMT 50.955101 -0.188293 8,525 139 239 -512
2021-01-25 07:24:44 GMT 50.957291 -0.191269 8,550 139 239 -512
2021-01-25 07:24:41 GMT 50.959061 -0.193634 8,550 139 240 -512
2021-01-25 07:24:39 GMT 50.961246 -0.196686 8,575 139 240 -512
2021-01-25 07:24:36 GMT 50.964600 -0.201187 8,625 139 239 -512
2021-01-25 07:24:33 GMT 50.965897 -0.203024 8,625 139 239 -576
2021-01-25 07:24:30 GMT 50.968788 -0.206909 8,650 139 239 -576
2021-01-25 07:24:28 GMT 50.970886 -0.209705 8,675 139 239 -576
2021-01-25 07:24:25 GMT 50.973770 -0.213699 8,725 139 240 -512
2021-01-25 07:24:21 GMT 50.975601 -0.216163 8,725 139 241 -512
2021-01-25 07:24:19 GMT 50.977726 -0.219116 8,750 139 241 -512
2021-01-25 07:24:16 GMT 50.980518 -0.222931 8,775 139 243 -512
2021-01-25 07:24:13 GMT 50.982567 -0.225677 8,800 139 243 -512
2021-01-25 07:24:11 GMT 50.984428 -0.228195 8,825 139 243 -512
2021-01-25 07:24:09 GMT 50.986992 -0.231705 8,850 139 244 -576
2021-01-25 07:24:06 GMT 50.989037 -0.234528 8,875 139 246 -576
2021-01-25 07:24:04 GMT 50.990669 -0.236740 8,900 139 246 -512
2021-01-25 07:24:01 GMT 50.992722 -0.239546 8,900 139 246 -512
2021-01-25 07:23:59 GMT 50.994965 -0.242590 8,925 138 246 -512
2021-01-25 07:23:56 GMT 50.997528 -0.246153 8,950 138 246 -448
2021-01-25 07:23:53 GMT 51.000210 -0.249939 8,975 138 246 -448
2021-01-25 07:23:51 GMT 51.003002 -0.253677 9,000 138 246 -448
2021-01-25 07:23:49 GMT 51.003002 -0.253677 9,000 138 246 -448
2021-01-25 07:23:47 GMT 51.005283 -0.256882 9,025 138 246 -448
2021-01-25 07:23:45 GMT 51.007008 -0.259323 9,050 138 245 -512
2021-01-25 07:23:42 GMT 51.010078 -0.263519 9,075 138 245 -512
2021-01-25 07:23:39 GMT 51.012409 -0.266724 9,100 138 245 -448
2021-01-25 07:23:36 GMT 51.015015 -0.270353 9,125 139 246 -448
2021-01-25 07:23:33 GMT 51.017166 -0.273322 9,125 139 246 -448
2021-01-25 07:23:31 GMT 51.019203 -0.276108 9,150 138 246 -448
2021-01-25 07:23:29 GMT 51.020966 -0.278518 9,175 138 246 -448
2021-01-25 07:23:27 GMT 51.022697 -0.280914 9,175 139 247 -512
2021-01-25 07:23:26 GMT 51.023579 -0.282135 9,200 139 247 -512
2021-01-25 07:23:25 GMT 51.024464 -0.283279 9,200 138 248 -512
2021-01-25 07:23:23 GMT 51.026093 -0.285568 9,200 138 248 -512
2021-01-25 07:23:21 GMT 51.027397 -0.287399 9,225 139 248 -512
2021-01-25 07:23:19 GMT 51.029633 -0.290451 9,275 139 250 -512
2021-01-25 07:23:16 GMT 51.032703 -0.294647 9,275 139 250 -512
2021-01-25 07:23:13 GMT 51.036163 -0.299452 9,300 139 250 -512
2021-01-25 07:23:11 GMT 51.036163 -0.299452 9,375 139 254 -384
2021-01-25 07:23:08 GMT 51.039223 -0.303574 9,350 139 253 -448
2021-01-25 07:23:06 GMT 51.040897 -0.305862 9,350 139 253 -448
2021-01-25 07:23:03 GMT 51.043716 -0.309696 9,375 139 254 -448
2021-01-25 07:23:01 GMT 51.045506 -0.312195 9,400 139 255 -448
2021-01-25 07:22:58 GMT 51.047928 -0.315552 9,400 139 256 -448
2021-01-25 07:22:56 GMT 51.050354 -0.318752 9,425 139 258 -512
2021-01-25 07:22:53 GMT 51.052258 -0.321426 9,450 139 259 -512
2021-01-25 07:22:51 GMT 51.054165 -0.324020 9,450 139 259 -512
2021-01-25 07:22:50 GMT 51.055069 -0.325210 9,450 139 260 -512
2021-01-25 07:22:48 GMT 51.056992 -0.327808 9,475 139 262 -512
2021-01-25 07:22:45 GMT 51.059799 -0.331650 9,500 139 263 -512
2021-01-25 07:22:43 GMT 51.061661 -0.334167 9,525 139 265 -576
2021-01-25 07:22:41 GMT 51.063904 -0.337310 9,550 139 266 -576
2021-01-25 07:22:38 GMT 51.066559 -0.340873 9,575 139 269 -576
2021-01-25 07:22:36 GMT 51.068459 -0.343475 9,600 139 269 -576
2021-01-25 07:22:33 GMT 51.071388 -0.347519 9,650 139 270 -512
2021-01-25 07:22:30 GMT 51.073837 -0.350820 9,650 139 270 -448
2021-01-25 07:22:28 GMT 51.075714 -0.353344 9,675 139 270 -448
2021-01-25 07:22:25 GMT 51.078278 -0.356833 9,700 139 270 -448
2021-01-25 07:22:23 GMT 51.080654 -0.360184 9,725 139 270 -448
2021-01-25 07:22:21 GMT 51.081940 -0.361881 9,725 139 270 -448
2021-01-25 07:22:19 GMT 51.084751 -0.365677 9,750 139 269 -448
2021-01-25 07:22:16 GMT 51.088074 -0.370343 9,775 139 269 -512
2021-01-25 07:22:13 GMT 51.090088 -0.373016 9,800 139 269 -512
2021-01-25 07:22:11 GMT 51.094570 -0.379181 9,825 139 269 -512
2021-01-25 07:22:09 GMT 51.094570 -0.379181 9,825 139 269 -512
2021-01-25 07:22:06 GMT 51.096901 -0.382385 9,875 139 269 -512
2021-01-25 07:22:03 GMT 51.099426 -0.385858 9,875 139 269 -448
2021-01-25 07:22:01 GMT 51.101303 -0.388456 9,900 139 269 -448
2021-01-25 07:21:59 GMT 51.103138 -0.390930 9,925 139 269 -448
2021-01-25 07:21:56 GMT 51.108025 -0.397720 9,950 139 270 -576
2021-01-25 07:21:54 GMT 51.108025 -0.397720 9,950 139 270 -640
2021-01-25 07:21:51 GMT 51.110958 -0.401688 10,025 139 270 -960
2021-01-25 07:21:48 GMT 51.113796 -0.405579 10,025 139 270 -960
2021-01-25 07:21:46 GMT 51.115723 -0.408276 10,075 139 270 -960
2021-01-25 07:21:43 GMT 51.118698 -0.412284 10,125 139 270 -960
2021-01-25 07:21:40 GMT 51.120316 -0.414581 11,125 138 274 -960
2021-01-25 07:21:38 GMT 51.123322 -0.418668 10,200 139 271 -960
2021-01-25 07:21:35 GMT 51.126663 -0.423271 10,250 139 271 -960
2021-01-25 07:21:32 GMT 51.128231 -0.425415 10,275 139 272 -1024
2021-01-25 07:21:30 GMT 51.133163 -0.432281 10,325 139 272 -1024
2021-01-25 07:21:28 GMT 51.133163 -0.432281 10,375 139 272 -1024
2021-01-25 07:21:25 GMT 51.134560 -0.434189 10,400 139 272 -1024
2021-01-25 07:21:23 GMT 51.137283 -0.437968 10,450 139 272 -1024
2021-01-25 07:21:21 GMT 51.139297 -0.440715 10,475 139 272 -1024
2021-01-25 07:21:18 GMT 51.142639 -0.445317 10,525 139 273 -1024
2021-01-25 07:21:15 GMT 51.144478 -0.447845 10,550 139 273 -1024
2021-01-25 07:21:13 GMT 51.146851 -0.451033 10,600 139 273 -1024
2021-01-25 07:21:11 GMT 51.148808 -0.453720 10,625 139 273 -1024
2021-01-25 07:21:08 GMT 51.152252 -0.458527 10,700 139 273 -1024
2021-01-25 07:21:05 GMT 51.154083 -0.461055 10,750 138 274 -1088
2021-01-25 07:21:04 GMT 51.155090 -0.462418 10,750 138 274 -1088
2021-01-25 07:21:02 GMT 51.156876 -0.464840 10,775 138 274 -1024
2021-01-25 07:21:01 GMT 51.157883 -0.466232 10,825 138 274 -1024
2021-01-25 07:21:00 GMT 51.158859 -0.467606 10,825 138 274 -1024
2021-01-25 07:20:59 GMT 51.159760 -0.468849 10,850 138 274 -1024
2021-01-25 07:20:58 GMT 51.160721 -0.470185 10,875 138 274 -1024
2021-01-25 07:20:56 GMT 51.162586 -0.472717 10,925 138 274 -1024
2021-01-25 07:20:55 GMT 51.163605 -0.474119 10,925 138 274 -1024
2021-01-25 07:20:53 GMT 51.166031 -0.477524 10,950 138 274 -1024
2021-01-25 07:20:51 GMT 51.168034 -0.480270 11,000 138 274 -1024
2021-01-25 07:20:49 GMT 51.169144 -0.481840 11,025 138 274 -1024
2021-01-25 07:20:47 GMT 51.171196 -0.484695 11,050 138 274 -960
2021-01-25 07:20:45 GMT 51.172897 -0.486962 11,100 138 274 -960
2021-01-25 07:20:43 GMT 51.175781 -0.490970 11,125 138 274 -960
2021-01-25 07:20:41 GMT 51.177624 -0.493546 11,150 138 274 -1024
2021-01-25 07:20:38 GMT 51.180599 -0.497665 11,225 138 274 -1024
2021-01-25 07:20:35 GMT 51.182602 -0.500412 11,275 138 274 -960
2021-01-25 07:20:33 GMT 51.185349 -0.504183 11,300 138 274 -960
2021-01-25 07:20:31 GMT 51.187119 -0.506668 11,325 138 274 -960
2021-01-25 07:20:28 GMT 51.190109 -0.510864 11,375 138 274 -1024
2021-01-25 07:20:25 GMT 51.192101 -0.513611 11,775 138 280 -1024
2021-01-25 07:20:23 GMT 51.194939 -0.517578 11,450 138 276 -1024
2021-01-25 07:20:20 GMT 51.197296 -0.520886 11,475 138 276 -1024
2021-01-25 07:20:17 GMT 51.200867 -0.525859 11,550 138 277 -960
2021-01-25 07:20:15 GMT 51.201874 -0.527267 11,625 138 277 -960
2021-01-25 07:20:13 GMT 51.204575 -0.531006 11,625 138 277 -960
2021-01-25 07:20:11 GMT 51.206543 -0.533802 11,650 138 279 -960
2021-01-25 07:20:08 GMT 51.209473 -0.537810 11,700 138 279 -1024
2021-01-25 07:20:05 GMT 51.212536 -0.542145 11,775 138 280 -1024
2021-01-25 07:20:02 GMT 51.216797 -0.548054 11,775 138 280 -1024
2021-01-25 07:19:59 GMT 51.217705 -0.549316 11,850 138 281 -960
2021-01-25 07:19:57 GMT 51.220078 -0.552597 11,875 139 282 -960
2021-01-25 07:19:54 GMT 51.223709 -0.557632 11,925 139 282 -960
2021-01-25 07:19:51 GMT 51.226128 -0.561066 11,975 139 282 -960
2021-01-25 07:19:48 GMT 51.229809 -0.566101 12,050 139 282 -1024
2021-01-25 07:19:45 GMT 51.233719 -0.571594 12,225 139 282 -1024
2021-01-25 07:19:43 GMT 51.235672 -0.574265 12,125 139 282 -1024
2021-01-25 07:19:41 GMT 51.235672 -0.574265 12,150 139 282 -1024
2021-01-25 07:19:39 GMT 51.238232 -0.577850 12,175 139 282 -1024
2021-01-25 07:19:36 GMT 51.240791 -0.581360 12,225 139 282 -1024
2021-01-25 07:19:34 GMT 51.243492 -0.585098 12,275 139 282 -1024
2021-01-25 07:19:31 GMT 51.245541 -0.587921 12,325 139 282 -1024
2021-01-25 07:19:28 GMT 51.249527 -0.593410 12,375 139 282 -1024
2021-01-25 07:19:25 GMT 51.251640 -0.596390 12,450 139 282 -1024
2021-01-25 07:19:22 GMT 51.255783 -0.602112 12,475 138 281 -960
2021-01-25 07:19:20 GMT 51.255783 -0.602112 12,500 138 281 -960
2021-01-25 07:19:18 GMT 51.261185 -0.609589 12,600 138 281 -960
2021-01-25 07:19:15 GMT 51.261185 -0.609589 12,575 138 281 -960
2021-01-25 07:19:12 GMT 51.263603 -0.612946 12,650 139 280 -960
2021-01-25 07:19:10 GMT 51.265560 -0.615692 12,650 139 280 -960
2021-01-25 07:19:08 GMT 51.268024 -0.619049 12,675 139 280 -960
2021-01-25 07:19:05 GMT 51.271332 -0.623703 12,750 139 280 -960
2021-01-25 07:19:02 GMT 51.273380 -0.626526 12,775 139 280 -960
2021-01-25 07:19:00 GMT 51.275333 -0.629196 12,800 139 279 -960
2021-01-25 07:18:58 GMT 51.278782 -0.633926 12,875 139 279 -960
2021-01-25 07:18:55 GMT 51.284088 -0.641290 12,975 139 280 -1088
2021-01-25 07:18:52 GMT 51.284088 -0.641290 12,975 139 280 -1024
2021-01-25 07:18:49 GMT 51.286423 -0.644556 13,000 139 280 -1088
2021-01-25 07:18:47 GMT 51.287857 -0.646515 13,025 139 280 -1088
2021-01-25 07:18:45 GMT 51.290512 -0.650177 13,100 139 280 -1024
2021-01-25 07:18:42 GMT 51.293564 -0.654429 13,125 139 280 -1024
2021-01-25 07:18:39 GMT 51.296284 -0.658112 13,200 138 282 -960
2021-01-25 07:18:37 GMT 51.297958 -0.660477 13,200 138 282 -960
2021-01-25 07:18:35 GMT 51.300430 -0.663931 13,250 138 282 -960
2021-01-25 07:18:32 GMT 51.302849 -0.667267 13,300 138 282 -960
2021-01-25 07:18:30 GMT 51.304871 -0.670092 13,300 138 282 -960
2021-01-25 07:18:28 GMT 51.307362 -0.673599 13,375 138 283 -896
2021-01-25 07:18:25 GMT 51.310181 -0.677515 13,450 138 283 -960
2021-01-25 07:18:22 GMT 51.314579 -0.683670 13,475 138 284 -1024
2021-01-25 07:18:20 GMT 51.314579 -0.683670 13,475 138 284 -1024
2021-01-25 07:18:17 GMT 51.317688 -0.687982 13,525 138 284 -1024
2021-01-25 07:18:15 GMT 51.320118 -0.691376 13,575 138 285 -1024
2021-01-25 07:18:12 GMT 51.322586 -0.694885 13,625 138 286 -960
2021-01-25 07:18:10 GMT 51.324772 -0.697937 13,650 138 286 -960
2021-01-25 07:18:08 GMT 51.327301 -0.701492 13,700 138 287 -960
2021-01-25 07:18:05 GMT 51.329754 -0.704880 13,725 138 287 -960
2021-01-25 07:18:03 GMT 51.331661 -0.707550 13,750 138 287 -960
2021-01-25 07:18:01 GMT 51.333527 -0.710144 13,800 138 287 -1024
2021-01-25 07:18:00 GMT 51.334579 -0.711662 13,800 138 287 -1024
2021-01-25 07:17:59 GMT 51.335667 -0.713120 13,825 138 287 -1024
2021-01-25 07:17:58 GMT 51.337852 -0.716171 13,875 138 287 -1024
2021-01-25 07:17:55 GMT 51.339344 -0.718231 13,900 138 287 -1024
2021-01-25 07:17:53 GMT 51.341766 -0.721588 13,925 138 288 -1024
2021-01-25 07:17:51 GMT 51.343533 -0.724106 13,950 138 288 -1024
2021-01-25 07:17:49 GMT 51.345612 -0.727028 14,000 138 288 -1024
2021-01-25 07:17:48 GMT 51.346527 -0.728290 14,000 138 288 -1024
2021-01-25 07:17:47 GMT 51.347626 -0.729849 14,025 138 288 -1024
2021-01-25 07:17:46 GMT 51.350739 -0.734154 14,075 138 288 -1024
2021-01-25 07:17:44 GMT 51.350739 -0.734154 14,075 138 289 -1024
2021-01-25 07:17:43 GMT 51.351700 -0.735564 14,100 138 289 -1024
2021-01-25 07:17:42 GMT 51.352707 -0.736975 14,100 138 289 -1024
2021-01-25 07:17:41 GMT 51.353622 -0.738237 14,125 138 289 -960
2021-01-25 07:17:39 GMT 51.355591 -0.740967 14,150 138 289 -960
2021-01-25 07:17:37 GMT 51.357468 -0.743581 14,200 138 289 -960
2021-01-25 07:17:35 GMT 51.360012 -0.747147 14,225 138 289 -960
2021-01-25 07:17:32 GMT 51.363510 -0.751970 14,300 138 289 -960
2021-01-25 07:17:29 GMT 51.365707 -0.755087 14,325 138 289 -960
2021-01-25 07:17:27 GMT 51.367722 -0.757908 14,350 139 289 -960
2021-01-25 07:17:25 GMT 51.369873 -0.760877 14,375 139 289 -960
2021-01-25 07:17:24 GMT 51.370998 -0.762482 14,400 138 290 -1024
2021-01-25 07:17:22 GMT 51.373718 -0.766148 14,425 138 290 -1024
2021-01-25 07:17:19 GMT 51.376259 -0.769806 14,475 138 289 -1024
2021-01-25 07:17:17 GMT 51.378845 -0.773348 14,550 138 289 -1024
2021-01-25 07:17:14 GMT 51.380447 -0.775650 14,550 138 289 -1024
2021-01-25 07:17:12 GMT 51.384201 -0.780846 14,625 138 291 -1024
2021-01-25 07:17:09 GMT 51.386177 -0.783615 14,650 138 291 -1088
2021-01-25 07:17:07 GMT 51.390598 -0.789871 14,700 138 291 -1088
2021-01-25 07:17:05 GMT 51.390598 -0.789871 14,725 138 291 -1088
2021-01-25 07:17:02 GMT 51.393677 -0.794208 14,800 138 291 -1088
2021-01-25 07:16:59 GMT 51.396103 -0.797622 14,825 138 291 -1088
2021-01-25 07:16:57 GMT 51.398186 -0.800476 14,875 138 291 -1024
2021-01-25 07:16:55 GMT 51.400772 -0.804155 14,925 138 291 -960
2021-01-25 07:16:52 GMT 51.403793 -0.808386 14,950 138 291 -704
2021-01-25 07:16:49 GMT 51.406284 -0.811844 15,000 138 290 -320
2021-01-25 07:16:47 GMT 51.408875 -0.815438 15,000 138 289 -192
2021-01-25 07:16:44 GMT 51.411827 -0.819626 15,000 138 289 0
2021-01-25 07:16:41 GMT 51.414761 -0.823746 15,000 138 289 0
2021-01-25 07:16:39 GMT 51.416199 -0.825756 15,000 138 289 0
2021-01-25 07:16:37 GMT 51.418388 -0.828781 15,000 138 289 0
2021-01-25 07:16:35 GMT 51.420959 -0.832363 15,000 138 289 0
2021-01-25 07:16:32 GMT 51.423512 -0.836029 15,000 138 289 0
2021-01-25 07:16:30 GMT 51.425743 -0.839081 15,000 138 289 0
2021-01-25 07:16:29 GMT 51.426590 -0.840306 15,000 138 290 0
2021-01-25 07:16:28 GMT 51.427505 -0.841568 15,000 138 289 0
2021-01-25 07:16:27 GMT 51.428585 -0.843048 15,000 138 289 0
2021-01-25 07:16:25 GMT 51.430618 -0.845947 15,000 138 289 0
2021-01-25 07:16:23 GMT 51.432728 -0.848846 15,000 138 289 0
2021-01-25 07:16:21 GMT 51.434731 -0.851669 15,000 138 290 0
2021-01-25 07:16:19 GMT 51.436871 -0.854645 15,000 138 291 0
2021-01-25 07:16:17 GMT 51.438309 -0.856637 15,000 138 291 0
2021-01-25 07:16:15 GMT 51.441200 -0.860748 15,000 138 291 0
2021-01-25 07:16:12 GMT 51.443665 -0.864208 15,000 138 292 0
2021-01-25 07:16:10 GMT 51.445763 -0.867157 15,000 138 292 0
2021-01-25 07:16:08 GMT 51.448334 -0.870741 15,000 138 294 0
2021-01-25 07:16:05 GMT 51.451492 -0.875195 15,000 138 294 0
2021-01-25 07:16:02 GMT 51.454147 -0.878980 15,000 138 295 0
2021-01-25 07:16:00 GMT 51.455772 -0.881195 15,000 138 295 0
2021-01-25 07:15:58 GMT 51.459320 -0.886181 15,000 138 296 0
2021-01-25 07:15:55 GMT 51.461823 -0.889740 15,000 138 298 0
2021-01-25 07:15:52 GMT 51.464848 -0.893936 15,000 138 299 0
2021-01-25 07:15:50 GMT 51.466526 -0.896301 15,000 138 300 0
2021-01-25 07:15:48 GMT 51.469318 -0.900269 15,000 138 304 0
2021-01-25 07:15:45 GMT 51.471817 -0.903774 15,000 138 305 0
2021-01-25 07:15:43 GMT 51.473740 -0.906446 15,000 138 306 0
2021-01-25 07:15:40 GMT 51.476944 -0.910900 15,000 138 309 0
2021-01-25 07:15:38 GMT 51.479828 -0.915057 15,000 138 315 -64
2021-01-25 07:15:35 GMT 51.482491 -0.918732 15,000 138 315 -64
2021-01-25 07:15:33 GMT 51.484589 -0.921707 15,000 138 316 -64
2021-01-25 07:15:31 GMT 51.487240 -0.925369 15,000 138 319 0
2021-01-25 07:15:29 GMT 51.489258 -0.928270 15,000 138 320 0
2021-01-25 07:15:27 GMT 51.491013 -0.930710 15,000 138 323 0
2021-01-25 07:15:25 GMT 51.493244 -0.933914 15,000 138 324 0
2021-01-25 07:15:22 GMT 51.496738 -0.938797 14,975 138 329 64
2021-01-25 07:15:20 GMT 51.499100 -0.942078 15,000 138 330 64
2021-01-25 07:15:18 GMT 51.502075 -0.946309 14,975 138 333 64
2021-01-25 07:15:15 GMT 51.504559 -0.949783 14,975 138 336 64
2021-01-25 07:15:13 GMT 51.507164 -0.953369 14,975 138 338 64
2021-01-25 07:15:11 GMT 51.508987 -0.955959 14,975 138 342 0
2021-01-25 07:15:09 GMT 51.511868 -0.960007 14,975 138 342 0
2021-01-25 07:15:07 GMT 51.514435 -0.963605 14,975 138 345 -128
2021-01-25 07:15:04 GMT 51.517181 -0.967539 14,975 138 347 -128
2021-01-25 07:15:02 GMT 51.524296 -0.977478 15,000 138 350 -128
2021-01-25 07:14:59 GMT 51.524296 -0.977478 15,000 138 351 0
2021-01-25 07:14:57 GMT 51.527252 -0.981717 15,000 138 351 64
2021-01-25 07:14:54 GMT 51.531052 -0.986988 15,000 138 351 0
2021-01-25 07:14:51 GMT 51.536407 -0.994560 15,000 138 351 0
2021-01-25 07:14:49 GMT 51.538307 -0.997238 15,000 138 352 0
2021-01-25 07:14:47 GMT 51.538307 -0.997238 15,000 138 352 0
2021-01-25 07:14:45 GMT 51.542591 -1.003265 15,000 138 352 0
2021-01-25 07:14:42 GMT 51.544544 -1.006012 15,000 138 352 0
2021-01-25 07:14:40 GMT 51.546875 -1.009293 15,000 138 352 0
2021-01-25 07:14:38 GMT 51.549294 -1.012726 15,000 138 352 0
2021-01-25 07:14:37 GMT 51.550411 -1.014252 15,000 138 352 0
2021-01-25 07:14:36 GMT 51.551697 -1.016087 15,000 138 352 0
2021-01-25 07:14:35 GMT 51.552933 -1.017794 15,000 138 352 -64
2021-01-25 07:14:34 GMT 51.554626 -1.020244 15,000 138 352 -64
2021-01-25 07:14:32 GMT 51.556458 -1.022768 15,000 138 352 -64
2021-01-25 07:14:31 GMT 51.557693 -1.024549 15,000 138 352 -64
2021-01-25 07:14:30 GMT 51.559582 -1.027222 15,000 138 352 -64
2021-01-25 07:14:29 GMT 51.560852 -1.029003 15,000 138 352 -64
2021-01-25 07:14:27 GMT 51.563416 -1.032641 15,000 138 352 0
2021-01-25 07:14:25 GMT 51.565384 -1.035387 15,000 138 352 64
2021-01-25 07:14:24 GMT 51.566620 -1.037169 15,000 138 352 64
2021-01-25 07:14:22 GMT 51.570847 -1.043091 15,000 138 352 64
2021-01-25 07:14:20 GMT 51.571918 -1.044617 15,000 138 352 64
2021-01-25 07:14:18 GMT 51.574585 -1.048304 15,000 138 352 0
2021-01-25 07:14:17 GMT 51.575737 -1.049957 15,000 138 352 0
2021-01-25 07:14:15 GMT 51.577606 -1.052683 15,000 138 352 0
2021-01-25 07:14:13 GMT 51.580021 -1.056061 15,000 138 352 64
2021-01-25 07:14:11 GMT 51.582581 -1.059647 15,000 138 352 64
2021-01-25 07:14:09 GMT 51.584999 -1.063080 15,000 138 352 0
2021-01-25 07:14:07 GMT 51.587933 -1.067276 15,000 138 352 0
2021-01-25 07:14:06 GMT 51.588959 -1.068717 15,000 138 352 0
2021-01-25 07:14:05 GMT 51.590122 -1.070328 15,000 138 352 0
2021-01-25 07:14:04 GMT 51.591473 -1.072235 15,000 138 352 0
2021-01-25 07:14:03 GMT 51.592819 -1.074142 15,000 138 352 0
2021-01-25 07:14:02 GMT 51.595322 -1.077699 15,000 138 352 0
2021-01-25 07:13:59 GMT 51.597710 -1.081085 15,000 138 352 0
2021-01-25 07:13:56 GMT 51.601387 -1.086273 15,000 138 352 0
2021-01-25 07:13:54 GMT 51.604088 -1.090012 15,000 138 352 0
2021-01-25 07:13:51 GMT 51.607224 -1.094476 15,000 138 353 0
2021-01-25 07:13:49 GMT 51.609718 -1.098022 15,000 138 353 0
2021-01-25 07:13:47 GMT 51.612514 -1.101990 15,000 138 352 -64
2021-01-25 07:13:44 GMT 51.616745 -1.107986 15,000 138 352 -64
2021-01-25 07:13:41 GMT 51.619446 -1.111772 15,000 138 352 -64
2021-01-25 07:13:39 GMT 51.622009 -1.115409 15,000 138 352 0
2021-01-25 07:13:37 GMT 51.625397 -1.120309 15,000 138 352 128
2021-01-25 07:13:34 GMT 51.627037 -1.122665 15,000 138 352 128
2021-01-25 07:13:32 GMT 51.630157 -1.127064 15,000 138 352 64
2021-01-25 07:13:30 GMT 51.632584 -1.130553 15,000 138 352 64
2021-01-25 07:13:28 GMT 51.636299 -1.135788 15,000 138 352 64
2021-01-25 07:13:25 GMT 51.638767 -1.139297 14,975 138 352 0
2021-01-25 07:13:23 GMT 51.641701 -1.143417 14,975 138 352 -64
2021-01-25 07:13:21 GMT 51.643936 -1.146661 15,000 138 352 -64
2021-01-25 07:13:19 GMT 51.648834 -1.153564 15,000 138 352 -128
2021-01-25 07:13:17 GMT 51.648834 -1.153564 15,000 138 352 -128
2021-01-25 07:13:15 GMT 51.651337 -1.157150 15,000 138 352 -64
2021-01-25 07:13:13 GMT 51.653961 -1.160839 15,000 138 352 -64
2021-01-25 07:13:11 GMT 51.656460 -1.164398 15,000 138 352 0
2021-01-25 07:13:09 GMT 51.658272 -1.166992 15,000 138 352 64
2021-01-25 07:13:07 GMT 51.661606 -1.171751 15,000 138 351 64
2021-01-25 07:13:04 GMT 51.663574 -1.174498 15,000 138 351 64
2021-01-25 07:13:02 GMT 51.667164 -1.179657 15,000 138 351 128
2021-01-25 07:13:00 GMT 51.669159 -1.182515 15,000 138 351 128
2021-01-25 07:12:58 GMT 51.671776 -1.186218 15,000 138 350 64
2021-01-25 07:12:57 GMT 51.673077 -1.188126 15,000 138 350 64
2021-01-25 07:12:55 GMT 51.675499 -1.191559 15,000 138 349 64
2021-01-25 07:12:54 GMT 51.676708 -1.193314 15,000 138 350 0
2021-01-25 07:12:53 GMT 51.677917 -1.194992 15,000 138 350 0
2021-01-25 07:12:52 GMT 51.679092 -1.196693 15,000 138 350 0
2021-01-25 07:12:51 GMT 51.680283 -1.198401 15,000 138 350 0
2021-01-25 07:12:49 GMT 51.682617 -1.201667 15,000 138 351 -64
2021-01-25 07:12:47 GMT 51.685135 -1.205304 15,000 138 351 -64
2021-01-25 07:12:45 GMT 51.687649 -1.208878 15,000 138 351 -64
2021-01-25 07:12:43 GMT 51.690033 -1.212208 15,000 138 351 0
2021-01-25 07:12:41 GMT 51.692394 -1.215591 15,000 138 351 0
2021-01-25 07:12:39 GMT 51.694885 -1.219185 15,000 138 351 0
2021-01-25 07:12:37 GMT 51.697311 -1.222674 15,000 138 351 0
2021-01-25 07:12:35 GMT 51.699799 -1.226196 15,000 138 350 0
2021-01-25 07:12:33 GMT 51.702164 -1.229578 15,000 138 350 0
2021-01-25 07:12:31 GMT 51.704681 -1.233215 15,000 138 350 64
2021-01-25 07:12:29 GMT 51.706879 -1.236333 15,000 138 349 64
2021-01-25 07:12:27 GMT 51.710495 -1.241529 15,000 138 349 64
2021-01-25 07:12:24 GMT 51.714043 -1.246567 15,000 138 349 0
2021-01-25 07:12:21 GMT 51.716602 -1.250229 15,000 138 349 0
2021-01-25 07:12:19 GMT 51.719116 -1.253815 15,000 138 349 0
2021-01-25 07:12:17 GMT 51.722378 -1.258469 15,000 138 349 0
2021-01-25 07:12:14 GMT 51.728714 -1.267510 15,000 138 349 0
2021-01-25 07:12:11 GMT 51.728714 -1.267510 15,000 138 349 -64
2021-01-25 07:12:09 GMT 51.731277 -1.271148 15,000 138 349 -64
2021-01-25 07:12:07 GMT 51.736816 -1.279165 15,000 138 349 -64
2021-01-25 07:12:04 GMT 51.736816 -1.279165 15,000 138 349 -64
2021-01-25 07:12:02 GMT 51.739975 -1.283619 15,000 138 349 -64
2021-01-25 07:12:00 GMT 51.742172 -1.286737 15,000 138 351 -128
2021-01-25 07:11:58 GMT 51.744999 -1.290817 15,000 138 350 -128
2021-01-25 07:11:57 GMT 51.746155 -1.292452 15,025 138 349 -128
2021-01-25 07:11:54 GMT 51.749981 -1.297913 15,025 138 349 -128
2021-01-25 07:11:51 GMT 51.753067 -1.302325 15,025 138 349 -192
2021-01-25 07:11:49 GMT 51.758549 -1.310196 15,025 138 349 -192
2021-01-25 07:11:47 GMT 51.758549 -1.310196 15,025 138 349 -256
2021-01-25 07:11:44 GMT 51.761169 -1.313905 15,075 138 349 -512
2021-01-25 07:11:42 GMT 51.763622 -1.317368 15,075 138 349 -512
2021-01-25 07:11:40 GMT 51.765976 -1.320735 15,075 138 349 -704
2021-01-25 07:11:38 GMT 51.768929 -1.324997 15,100 138 349 -832
2021-01-25 07:11:35 GMT 51.772419 -1.330032 15,150 138 349 -960
2021-01-25 07:11:32 GMT 51.775772 -1.334765 15,275 138 350 -1024
2021-01-25 07:11:30 GMT 51.778099 -1.338196 15,225 138 350 -1024
2021-01-25 07:11:28 GMT 51.781540 -1.343079 15,250 138 350 -1024
2021-01-25 07:11:25 GMT 51.785130 -1.348267 15,325 138 352 -1024
2021-01-25 07:11:22 GMT 51.788155 -1.352615 15,375 138 352 -1024
2021-01-25 07:11:20 GMT 51.790249 -1.355591 15,400 138 352 -1024
2021-01-25 07:11:18 GMT 51.793213 -1.359855 15,450 138 352 -1024
2021-01-25 07:11:15 GMT 51.796535 -1.364670 15,475 138 353 -1024
2021-01-25 07:11:13 GMT 51.799988 -1.369654 15,550 138 353 -1024
2021-01-25 07:11:09 GMT 51.803795 -1.375198 15,600 137 352 -960
2021-01-25 07:11:07 GMT 51.806122 -1.378555 17,900 137 352 -960
2021-01-25 07:11:04 GMT 51.809921 -1.384129 15,675 137 352 -960
2021-01-25 07:11:01 GMT 51.813080 -1.388657 15,700 137 352 -960
2021-01-25 07:10:59 GMT 51.816273 -1.393356 15,750 137 353 -1024
2021-01-25 07:10:57 GMT 51.818367 -1.396332 15,775 137 353 -1024
2021-01-25 07:10:54 GMT 51.822510 -1.402464 15,850 137 353 -1024
2021-01-25 07:10:51 GMT 51.824512 -1.405411 15,900 137 354 -1024
2021-01-25 07:10:49 GMT 51.828461 -1.411149 15,925 137 354 -1024
2021-01-25 07:10:47 GMT 51.830887 -1.414638 15,975 138 354 -960
2021-01-25 07:10:45 GMT 51.833313 -1.418201 16,000 138 354 -960
2021-01-25 07:10:42 GMT 51.836941 -1.423340 16,050 138 354 -960
2021-01-25 07:10:40 GMT 51.839310 -1.426812 16,075 138 353 -960
2021-01-25 07:10:38 GMT 51.841278 -1.429633 16,100 138 354 -960
2021-01-25 07:10:35 GMT 51.849197 -1.440619 16,200 140 354 -960
2021-01-25 07:10:32 GMT 51.849197 -1.440619 16,200 141 354 -960
2021-01-25 07:10:30 GMT 51.850487 -1.442413 16,225 141 355 -960
2021-01-25 07:10:28 GMT 51.853775 -1.446632 16,250 142 356 -1024
2021-01-25 07:10:25 GMT 51.858356 -1.452026 16,325 144 356 -1024
2021-01-25 07:10:22 GMT 51.862404 -1.456604 16,375 146 357 -1216
2021-01-25 07:10:20 GMT 51.865082 -1.459549 16,400 146 357 -1216
2021-01-25 07:10:18 GMT 51.867142 -1.461775 16,425 146 358 -1344
2021-01-25 07:10:15 GMT 51.871857 -1.466749 16,500 146 358 -1280
2021-01-25 07:10:12 GMT 51.876183 -1.471405 16,575 146 358 -1344
2021-01-25 07:10:10 GMT 51.878979 -1.474380 16,625 146 360 -1344
2021-01-25 07:10:07 GMT 51.882561 -1.478195 16,750 146 360 -1280
2021-01-25 07:10:04 GMT 51.887329 -1.483303 16,775 146 360 -1280
2021-01-25 07:10:01 GMT 51.891594 -1.487885 16,800 146 360 -1280
2021-01-25 07:09:58 GMT 51.894424 -1.490936 16,900 146 360 -1280
2021-01-25 07:09:56 GMT 51.898670 -1.495475 16,925 146 361 -1280
2021-01-25 07:09:53 GMT 51.902206 -1.499252 16,975 146 361 -1280
2021-01-25 07:09:50 GMT 51.906212 -1.503401 17,050 146 361 -1280
2021-01-25 07:09:48 GMT 51.909485 -1.506882 17,100 146 361 -1280
2021-01-25 07:09:46 GMT 51.911865 -1.509399 17,125 147 362 -1280
2021-01-25 07:09:43 GMT 51.916172 -1.513916 17,200 147 363 -1280
2021-01-25 07:09:40 GMT 51.920364 -1.518311 17,250 147 363 -1280
2021-01-25 07:09:38 GMT 51.923126 -1.521225 17,325 147 364 -1280
2021-01-25 07:09:36 GMT 51.926182 -1.524432 17,325 147 364 -1280
2021-01-25 07:09:33 GMT 51.930557 -1.528983 17,400 147 365 -1280
2021-01-25 07:09:30 GMT 51.935303 -1.534042 17,475 146 367 -1280
2021-01-25 07:09:27 GMT 51.940292 -1.539230 17,550 146 368 -1280
2021-01-25 07:09:24 GMT 51.942581 -1.541672 17,575 146 368 -1280
2021-01-25 07:09:21 GMT 51.947571 -1.546936 17,650 146 370 -1280
2021-01-25 07:09:18 GMT 51.951050 -1.550598 17,725 147 371 -1280
2021-01-25 07:09:16 GMT 51.955215 -1.554947 17,750 146 372 -1280
2021-01-25 07:09:13 GMT 51.959839 -1.559830 17,850 146 373 -1280
2021-01-25 07:09:10 GMT 51.964073 -1.564296 17,900 146 373 -1280
2021-01-25 07:09:07 GMT 51.968079 -1.568527 18,000 147 375 -1344
2021-01-25 07:09:04 GMT 51.970779 -1.571359 18,000 147 374 -1344
2021-01-25 07:09:02 GMT 51.975246 -1.576067 18,100 147 375 -1344
2021-01-25 07:08:59 GMT 51.978241 -1.579132 18,125 147 375 -1344
2021-01-25 07:08:57 GMT 51.982697 -1.583836 18,200 146 375 -1280
2021-01-25 07:08:54 GMT 51.985722 -1.587054 18,225 146 375 -1280
2021-01-25 07:08:52 GMT 51.990326 -1.591873 18,325 146 375 -1280
2021-01-25 07:08:49 GMT 51.992661 -1.594315 18,325 146 375 -1280
2021-01-25 07:08:47 GMT 51.997219 -1.599139 18,450 146 375 -1280
2021-01-25 07:08:44 GMT 52.001678 -1.603851 18,450 146 375 -1280
2021-01-25 07:08:41 GMT 52.004761 -1.607143 18,575 146 375 -1280
2021-01-25 07:08:39 GMT 52.007229 -1.609811 18,600 146 375 -1280
2021-01-25 07:08:37 GMT 52.010719 -1.613499 18,650 146 375 -1280
2021-01-25 07:08:34 GMT 52.016464 -1.619568 18,700 146 376 -1280
2021-01-25 07:08:31 GMT 52.019287 -1.622602 18,725 146 376 -1280
2021-01-25 07:08:29 GMT 52.021614 -1.625035 18,775 146 375 -1280
2021-01-25 07:08:27 GMT 52.026031 -1.629715 18,850 146 376 -1280
2021-01-25 07:08:24 GMT 52.031574 -1.635707 18,925 146 376 -1344
2021-01-25 07:08:21 GMT 52.033901 -1.638218 18,950 146 376 -1344
2021-01-25 07:08:19 GMT 52.036091 -1.640494 19,000 146 376 -1344
2021-01-25 07:08:17 GMT 52.040359 -1.645126 19,075 146 377 -1344
2021-01-25 07:08:14 GMT 52.044796 -1.649911 19,100 146 377 -1344
2021-01-25 07:08:11 GMT 52.048965 -1.654358 19,225 146 378 -1408
2021-01-25 07:08:08 GMT 52.053268 -1.658936 19,275 146 378 -1408
2021-01-25 07:08:06 GMT 52.055458 -1.661290 19,325 146 379 -1344
2021-01-25 07:08:04 GMT 52.059227 -1.665370 19,400 146 380 -1344
2021-01-25 07:08:01 GMT 52.062973 -1.669312 19,400 146 380 -1344
2021-01-25 07:07:58 GMT 52.069981 -1.676749 19,500 146 382 -1280
2021-01-25 07:07:56 GMT 52.069981 -1.676749 19,500 146 382 -1280
2021-01-25 07:07:54 GMT 52.073273 -1.680298 19,550 146 383 -1280
2021-01-25 07:07:52 GMT 52.076385 -1.683655 19,650 146 384 -1280
2021-01-25 07:07:49 GMT 52.080276 -1.687698 19,650 146 386 -1280
2021-01-25 07:07:47 GMT 52.089844 -1.697922 19,750 146 388 -1280
2021-01-25 07:07:44 GMT 52.089844 -1.697922 19,775 146 390 -1280
2021-01-25 07:07:41 GMT 52.093460 -1.701736 19,875 146 391 -1344
2021-01-25 07:07:38 GMT 52.096527 -1.704941 19,875 146 392 -1472
2021-01-25 07:07:36 GMT 52.100521 -1.709237 20,000 146 394 -1856
2021-01-25 07:07:33 GMT 52.105042 -1.713943 20,100 146 395 -1920
2021-01-25 07:07:30 GMT 52.110481 -1.719674 20,150 146 396 -1920
2021-01-25 07:07:27 GMT 52.114700 -1.724167 20,225 146 396 -1920
2021-01-25 07:07:24 GMT 52.118500 -1.728210 20,325 146 396 -1920
2021-01-25 07:07:22 GMT 52.122803 -1.732788 20,525 146 398 -1984
2021-01-25 07:07:19 GMT 52.126591 -1.736782 20,500 146 398 -1984
2021-01-25 07:07:17 GMT 52.129715 -1.740189 20,575 146 398 -1984
2021-01-25 07:07:14 GMT 52.133881 -1.744614 20,650 146 398 -1984
2021-01-25 07:07:12 GMT 52.138367 -1.749344 20,875 146 399 -1984
2021-01-25 07:07:09 GMT 52.142029 -1.753311 20,850 146 399 -1984
2021-01-25 07:07:07 GMT 52.145069 -1.756557 20,900 146 400 -1984
2021-01-25 07:07:04 GMT 52.150795 -1.762678 21,050 146 401 -1856
2021-01-25 07:07:01 GMT 52.154572 -1.766739 21,100 146 402 -1856
2021-01-25 07:06:58 GMT 52.158142 -1.770630 21,150 146 402 -1856
2021-01-25 07:06:56 GMT 52.162628 -1.775436 21,275 146 403 -1856
2021-01-25 07:06:53 GMT 52.167297 -1.780472 21,375 146 404 -1856
2021-01-25 07:06:50 GMT 52.171093 -1.784572 21,400 146 404 -1856
2021-01-25 07:06:47 GMT 52.177734 -1.791687 21,575 146 405 -1856
2021-01-25 07:06:44 GMT 52.180172 -1.794303 21,625 146 406 -1856
2021-01-25 07:06:42 GMT 52.184326 -1.798782 21,725 146 407 -1920
2021-01-25 07:06:39 GMT 52.188457 -1.803170 21,775 146 407 -1920
2021-01-25 07:06:37 GMT 52.191696 -1.806641 21,825 146 408 -1856
2021-01-25 07:06:34 GMT 52.196697 -1.811881 21,925 146 409 -1856
2021-01-25 07:06:31 GMT 52.201725 -1.817296 22,150 146 410 -1856
2021-01-25 07:06:28 GMT 52.205544 -1.821376 22,075 146 410 -1856
2021-01-25 07:06:26 GMT 52.209499 -1.825614 22,150 146 411 -1856
2021-01-25 07:06:23 GMT 52.215179 -1.831665 22,325 146 414 -1984
2021-01-25 07:06:20 GMT 52.219803 -1.836548 22,400 146 412 -1920
2021-01-25 07:06:17 GMT 52.224487 -1.841622 22,475 146 414 -1984
2021-01-25 07:06:14 GMT 52.234314 -1.852188 22,750 146 415 -1984
2021-01-25 07:06:11 GMT 52.234314 -1.852188 22,700 146 416 -1920
2021-01-25 07:06:08 GMT 52.237518 -1.855621 22,750 146 416 -1920
2021-01-25 07:06:06 GMT 52.241619 -1.859985 22,825 146 416 -1920
2021-01-25 07:06:03 GMT 52.245575 -1.864243 22,925 146 417 -1920
2021-01-25 07:06:01 GMT 52.249466 -1.868362 23,000 146 418 -1920
2021-01-25 07:05:59 GMT 52.252605 -1.871756 23,050 146 418 -1920
2021-01-25 07:05:57 GMT 52.255920 -1.875305 23,125 146 419 -1920
2021-01-25 07:05:54 GMT 52.262558 -1.882401 23,250 146 420 -1920
2021-01-25 07:05:51 GMT 52.266666 -1.886902 23,375 146 420 -1920
2021-01-25 07:05:48 GMT 52.269596 -1.889962 23,400 146 420 -1920
2021-01-25 07:05:46 GMT 52.273788 -1.894514 23,450 146 421 -1920
2021-01-25 07:05:43 GMT 52.278946 -1.900024 23,650 146 422 -1984
2021-01-25 07:05:40 GMT 52.289017 -1.910934 23,975 146 423 -1984
2021-01-25 07:05:37 GMT 52.289017 -1.910934 23,775 146 423 -1984
2021-01-25 07:05:34 GMT 52.295807 -1.918291 23,875 146 424 -1984
2021-01-25 07:05:32 GMT 52.295807 -1.918291 23,925 146 424 -1984
2021-01-25 07:05:30 GMT 52.300964 -1.923828 24,000 146 424 -1984
2021-01-25 07:05:27 GMT 52.305954 -1.929199 24,125 146 425 -1984
2021-01-25 07:05:24 GMT 52.309296 -1.932831 24,325 146 427 -1984
2021-01-25 07:05:22 GMT 52.313232 -1.937103 24,425 146 427 -1984
2021-01-25 07:05:19 GMT 52.317673 -1.941910 24,350 146 427 -1984
2021-01-25 07:05:17 GMT 52.321976 -1.946487 24,450 146 428 -1984
2021-01-25 07:05:14 GMT 52.325691 -1.950544 24,575 146 428 -1984
2021-01-25 07:05:12 GMT 52.329895 -1.955109 24,575 146 429 -1984
2021-01-25 07:05:09 GMT 52.334015 -1.959534 24,725 146 429 -1984
2021-01-25 07:05:06 GMT 52.338318 -1.964188 24,850 146 430 -1984
2021-01-25 07:05:04 GMT 52.342545 -1.968750 24,850 146 430 -1984
2021-01-25 07:05:02 GMT 52.345524 -1.971967 24,900 146 431 -1984
2021-01-25 07:05:00 GMT 52.348938 -1.975632 24,975 146 431 -1984
2021-01-25 07:04:58 GMT 52.351994 -1.978952 25,225 146 432 -1984
2021-01-25 07:04:56 GMT 52.354649 -1.981855 25,150 146 432 -1984
2021-01-25 07:04:54 GMT 52.358978 -1.986485 25,175 146 432 -1984
2021-01-25 07:04:52 GMT 52.362331 -1.990095 25,275 146 433 -2048
2021-01-25 07:04:50 GMT 52.365417 -1.993408 25,300 146 433 -2048
2021-01-25 07:04:48 GMT 52.368523 -1.996765 25,400 146 433 -2048
2021-01-25 07:04:46 GMT 52.371780 -2.000275 25,475 146 434 -2048
2021-01-25 07:04:44 GMT 52.376202 -2.005083 27,225 146 437 -2048
2021-01-25 07:04:42 GMT 52.379368 -2.008536 25,600 146 435 -2048
2021-01-25 07:04:40 GMT 52.390869 -2.020950 25,750 146 436 -2048
2021-01-25 07:04:37 GMT 52.390869 -2.020950 25,825 146 437 -2048
2021-01-25 07:04:34 GMT 52.392700 -2.023010 25,875 146 437 -2048
2021-01-25 07:04:32 GMT 52.395287 -2.025800 25,975 146 437 -1984
2021-01-25 07:04:30 GMT 52.397987 -2.028704 25,975 146 438 -1984
2021-01-25 07:04:28 GMT 52.402130 -2.033234 26,025 146 438 -1984
2021-01-25 07:04:26 GMT 52.405762 -2.037179 26,125 146 439 -1984
2021-01-25 07:04:24 GMT 52.410416 -2.042160 26,200 146 440 -1984
2021-01-25 07:04:21 GMT 52.416283 -2.048479 26,325 146 440 -1984
2021-01-25 07:04:18 GMT 52.421356 -2.053973 26,425 146 440 -1984
2021-01-25 07:04:15 GMT 52.425568 -2.058487 26,525 146 442 -1984
2021-01-25 07:04:12 GMT 52.429962 -2.063293 26,575 146 443 -1984
2021-01-25 07:04:10 GMT 52.432484 -2.065979 26,625 146 443 -1984
2021-01-25 07:04:08 GMT 52.436462 -2.070312 26,775 146 444 -1984
2021-01-25 07:04:06 GMT 52.440079 -2.074203 26,825 146 444 -1984
2021-01-25 07:04:04 GMT 52.443562 -2.077985 26,875 146 444 -1984
2021-01-25 07:04:02 GMT 52.447006 -2.081674 27,025 146 446 -1984
2021-01-25 07:04:00 GMT 52.449757 -2.084656 27,000 146 446 -1984
2021-01-25 07:03:58 GMT 52.454922 -2.090227 27,100 146 447 -1984
2021-01-25 07:03:55 GMT 52.459808 -2.095566 27,150 146 447 -1984
2021-01-25 07:03:52 GMT 52.463928 -2.100067 27,250 146 448 -1984
2021-01-25 07:03:50 GMT 52.471893 -2.108688 27,325 146 450 -2048
2021-01-25 07:03:48 GMT 52.471893 -2.108688 27,400 146 449 -1984
2021-01-25 07:03:45 GMT 52.476379 -2.113571 27,525 146 451 -2048
2021-01-25 07:03:42 GMT 52.482388 -2.120047 27,600 146 451 -2048
2021-01-25 07:03:39 GMT 52.488441 -2.126718 27,725 146 452 -2048
2021-01-25 07:03:36 GMT 52.492218 -2.130814 27,925 146 452 -2048
2021-01-25 07:03:34 GMT 52.496567 -2.135544 27,875 146 454 -2048
2021-01-25 07:03:31 GMT 52.501011 -2.140372 28,025 146 454 -2048
2021-01-25 07:03:28 GMT 52.505524 -2.145394 28,100 146 454 -2048
2021-01-25 07:03:26 GMT 52.509575 -2.149789 28,325 146 456 -2048
2021-01-25 07:03:24 GMT 52.513687 -2.154236 28,225 146 455 -2048
2021-01-25 07:03:21 GMT 52.517441 -2.158343 28,300 146 455 -2048
2021-01-25 07:03:19 GMT 52.522751 -2.164230 28,450 146 456 -1984
2021-01-25 07:03:16 GMT 52.527264 -2.169094 28,500 146 457 -1984
2021-01-25 07:03:14 GMT 52.530567 -2.172703 28,550 146 457 -1984
2021-01-25 07:03:12 GMT 52.535316 -2.177883 28,625 146 458 -2048
2021-01-25 07:03:08 GMT 52.543278 -2.186593 28,775 146 459 -2048
2021-01-25 07:03:05 GMT 52.547607 -2.191315 28,900 146 460 -2048
2021-01-25 07:03:02 GMT 52.551819 -2.195969 29,125 146 460 -2048
2021-01-25 07:03:00 GMT 52.555573 -2.200012 29,025 146 460 -2112
2021-01-25 07:02:57 GMT 52.560333 -2.205200 29,100 146 461 -2112
2021-01-25 07:02:54 GMT 52.566090 -2.211548 29,225 146 462 -2112
2021-01-25 07:02:52 GMT 52.569672 -2.215393 29,300 146 462 -2048
2021-01-25 07:02:49 GMT 52.575806 -2.222137 29,450 146 463 -2048
2021-01-25 07:02:46 GMT 52.580429 -2.227173 29,550 146 464 -2048
2021-01-25 07:02:44 GMT 52.584755 -2.231951 29,925 146 466 -2240
2021-01-25 07:02:41 GMT 52.589859 -2.237549 29,725 146 465 -2048
2021-01-25 07:02:38 GMT 52.594067 -2.242153 29,775 146 465 -2048
2021-01-25 07:02:36 GMT 52.597790 -2.246233 29,850 146 466 -2112
2021-01-25 07:02:33 GMT 52.603191 -2.252119 29,950 146 466 -2240
2021-01-25 07:02:31 GMT 52.607025 -2.256393 30,100 146 466 -2304
2021-01-25 07:02:28 GMT 52.612499 -2.262399 30,150 146 467 -2304
2021-01-25 07:02:25 GMT 52.619202 -2.269745 30,325 146 467 -2304
2021-01-25 07:02:22 GMT 52.622883 -2.273778 30,400 146 467 -2368
2021-01-25 07:02:20 GMT 52.625771 -2.276995 30,475 146 467 -2368
2021-01-25 07:02:18 GMT 52.631310 -2.283116 30,625 146 467 -2432
2021-01-25 07:02:15 GMT 52.635220 -2.287432 30,700 146 467 -2432
2021-01-25 07:02:12 GMT 52.641403 -2.294235 30,775 146 467 -2368
2021-01-25 07:02:10 GMT 52.644104 -2.297211 30,875 146 467 -2368
2021-01-25 07:02:08 GMT 52.647675 -2.301178 30,950 146 467 -2304
2021-01-25 07:02:06 GMT 52.653076 -2.307053 31,025 146 467 -2304
2021-01-25 07:02:03 GMT 52.656773 -2.311131 31,125 146 468 -2304
2021-01-25 07:02:01 GMT 52.661987 -2.316860 31,275 146 469 -2304
2021-01-25 07:01:58 GMT 52.670197 -2.325745 31,350 146 469 -2304
2021-01-25 07:01:56 GMT 52.670197 -2.325745 31,400 146 469 -2304
2021-01-25 07:01:54 GMT 52.673019 -2.328866 31,500 146 469 -2368
2021-01-25 07:01:51 GMT 52.680130 -2.336578 31,675 146 469 -2368
2021-01-25 07:01:48 GMT 52.684563 -2.341343 31,725 146 469 -2368
2021-01-25 07:01:45 GMT 52.689079 -2.346287 31,850 146 469 -2432
2021-01-25 07:01:42 GMT 52.695145 -2.352829 31,950 146 469 -2368
2021-01-25 07:01:40 GMT 52.699974 -2.358058 32,075 146 469 -2432
2021-01-25 07:01:37 GMT 52.703743 -2.362217 32,175 146 469 -2432
2021-01-25 07:01:34 GMT 52.711624 -2.370834 32,350 146 470 -2432
2021-01-25 07:01:31 GMT 52.714874 -2.374420 32,450 146 470 -2368
2021-01-25 07:01:28 GMT 52.721062 -2.381287 32,575 146 471 -2368
2021-01-25 07:01:25 GMT 52.726593 -2.387390 32,675 146 470 -2368
2021-01-25 07:01:22 GMT 52.730976 -2.392273 32,750 145 470 -2368
2021-01-25 07:01:20 GMT 52.736481 -2.398453 32,850 145 470 -2368
2021-01-25 07:01:17 GMT 52.740784 -2.403259 33,025 145 472 -2368
2021-01-25 07:01:14 GMT 52.746048 -2.409058 33,075 145 472 -2368
2021-01-25 07:01:11 GMT 52.752625 -2.416443 33,425 146 472 -2368
2021-01-25 07:01:08 GMT 52.756119 -2.420349 33,300 145 471 -2368
2021-01-25 07:01:05 GMT 52.762539 -2.427508 33,425 146 472 -2368
2021-01-25 07:01:02 GMT 52.768311 -2.433943 33,550 146 472 -2368
2021-01-25 07:00:59 GMT 52.774456 -2.440691 33,675 146 472 -2304
2021-01-25 07:00:56 GMT 52.779018 -2.445714 34,025 146 473 -2432
2021-01-25 07:00:53 GMT 52.785278 -2.452545 33,825 146 472 -2304
2021-01-25 07:00:50 GMT 52.790096 -2.457877 34,025 146 473 -2368
2021-01-25 07:00:47 GMT 52.794613 -2.462821 34,025 146 473 -2368
2021-01-25 07:00:45 GMT 52.797089 -2.465515 34,175 146 472 -2304
2021-01-25 07:00:43 GMT 52.800705 -2.469559 34,225 146 472 -2112
2021-01-25 07:00:41 GMT 52.804138 -2.473373 34,275 146 472 -2048
2021-01-25 07:00:39 GMT 52.810020 -2.479850 34,425 146 473 -1792
2021-01-25 07:00:36 GMT 52.821289 -2.492327 34,475 146 472 -1664
2021-01-25 07:00:33 GMT 52.821289 -2.492327 34,575 146 472 -1472
2021-01-25 07:00:30 GMT 52.825516 -2.497025 34,625 146 472 -1280
2021-01-25 07:00:27 GMT 52.830318 -2.502372 34,675 146 472 -1088
2021-01-25 07:00:24 GMT 52.835678 -2.508316 34,775 146 472 -1024
2021-01-25 07:00:21 GMT 52.843166 -2.516654 34,850 146 473 -1024
2021-01-25 07:00:18 GMT 52.847172 -2.521048 34,825 146 473 -1024
2021-01-25 07:00:16 GMT 52.850056 -2.524266 34,875 146 473 -1024
2021-01-25 07:00:13 GMT 52.857605 -2.532654 34,925 146 473 -768
2021-01-25 07:00:10 GMT 52.861324 -2.536743 34,975 146 473 -384
2021-01-25 07:00:08 GMT 52.866119 -2.542114 34,975 146 473 -384
2021-01-25 07:00:05 GMT 52.869843 -2.546238 35,000 146 473 -256
2021-01-25 07:00:03 GMT 52.874451 -2.551346 35,000 146 472 0
2021-01-25 07:00:00 GMT 52.879803 -2.557303 35,000 146 472 0
2021-01-25 06:59:57 GMT 52.886215 -2.564468 35,000 145 473 0
2021-01-25 06:59:54 GMT 52.890652 -2.569388 35,000 146 472 0
2021-01-25 06:59:51 GMT 52.895966 -2.575378 35,000 146 472 0
2021-01-25 06:59:48 GMT 52.902382 -2.582493 35,000 146 472 0
2021-01-25 06:59:45 GMT 52.906082 -2.586670 35,000 146 472 0
2021-01-25 06:59:43 GMT 52.910530 -2.591596 35,000 146 472 0
2021-01-25 06:59:40 GMT 52.915974 -2.597639 35,000 145 471 0
2021-01-25 06:59:38 GMT 52.919495 -2.601547 35,000 146 472 0
2021-01-25 06:59:35 GMT 52.923935 -2.606506 35,000 146 472 0
2021-01-25 06:59:33 GMT 52.928375 -2.611389 35,000 145 471 0
2021-01-25 06:59:30 GMT 52.935928 -2.619858 35,000 145 471 0
2021-01-25 06:59:27 GMT 52.939728 -2.624130 35,000 145 471 0
2021-01-25 06:59:24 GMT 52.944698 -2.629656 35,000 145 471 0
2021-01-25 06:59:21 GMT 52.951263 -2.637024 35,000 145 471 0
2021-01-25 06:59:18 GMT 52.955978 -2.642288 35,000 145 471 0
2021-01-25 06:59:15 GMT 52.960464 -2.647324 35,000 145 471 0
2021-01-25 06:59:13 GMT 52.965179 -2.652588 35,000 145 471 0
2021-01-25 06:59:10 GMT 52.969482 -2.657394 35,000 145 471 0
2021-01-25 06:59:08 GMT 52.973831 -2.662277 35,000 145 471 0
2021-01-25 06:59:05 GMT 52.978214 -2.667167 35,000 145 471 0
2021-01-25 06:59:03 GMT 52.981934 -2.671356 35,000 146 471 64
2021-01-25 06:59:01 GMT 52.987434 -2.677447 34,950 146 470 64
2021-01-25 06:58:57 GMT 52.998653 -2.689924 34,975 146 471 64
2021-01-25 06:58:53 GMT 53.001434 -2.693024 34,975 146 471 64
2021-01-25 06:58:50 GMT 53.006653 -2.698898 34,950 146 470 64
2021-01-25 06:58:47 GMT 53.011185 -2.703934 34,975 146 471 64
2021-01-25 06:58:45 GMT 53.019470 -2.713165 34,975 146 471 64
2021-01-25 06:58:43 GMT 53.023956 -2.718201 34,950 146 471 64
2021-01-25 06:58:40 GMT 53.023956 -2.718201 34,975 146 470 0
2021-01-25 06:58:38 GMT 53.028305 -2.723007 34,975 146 470 64
2021-01-25 06:58:35 GMT 53.032726 -2.727984 34,975 146 470 0
2021-01-25 06:58:32 GMT 53.039013 -2.735046 34,975 146 470 64
2021-01-25 06:58:29 GMT 53.043716 -2.740304 34,975 145 469 64
2021-01-25 06:58:27 GMT 53.048126 -2.745209 34,950 146 470 64
2021-01-25 06:58:24 GMT 53.053257 -2.750977 34,950 145 469 64
2021-01-25 06:58:21 GMT 53.058334 -2.756729 34,950 145 469 0
2021-01-25 06:58:18 GMT 53.062943 -2.761884 34,950 145 469 0
2021-01-25 06:58:15 GMT 53.073181 -2.773342 34,950 146 469 0
2021-01-25 06:58:13 GMT 53.073181 -2.773342 34,950 146 469 0
2021-01-25 06:58:10 GMT 53.077839 -2.778521 34,950 146 469 0
2021-01-25 06:58:07 GMT 53.084564 -2.786102 34,950 146 469 0
2021-01-25 06:58:04 GMT 53.089149 -2.791234 34,950 146 469 0
2021-01-25 06:58:01 GMT 53.094688 -2.797433 34,950 145 468 0
2021-01-25 06:57:58 GMT 53.099716 -2.803049 34,950 145 468 0
2021-01-25 06:57:55 GMT 53.104843 -2.808733 34,950 145 468 0
2021-01-25 06:57:53 GMT 53.107498 -2.811794 34,950 145 468 0
2021-01-25 06:57:51 GMT 53.111916 -2.816701 34,950 145 468 0
2021-01-25 06:57:48 GMT 53.122879 -2.829136 34,975 145 467 -64
2021-01-25 06:57:45 GMT 53.122879 -2.829136 34,975 145 467 -64
2021-01-25 06:57:42 GMT 53.128860 -2.835846 34,975 145 467 0
2021-01-25 06:57:39 GMT 53.133453 -2.841064 34,975 145 468 0
2021-01-25 06:57:36 GMT 53.139862 -2.848363 34,975 145 468 0
2021-01-25 06:57:33 GMT 53.145218 -2.854405 34,975 145 468 0
2021-01-25 06:57:30 GMT 53.150318 -2.860161 34,975 145 468 0
2021-01-25 06:57:27 GMT 53.155674 -2.866220 34,975 145 468 -64
2021-01-25 06:57:24 GMT 53.160919 -2.872219 34,975 145 468 -64
2021-01-25 06:57:21 GMT 53.167450 -2.879630 34,975 145 468 -128
2021-01-25 06:57:18 GMT 53.172108 -2.884881 34,975 145 469 -128
2021-01-25 06:57:15 GMT 53.176117 -2.889483 34,975 145 469 -64
2021-01-25 06:57:13 GMT 53.179871 -2.893720 35,000 145 468 -64
2021-01-25 06:57:11 GMT 53.182766 -2.897079 35,000 145 468 -64
2021-01-25 06:57:09 GMT 53.187149 -2.902117 35,000 145 470 -128
2021-01-25 06:57:06 GMT 53.192688 -2.908395 35,000 145 468 0
2021-01-25 06:57:03 GMT 53.198914 -2.915615 35,000 145 469 0
2021-01-25 06:57:00 GMT 53.203217 -2.920480 35,000 145 469 0
2021-01-25 06:56:57 GMT 53.209442 -2.927621 34,975 145 469 0
2021-01-25 06:56:54 GMT 53.213120 -2.931815 35,000 145 469 0
2021-01-25 06:56:51 GMT 53.219467 -2.939000 34,975 145 469 0
2021-01-25 06:56:48 GMT 53.224823 -2.945121 35,000 145 470 -64
2021-01-25 06:56:45 GMT 53.230480 -2.951526 35,000 145 469 -64
2021-01-25 06:56:43 GMT 53.234161 -2.955715 35,000 145 470 -128
2021-01-25 06:56:40 GMT 53.238350 -2.960492 35,000 145 470 -128
2021-01-25 06:56:37 GMT 53.244553 -2.967486 35,000 145 470 -128
2021-01-25 06:56:34 GMT 53.250275 -2.973999 35,000 145 470 -64
2021-01-25 06:56:31 GMT 53.254761 -2.979100 35,025 145 470 -64
2021-01-25 06:56:28 GMT 53.261581 -2.986790 35,000 145 470 64
2021-01-25 06:56:25 GMT 53.265884 -2.991656 35,000 145 470 64
2021-01-25 06:56:23 GMT 53.268768 -2.994952 35,000 145 469 64
2021-01-25 06:56:21 GMT 53.273438 -3.000209 35,000 146 469 64
2021-01-25 06:56:18 GMT 53.279526 -3.007115 35,000 146 470 64
2021-01-25 06:56:15 GMT 53.287182 -3.015666 35,000 146 469 64
2021-01-25 06:56:13 GMT 53.287182 -3.015666 35,000 146 469 0
2021-01-25 06:56:11 GMT 53.292664 -3.021868 35,000 146 470 0
2021-01-25 06:56:08 GMT 53.296280 -3.025870 35,000 144 470 0
2021-01-25 06:56:05 GMT 53.301891 -3.032307 35,000 145 469 0
2021-01-25 06:56:03 GMT 53.304657 -3.035522 35,000 144 470 0
2021-01-25 06:56:01 GMT 53.308502 -3.039982 35,000 144 470 0
2021-01-25 06:55:59 GMT 53.312302 -3.044468 35,000 143 470 0
2021-01-25 06:55:56 GMT 53.319351 -3.053022 35,000 143 470 0
2021-01-25 06:55:53 GMT 53.324982 -3.060096 35,000 142 470 0
2021-01-25 06:55:50 GMT 53.327820 -3.063773 35,000 142 470 0
2021-01-25 06:55:47 GMT 53.333736 -3.071406 35,000 141 470 0
2021-01-25 06:55:44 GMT 53.338810 -3.078272 35,000 140 470 0
2021-01-25 06:55:41 GMT 53.342926 -3.083862 35,000 140 470 -64
2021-01-25 06:55:39 GMT 53.346489 -3.088855 35,000 139 470 -64
2021-01-25 06:55:36 GMT 53.352036 -3.096810 35,000 139 470 -64
2021-01-25 06:55:33 GMT 53.356155 -3.102774 35,025 138 470 -64
2021-01-25 06:55:31 GMT 53.359589 -3.107797 35,025 138 470 -64
2021-01-25 06:55:29 GMT 53.362877 -3.112766 35,025 138 470 -64
2021-01-25 06:55:26 GMT 53.367531 -3.119875 35,025 137 471 -64
2021-01-25 06:55:23 GMT 53.372326 -3.127226 35,025 136 471 -64
2021-01-25 06:55:20 GMT 53.377029 -3.134739 35,025 135 470 -64
2021-01-25 06:55:17 GMT 53.383080 -3.144675 35,025 135 470 0
2021-01-25 06:55:14 GMT 53.386276 -3.149937 35,025 134 470 0
2021-01-25 06:55:12 GMT 53.389481 -3.155352 35,025 134 470 0
2021-01-25 06:55:10 GMT 53.393555 -3.162336 35,025 133 470 0
2021-01-25 06:55:07 GMT 53.398117 -3.170363 35,025 133 470 0
2021-01-25 06:55:04 GMT 53.401375 -3.176261 35,025 131 470 64
2021-01-25 06:55:01 GMT 53.410309 -3.192784 35,025 131 470 64
2021-01-25 06:54:59 GMT 53.410309 -3.192784 35,025 131 470 64
2021-01-25 06:54:56 GMT 53.414131 -3.200091 35,025 130 470 64
2021-01-25 06:54:53 GMT 53.418137 -3.207929 35,000 130 470 64
2021-01-25 06:54:50 GMT 53.425644 -3.222918 35,000 129 469 0
2021-01-25 06:54:47 GMT 53.425644 -3.222918 35,000 128 470 0
2021-01-25 06:54:44 GMT 53.429901 -3.231707 35,000 128 469 0
2021-01-25 06:54:41 GMT 53.433964 -3.240401 35,000 127 469 0
2021-01-25 06:54:39 GMT 53.436722 -3.246303 35,025 126 468 0
2021-01-25 06:54:36 GMT 53.440804 -3.255346 35,025 126 469 0
2021-01-25 06:54:33 GMT 53.444000 -3.262547 35,025 126 468 0
2021-01-25 06:54:31 GMT 53.447090 -3.269725 35,025 125 468 0
2021-01-25 06:54:29 GMT 53.449463 -3.275299 35,025 124 468 64
2021-01-25 06:54:26 GMT 53.453384 -3.284677 35,000 124 468 64
2021-01-25 06:54:23 GMT 53.457096 -3.293798 35,000 124 468 64
2021-01-25 06:54:20 GMT 53.461075 -3.303432 35,000 124 468 0
2021-01-25 06:54:17 GMT 53.464142 -3.310965 35,000 124 468 0
2021-01-25 06:54:14 GMT 53.467388 -3.318840 35,000 124 469 -64
2021-01-25 06:54:12 GMT 53.471066 -3.327888 35,000 124 469 -64
2021-01-25 06:54:09 GMT 53.473995 -3.334997 35,025 124 469 -64
2021-01-25 06:54:06 GMT 53.478561 -3.346279 35,025 124 467 64
2021-01-25 06:54:03 GMT 53.484100 -3.359797 35,025 124 468 64
2021-01-25 06:54:00 GMT 53.484100 -3.359797 35,025 124 468 64
2021-01-25 06:53:58 GMT 53.486660 -3.366098 35,025 124 468 -64
2021-01-25 06:53:55 GMT 53.491745 -3.378531 35,025 124 468 -64
2021-01-25 06:53:52 GMT 53.494400 -3.385123 35,025 124 468 -64
2021-01-25 06:53:49 GMT 53.498795 -3.395874 35,025 124 468 -64
2021-01-25 06:53:46 GMT 53.502487 -3.405035 35,025 124 468 -64
2021-01-25 06:53:43 GMT 53.505791 -3.413113 35,025 124 468 -64
2021-01-25 06:53:40 GMT 53.509644 -3.422555 35,025 124 467 -64
2021-01-25 06:53:37 GMT 53.512665 -3.430010 35,025 124 467 0
2021-01-25 06:53:34 GMT 53.516731 -3.440013 35,025 124 467 0
2021-01-25 06:53:32 GMT 53.518021 -3.443194 35,025 124 467 0
2021-01-25 06:53:30 GMT 53.523605 -3.457005 35,025 124 467 0
2021-01-25 06:53:28 GMT 53.523605 -3.457005 35,025 124 467 0
2021-01-25 06:53:25 GMT 53.531395 -3.476284 35,025 124 467 0
2021-01-25 06:53:22 GMT 53.531395 -3.476284 35,025 124 467 0
2021-01-25 06:53:19 GMT 53.534424 -3.483797 35,025 124 467 0
2021-01-25 06:53:16 GMT 53.538712 -3.494437 35,025 124 467 0
2021-01-25 06:53:13 GMT 53.542236 -3.503148 35,025 124 467 0
2021-01-25 06:53:10 GMT 53.545120 -3.510289 35,025 124 467 0
2021-01-25 06:53:08 GMT 53.547455 -3.516017 35,025 124 467 0
2021-01-25 06:53:05 GMT 53.551300 -3.525591 35,025 124 467 0
2021-01-25 06:53:02 GMT 53.555786 -3.536656 35,025 124 467 0
2021-01-25 06:52:59 GMT 53.559677 -3.546308 35,025 124 467 0
2021-01-25 06:52:56 GMT 53.563568 -3.555804 35,025 124 467 0
2021-01-25 06:52:53 GMT 53.566032 -3.561994 35,025 124 467 64
2021-01-25 06:52:51 GMT 53.569244 -3.569850 35,025 124 467 64
2021-01-25 06:52:48 GMT 53.573502 -3.580366 35,000 124 462 -64
2021-01-25 06:52:45 GMT 53.576923 -3.588894 35,000 124 465 64
2021-01-25 06:52:42 GMT 53.580322 -3.597215 35,000 124 465 64
2021-01-25 06:52:39 GMT 53.583488 -3.604970 34,975 124 465 64
2021-01-25 06:52:36 GMT 53.587818 -3.615794 35,000 124 465 64
2021-01-25 06:52:33 GMT 53.593460 -3.629647 35,000 124 465 64
2021-01-25 06:52:31 GMT 53.593460 -3.629647 35,000 124 465 64
2021-01-25 06:52:28 GMT 53.597809 -3.640398 34,975 124 465 64
2021-01-25 06:52:25 GMT 53.600201 -3.646249 34,975 124 465 64
2021-01-25 06:52:22 GMT 53.604298 -3.656347 34,975 124 465 64
2021-01-25 06:52:19 GMT 53.607323 -3.663860 34,975 124 465 0
2021-01-25 06:52:16 GMT 53.612320 -3.676261 34,975 124 465 0
2021-01-25 06:52:13 GMT 53.615707 -3.684658 34,975 124 465 0
2021-01-25 06:52:10 GMT 53.617538 -3.689131 35,000 124 465 0
2021-01-25 06:52:08 GMT 53.621017 -3.697763 35,000 124 464 -64
2021-01-25 06:52:05 GMT 53.625458 -3.708827 35,000 124 464 -64
2021-01-25 06:52:02 GMT 53.627884 -3.714791 35,000 123 463 0
2021-01-25 06:51:59 GMT 53.631248 -3.723315 35,000 123 463 -64
2021-01-25 06:51:56 GMT 53.634602 -3.731636 35,000 124 462 -64
2021-01-25 06:51:53 GMT 53.638275 -3.740766 35,000 123 463 -64
2021-01-25 06:51:50 GMT 53.641983 -3.750026 35,000 124 462 -64
2021-01-25 06:51:48 GMT 53.644424 -3.756112 35,000 124 462 -64
2021-01-25 06:51:45 GMT 53.648209 -3.765485 35,000 124 462 -64
2021-01-25 06:51:42 GMT 53.652145 -3.775295 35,000 124 462 0
2021-01-25 06:51:39 GMT 53.655178 -3.782851 35,000 124 462 -64
2021-01-25 06:51:36 GMT 53.658829 -3.791931 35,000 124 462 -64
2021-01-25 06:51:33 GMT 53.662113 -3.800139 35,025 124 462 -64
2021-01-25 06:51:30 GMT 53.665699 -3.809105 35,025 124 462 -64
2021-01-25 06:51:28 GMT 53.668678 -3.816537 35,025 124 462 0
2021-01-25 06:51:25 GMT 53.672729 -3.826635 35,025 124 462 0
2021-01-25 06:51:22 GMT 53.676361 -3.835720 35,025 123 461 0
2021-01-25 06:51:19 GMT 53.679897 -3.844488 35,025 123 461 0
2021-01-25 06:51:16 GMT 53.686554 -3.861129 35,025 123 462 -64
2021-01-25 06:51:13 GMT 53.686554 -3.861129 35,025 123 462 -64
2021-01-25 06:51:10 GMT 53.689533 -3.868642 35,000 123 462 -64
2021-01-25 06:51:08 GMT 53.691879 -3.874486 35,000 123 462 -64
2021-01-25 06:51:05 GMT 53.696045 -3.884923 35,000 123 464 -64
2021-01-25 06:51:02 GMT 53.699448 -3.893442 35,000 123 464 0
2021-01-25 06:50:59 GMT 53.702957 -3.902265 35,000 123 464 0
2021-01-25 06:50:56 GMT 53.706802 -3.911839 35,000 123 465 0
2021-01-25 06:50:53 GMT 53.709969 -3.919776 35,000 123 465 64
2021-01-25 06:50:50 GMT 53.713787 -3.929390 35,000 123 465 0
2021-01-25 06:50:48 GMT 53.716370 -3.935774 35,000 123 466 0
2021-01-25 06:50:45 GMT 53.721313 -3.948094 35,000 123 466 0
2021-01-25 06:50:42 GMT 53.723286 -3.953139 35,000 123 466 0
2021-01-25 06:50:39 GMT 53.727474 -3.963641 35,000 123 466 64
2021-01-25 06:50:36 GMT 53.730927 -3.972264 34,975 123 466 128
2021-01-25 06:50:33 GMT 53.737381 -3.988508 34,975 123 466 192
2021-01-25 06:50:30 GMT 53.737381 -3.988508 34,975 123 466 256
2021-01-25 06:50:28 GMT 53.740555 -3.996519 34,950 123 466 512
2021-01-25 06:50:25 GMT 53.743675 -4.004355 34,950 123 465 704
2021-01-25 06:50:22 GMT 53.747257 -4.013403 34,900 123 464 896
2021-01-25 06:50:19 GMT 53.752258 -4.025861 34,850 123 464 1024
2021-01-25 06:50:16 GMT 53.754429 -4.031417 34,800 123 464 1280
2021-01-25 06:50:13 GMT 53.758438 -4.041478 34,725 123 464 1408
2021-01-25 06:50:10 GMT 53.761505 -4.049108 34,675 123 464 1280
2021-01-25 06:50:08 GMT 53.764717 -4.057267 34,625 123 464 1024
2021-01-25 06:50:05 GMT 53.767639 -4.064628 34,575 123 463 960
2021-01-25 06:50:02 GMT 53.771000 -4.073181 34,550 123 462 896
2021-01-25 06:49:59 GMT 53.778263 -4.091438 34,400 123 460 1152
2021-01-25 06:49:56 GMT 53.778263 -4.091438 34,400 123 460 1088
2021-01-25 06:49:53 GMT 53.781738 -4.100255 34,350 123 460 1216
2021-01-25 06:49:50 GMT 53.785572 -4.109937 34,325 123 460 1344
2021-01-25 06:49:48 GMT 53.788551 -4.117369 34,300 123 460 1408
2021-01-25 06:49:45 GMT 53.791485 -4.124801 34,150 123 460 1472
2021-01-25 06:49:42 GMT 53.795162 -4.134091 34,125 123 460 1472
2021-01-25 06:49:39 GMT 53.798794 -4.143300 34,050 123 461 1472
2021-01-25 06:49:36 GMT 53.802006 -4.151378 34,000 123 460 1472
2021-01-25 06:49:33 GMT 53.806381 -4.162445 33,825 123 460 1472
2021-01-25 06:49:30 GMT 53.809296 -4.169704 33,825 123 460 1472
2021-01-25 06:49:28 GMT 53.811218 -4.174491 33,725 123 460 1536
2021-01-25 06:49:25 GMT 53.815109 -4.184300 33,675 123 459 1600
2021-01-25 06:49:22 GMT 53.818634 -4.193246 33,625 123 459 1600
2021-01-25 06:49:20 GMT 53.820950 -4.199039 33,575 123 459 1664
2021-01-25 06:49:18 GMT 53.827515 -4.215533 33,475 123 459 1856
2021-01-25 06:49:15 GMT 53.827515 -4.215533 33,400 123 460 2048
2021-01-25 06:49:12 GMT 53.831039 -4.224557 33,300 123 460 2176
2021-01-25 06:49:09 GMT 53.833797 -4.231594 33,000 123 462 1856
2021-01-25 06:49:06 GMT 53.838081 -4.242338 33,100 123 462 1984
2021-01-25 06:49:03 GMT 53.842300 -4.253043 33,000 123 463 1664
2021-01-25 06:49:00 GMT 53.844601 -4.258899 32,925 123 463 1600
2021-01-25 06:48:58 GMT 53.846973 -4.264957 32,825 123 463 1472
2021-01-25 06:48:55 GMT 53.851044 -4.275330 32,775 123 463 1344
2021-01-25 06:48:52 GMT 53.855072 -4.285531 32,700 123 463 1344
2021-01-25 06:48:49 GMT 53.857544 -4.291888 32,650 123 463 1600
2021-01-25 06:48:46 GMT 53.861172 -4.301067 32,575 123 462 1856
2021-01-25 06:48:43 GMT 53.865173 -4.311326 32,425 123 463 2176
2021-01-25 06:48:40 GMT 53.868248 -4.319162 32,350 123 463 2176
2021-01-25 06:48:38 GMT 53.871414 -4.327122 32,250 123 464 2240
2021-01-25 06:48:35 GMT 53.873741 -4.333056 32,075 123 465 2304
2021-01-25 06:48:32 GMT 53.877960 -4.343759 32,050 123 465 2368
2021-01-25 06:48:29 GMT 53.882126 -4.354431 31,900 123 466 2368
2021-01-25 06:48:26 GMT 53.885468 -4.362906 31,750 123 468 2176
2021-01-25 06:48:23 GMT 53.892242 -4.380249 31,625 123 468 1920
2021-01-25 06:48:20 GMT 53.892242 -4.380249 31,600 123 468 1856
2021-01-25 06:48:18 GMT 53.895294 -4.388069 31,525 123 468 1664
2021-01-25 06:48:15 GMT 53.898834 -4.397042 31,450 123 468 1536
2021-01-25 06:48:12 GMT 53.902634 -4.406773 31,375 123 467 1344
2021-01-25 06:48:09 GMT 53.905678 -4.414565 31,350 123 467 1280
2021-01-25 06:48:06 GMT 53.908421 -4.421593 31,275 123 466 1280
2021-01-25 06:48:03 GMT 53.912521 -4.432042 31,225 123 466 1280
2021-01-25 06:48:00 GMT 53.916321 -4.441772 31,150 123 465 1280
2021-01-25 06:47:58 GMT 53.918655 -4.447815 31,050 123 464 1472
2021-01-25 06:47:55 GMT 53.922016 -4.456410 31,025 123 464 1536
2021-01-25 06:47:52 GMT 53.924927 -4.463902 30,975 123 464 1664
2021-01-25 06:47:49 GMT 53.929230 -4.474909 30,850 123 463 1856
2021-01-25 06:47:46 GMT 53.936005 -4.492310 30,675 123 463 1920
2021-01-25 06:47:43 GMT 53.936005 -4.492310 30,650 123 463 2048
2021-01-25 06:47:40 GMT 53.939938 -4.502456 30,550 123 463 2048
2021-01-25 06:47:38 GMT 53.943054 -4.510515 30,475 123 463 2048
2021-01-25 06:47:35 GMT 53.945297 -4.516244 30,250 123 463 1984
2021-01-25 06:47:32 GMT 53.948456 -4.524484 30,275 123 464 1920
2021-01-25 06:47:29 GMT 53.952648 -4.535172 30,150 123 464 1664
2021-01-25 06:47:26 GMT 53.955872 -4.543553 30,100 123 464 1664
2021-01-25 06:47:23 GMT 53.959583 -4.553106 30,000 123 463 1472
2021-01-25 06:47:20 GMT 53.963150 -4.562387 29,975 123 463 1344
2021-01-25 06:47:18 GMT 53.965683 -4.568858 29,925 123 462 1344
2021-01-25 06:47:15 GMT 53.968689 -4.576590 29,825 123 462 1472
2021-01-25 06:47:12 GMT 53.972244 -4.585823 29,800 123 462 1600
2021-01-25 06:47:09 GMT 53.975601 -4.594404 29,725 123 461 1664
2021-01-25 06:47:06 GMT 53.980438 -4.606907 29,575 123 461 2112
2021-01-25 06:47:03 GMT 53.983337 -4.614336 29,450 123 461 2432
2021-01-25 06:47:00 GMT 53.986816 -4.623225 29,350 123 462 2624
2021-01-25 06:46:58 GMT 53.989197 -4.629403 29,275 123 462 2688
2021-01-25 06:46:55 GMT 53.992172 -4.636937 29,025 123 464 2880
2021-01-25 06:46:52 GMT 53.996292 -4.647531 28,975 123 464 3008
2021-01-25 06:46:49 GMT 53.999199 -4.655053 28,825 123 466 2944
2021-01-25 06:46:46 GMT 54.003296 -4.665580 28,675 123 468 2688
2021-01-25 06:46:43 GMT 54.007324 -4.676017 28,500 123 469 2304
2021-01-25 06:46:40 GMT 54.010529 -4.684256 28,425 123 469 2048
2021-01-25 06:46:38 GMT 54.016525 -4.699637 28,375 123 459 1408
2021-01-25 06:46:35 GMT 54.016525 -4.699637 28,275 123 469 1472
2021-01-25 06:46:32 GMT 54.019135 -4.706386 28,225 123 469 1472
2021-01-25 06:46:29 GMT 54.022663 -4.715477 28,150 123 469 1344
2021-01-25 06:46:27 GMT 54.025543 -4.723022 28,100 123 467 960
2021-01-25 06:46:24 GMT 54.029251 -4.732518 28,050 123 466 896
2021-01-25 06:46:21 GMT 54.033371 -4.743190 28,025 123 466 832
2021-01-25 06:46:18 GMT 54.035694 -4.749163 27,975 123 465 960
2021-01-25 06:46:15 GMT 54.039597 -4.759356 27,775 123 460 1280
2021-01-25 06:46:12 GMT 54.043331 -4.768955 27,825 123 460 1280
2021-01-25 06:46:09 GMT 54.046188 -4.776385 27,825 123 461 1280
2021-01-25 06:46:07 GMT 54.049118 -4.783918 27,725 123 460 1344
2021-01-25 06:46:04 GMT 54.053478 -4.795290 27,700 123 460 1344
2021-01-25 06:46:01 GMT 54.055847 -4.801418 27,625 123 459 1472
2021-01-25 06:45:58 GMT 54.060322 -4.813062 27,550 123 457 1536
2021-01-25 06:45:55 GMT 54.063114 -4.820251 27,325 123 455 1536
2021-01-25 06:45:52 GMT 54.067959 -4.832773 27,350 123 455 1536
2021-01-25 06:45:49 GMT 54.069679 -4.837296 27,325 123 455 1472
2021-01-25 06:45:47 GMT 54.072418 -4.844343 27,275 123 454 1472
2021-01-25 06:45:44 GMT 54.075779 -4.853130 27,200 123 454 1472
2021-01-25 06:45:41 GMT 54.079361 -4.862339 27,100 123 452 1408
2021-01-25 06:45:38 GMT 54.082169 -4.869611 27,000 123 451 1408
2021-01-25 06:45:35 GMT 54.086014 -4.879735 26,800 123 448 1664
2021-01-25 06:45:32 GMT 54.089279 -4.888189 26,925 123 450 1664
2021-01-25 06:45:29 GMT 54.092148 -4.895743 26,825 123 450 1728
2021-01-25 06:45:27 GMT 54.095516 -4.904426 26,700 123 448 1664
2021-01-25 06:45:24 GMT 54.098541 -4.912424 26,700 122 448 1664
2021-01-25 06:45:21 GMT 54.101990 -4.921483 26,600 123 447 1728
2021-01-25 06:45:18 GMT 54.104965 -4.929307 26,500 123 447 1728
2021-01-25 06:45:15 GMT 54.107990 -4.937224 26,450 123 446 1600
2021-01-25 06:45:12 GMT 54.111950 -4.947483 26,350 123 445 1536
2021-01-25 06:45:09 GMT 54.116272 -4.958836 26,275 123 445 1408
2021-01-25 06:45:06 GMT 54.117863 -4.962993 26,175 123 442 1600
2021-01-25 06:45:03 GMT 54.121307 -4.971941 26,125 123 442 1600
2021-01-25 06:45:01 GMT 54.124470 -4.980280 26,050 123 441 1536
2021-01-25 06:44:58 GMT 54.127357 -4.987793 25,975 122 441 1472
2021-01-25 06:44:55 GMT 54.130665 -4.996517 25,900 122 437 1408
2021-01-25 06:44:52 GMT 54.135040 -5.007961 25,825 123 437 1408
2021-01-25 06:44:49 GMT 54.137833 -5.015340 25,775 122 437 1408
2021-01-25 06:44:46 GMT 54.141788 -5.025680 25,675 122 435 1664
2021-01-25 06:44:43 GMT 54.145096 -5.034323 25,600 122 435 1920
2021-01-25 06:44:40 GMT 54.148178 -5.042489 25,475 123 434 2048
2021-01-25 06:44:37 GMT 54.150833 -5.049316 25,375 122 433 2176
2021-01-25 06:44:34 GMT 54.155243 -5.060901 25,250 122 433 2368
2021-01-25 06:44:31 GMT 54.158112 -5.068542 25,175 122 433 2432
2021-01-25 06:44:28 GMT 54.160446 -5.074506 25,075 122 433 2496
2021-01-25 06:44:25 GMT 54.163925 -5.083688 24,900 122 434 2496
2021-01-25 06:44:22 GMT 54.166786 -5.091355 24,750 122 435 2368
2021-01-25 06:44:19 GMT 54.173443 -5.108804 24,650 122 435 2240
2021-01-25 06:44:17 GMT 54.173443 -5.108804 24,600 122 434 2112
2021-01-25 06:44:14 GMT 54.176937 -5.118013 24,525 122 434 1984
2021-01-25 06:44:11 GMT 54.178936 -5.123183 24,425 122 433 1792
2021-01-25 06:44:08 GMT 54.182522 -5.132635 24,325 122 433 1728
2021-01-25 06:44:05 GMT 54.185944 -5.141602 24,225 122 431 1664
2021-01-25 06:44:02 GMT 54.189224 -5.150326 23,950 122 428 1984
2021-01-25 06:43:58 GMT 54.193588 -5.161848 24,050 122 429 1792
2021-01-25 06:43:55 GMT 54.196518 -5.169538 23,925 122 428 1984
2021-01-25 06:43:52 GMT 54.200211 -5.179246 23,600 122 427 2176
2021-01-25 06:43:48 GMT 54.203888 -5.188940 23,725 122 427 2112
2021-01-25 06:43:46 GMT 54.205948 -5.194414 23,650 122 427 2176
2021-01-25 06:43:42 GMT 54.210571 -5.206578 23,500 122 427 2176
2021-01-25 06:43:39 GMT 54.214039 -5.215759 23,400 122 426 1984
2021-01-25 06:43:36 GMT 54.216660 -5.222665 23,300 122 426 1856
2021-01-25 06:43:32 GMT 54.221100 -5.234515 23,150 122 424 1536
2021-01-25 06:43:29 GMT 54.224716 -5.244088 23,075 122 423 1408
2021-01-25 06:43:26 GMT 54.227722 -5.252111 23,025 122 421 1408
2021-01-25 06:43:23 GMT 54.230656 -5.259947 22,950 122 420 1472
2021-01-25 06:43:20 GMT 54.233917 -5.268510 22,850 122 418 1600
2021-01-25 06:43:17 GMT 54.236012 -5.274084 22,825 122 417 1600
2021-01-25 06:43:14 GMT 54.239876 -5.284343 22,675 122 414 1728
2021-01-25 06:43:11 GMT 54.242573 -5.291452 22,625 122 413 1920
2021-01-25 06:43:08 GMT 54.245270 -5.298785 22,575 122 413 1984
2021-01-25 06:43:06 GMT 54.248531 -5.307366 22,375 122 412 2176
2021-01-25 06:43:03 GMT 54.254494 -5.323199 22,350 122 412 2176
2021-01-25 06:43:00 GMT 54.254494 -5.323199 22,225 122 410 2112
2021-01-25 06:42:57 GMT 54.256538 -5.328692 22,150 122 410 2112
2021-01-25 06:42:54 GMT 54.260605 -5.339434 22,000 122 409 2112
2021-01-25 06:42:51 GMT 54.266827 -5.355835 21,850 122 408 2176
2021-01-25 06:42:48 GMT 54.266827 -5.355835 21,775 122 407 2240
2021-01-25 06:42:45 GMT 54.269249 -5.362298 21,675 122 407 2240
2021-01-25 06:42:42 GMT 54.272919 -5.371922 21,550 123 406 2240
2021-01-25 06:42:39 GMT 54.276077 -5.380240 21,475 122 406 2176
2021-01-25 06:42:36 GMT 54.279053 -5.388067 21,375 123 405 2112
2021-01-25 06:42:34 GMT 54.281158 -5.393641 21,250 123 404 2112
2021-01-25 06:42:31 GMT 54.284100 -5.401278 21,200 123 403 2176
2021-01-25 06:42:28 GMT 54.287544 -5.410350 21,050 123 403 2240
2021-01-25 06:42:25 GMT 54.290176 -5.417148 20,950 123 402 2240
2021-01-25 06:42:22 GMT 54.293407 -5.425498 20,825 123 401 2176
2021-01-25 06:42:19 GMT 54.296158 -5.432656 20,775 123 401 2112
2021-01-25 06:42:17 GMT 54.298809 -5.439481 20,675 123 400 1984
2021-01-25 06:42:14 GMT 54.304722 -5.454795 20,575 123 399 1984
2021-01-25 06:42:11 GMT 54.304722 -5.454795 20,500 123 398 1984
2021-01-25 06:42:08 GMT 54.307281 -5.461370 20,425 123 397 2048
2021-01-25 06:42:05 GMT 54.311424 -5.472024 20,250 123 396 2112
2021-01-25 06:42:01 GMT 54.314732 -5.480596 20,150 123 395 2304
2021-01-25 06:41:58 GMT 54.317230 -5.486944 20,075 123 393 2368
2021-01-25 06:41:55 GMT 54.320923 -5.496410 19,900 123 393 2304
2021-01-25 06:41:52 GMT 54.324051 -5.504554 19,750 123 391 1984
2021-01-25 06:41:49 GMT 54.326416 -5.510642 19,700 123 391 1984
2021-01-25 06:41:47 GMT 54.328583 -5.516187 19,575 123 388 1728
2021-01-25 06:41:44 GMT 54.331696 -5.524184 19,525 123 388 1792
2021-01-25 06:41:41 GMT 54.334442 -5.531293 19,450 123 387 1792
2021-01-25 06:41:38 GMT 54.337868 -5.540106 19,350 123 386 1984
2021-01-25 06:41:35 GMT 54.341030 -5.548262 19,200 123 384 2176
2021-01-25 06:41:31 GMT 54.344421 -5.556982 19,125 123 383 2240
2021-01-25 06:41:28 GMT 54.348667 -5.567988 18,950 123 381 2304
2021-01-25 06:41:25 GMT 54.350647 -5.573138 18,850 123 381 2368
2021-01-25 06:41:22 GMT 54.354069 -5.582053 18,725 123 379 2432
2021-01-25 06:41:19 GMT 54.355930 -5.586798 18,650 123 378 2368
2021-01-25 06:41:17 GMT 54.357788 -5.591637 18,525 123 378 2368
2021-01-25 06:41:14 GMT 54.361004 -5.600031 18,450 123 377 2368
2021-01-25 06:41:10 GMT 54.364822 -5.610019 18,225 123 376 2240
2021-01-25 06:41:07 GMT 54.367428 -5.616677 18,175 123 374 2176
2021-01-25 06:41:04 GMT 54.370331 -5.624273 18,100 123 374 2112
2021-01-25 06:41:01 GMT 54.373386 -5.632241 17,900 123 371 2176
2021-01-25 06:40:58 GMT 54.377655 -5.643418 17,800 123 370 2432
2021-01-25 06:40:54 GMT 54.380219 -5.650042 17,600 123 369 2752
2021-01-25 06:40:51 GMT 54.382828 -5.656909 17,550 123 369 2752
2021-01-25 06:40:48 GMT 54.385986 -5.665149 17,350 123 368 2752
2021-01-25 06:40:44 GMT 54.389587 -5.674605 17,150 123 368 2816
2021-01-25 06:40:40 GMT 54.392990 -5.683486 17,050 123 367 2944
2021-01-25 06:40:37 GMT 54.396561 -5.692695 16,850 123 367 3072
2021-01-25 06:40:34 GMT 54.399502 -5.700323 16,675 123 367 2944
2021-01-25 06:40:31 GMT 54.401924 -5.706648 16,550 123 367 2816
2021-01-25 06:40:28 GMT 54.404156 -5.712474 16,125 123 365 2496
2021-01-25 06:40:25 GMT 54.406998 -5.719919 16,300 123 366 2560
2021-01-25 06:40:22 GMT 54.409241 -5.725735 16,225 123 366 2496
2021-01-25 06:40:19 GMT 54.412857 -5.735186 16,050 123 365 2496
2021-01-25 06:40:17 GMT 54.414276 -5.738822 15,975 123 364 2496
2021-01-25 06:40:14 GMT 54.417191 -5.746349 15,800 123 362 2432
2021-01-25 06:40:11 GMT 54.422928 -5.761360 15,725 123 361 2368
2021-01-25 06:40:08 GMT 54.422928 -5.761360 15,575 123 359 2304
2021-01-25 06:40:05 GMT 54.425446 -5.768065 15,500 123 359 2240
2021-01-25 06:40:02 GMT 54.428226 -5.775313 15,325 123 356 2176
2021-01-25 06:39:59 GMT 54.431019 -5.782637 15,300 123 354 2176
2021-01-25 06:39:57 GMT 54.434135 -5.790877 15,225 123 354 2176
2021-01-25 06:39:54 GMT 54.436279 -5.796537 15,075 123 352 2432
2021-01-25 06:39:49 GMT 54.439865 -5.805951 14,900 123 350 2432
2021-01-25 06:39:47 GMT 54.441193 -5.809425 14,850 123 350 2368
2021-01-25 06:39:44 GMT 54.444332 -5.817677 14,625 123 347 2432
2021-01-25 06:39:41 GMT 54.446503 -5.823319 14,600 123 347 2432
2021-01-25 06:39:38 GMT 54.450165 -5.833013 14,425 123 346 2432
2021-01-25 06:39:34 GMT 54.452682 -5.839718 14,325 123 343 2496
2021-01-25 06:39:31 GMT 54.455273 -5.846391 14,200 123 341 2496
2021-01-25 06:39:28 GMT 54.457832 -5.853216 14,100 123 340 2624
2021-01-25 06:39:25 GMT 54.460968 -5.861448 13,900 123 339 2880
2021-01-25 06:39:23 GMT 54.462673 -5.865784 13,800 123 338 3072
2021-01-25 06:39:19 GMT 54.465958 -5.874454 13,600 123 338 3328
2021-01-25 06:39:16 GMT 54.468613 -5.881482 13,350 123 338 3392
2021-01-25 06:39:13 GMT 54.471176 -5.888187 13,250 123 338 3392
2021-01-25 06:39:09 GMT 54.474449 -5.896828 13,025 123 338 3456
2021-01-25 06:39:05 GMT 54.478268 -5.906650 12,775 123 339 3584
2021-01-25 06:39:02 GMT 54.480011 -5.911291 12,650 123 339 3648
2021-01-25 06:38:59 GMT 54.483124 -5.919369 12,425 123 340 3584
2021-01-25 06:38:56 GMT 54.484879 -5.923961 12,300 123 340 3584
2021-01-25 06:38:53 GMT 54.488022 -5.932213 12,075 123 340 3200
2021-01-25 06:38:48 GMT 54.492966 -5.945058 11,775 123 338 2816
2021-01-25 06:38:45 GMT 54.495213 -5.951011 11,675 123 338 2624
2021-01-25 06:38:43 GMT 54.496704 -5.954840 11,600 123 337 2496
2021-01-25 06:38:39 GMT 54.500519 -5.964910 11,425 123 335 2176
2021-01-25 06:38:35 GMT 54.503815 -5.973412 11,300 123 331 1856
2021-01-25 06:38:33 GMT 54.505596 -5.978144 11,225 123 329 1728
2021-01-25 06:38:28 GMT 54.508854 -5.986550 11,125 123 323 1536
2021-01-25 06:38:25 GMT 54.512192 -5.995223 11,025 123 319 1600
2021-01-25 06:38:23 GMT 54.513836 -5.999534 10,975 123 317 1600
2021-01-25 06:38:18 GMT 54.516953 -6.007690 10,875 123 311 1664
2021-01-25 06:38:15 GMT 54.520203 -6.015984 10,750 123 306 1856
2021-01-25 06:38:13 GMT 54.521702 -6.020008 10,700 123 304 2048
2021-01-25 06:38:08 GMT 54.525146 -6.028909 10,525 123 300 2560
2021-01-25 06:38:05 GMT 54.527985 -6.036072 10,350 123 297 3200
2021-01-25 06:38:02 GMT 54.529663 -6.040400 10,225 124 296 3648
2021-01-25 06:37:58 GMT 54.532608 -6.047893 9,750 124 296 3840
2021-01-25 06:37:56 GMT 54.534550 -6.052884 9,700 124 297 3776
2021-01-25 06:37:53 GMT 54.537716 -6.060957 9,550 123 297 3648
2021-01-25 06:37:48 GMT 54.540436 -6.067846 9,325 124 296 3712
2021-01-25 06:37:46 GMT 54.542221 -6.072370 9,025 123 297 3520
2021-01-25 06:37:43 GMT 54.545116 -6.079934 8,975 123 297 3456
2021-01-25 06:37:37 GMT 54.548584 -6.089415 8,700 121 297 3392
2021-01-25 06:37:35 GMT 54.550644 -6.095554 8,525 118 297 3456
2021-01-25 06:37:32 GMT 54.551914 -6.099659 8,425 116 296 3456
2021-01-25 06:37:28 GMT 54.554428 -6.108565 8,175 115 296 3328
2021-01-25 06:37:24 GMT 54.556641 -6.116719 7,975 114 294 3264
2021-01-25 06:37:22 GMT 54.558010 -6.121965 7,850 114 293 3328
2021-01-25 06:37:18 GMT 54.560074 -6.129886 7,550 113 291 3584
2021-01-25 06:37:14 GMT 54.562180 -6.138207 7,400 113 290 3648
2021-01-25 06:37:12 GMT 54.563412 -6.143188 7,250 113 290 3712
2021-01-25 06:37:08 GMT 54.565273 -6.150596 7,050 112 289 3584
2021-01-25 06:37:04 GMT 54.567368 -6.159252 6,800 112 288 3584
2021-01-25 06:37:02 GMT 54.568634 -6.164461 6,650 112 288 3648
2021-01-25 06:36:58 GMT 54.570255 -6.171403 6,275 111 287 3776
2021-01-25 06:36:54 GMT 54.572250 -6.179971 6,175 111 286 3776
2021-01-25 06:36:52 GMT 54.573212 -6.184253 6,000 111 286 3840
2021-01-25 06:36:49 GMT 54.574997 -6.192088 5,850 111 286 3968
2021-01-25 06:36:46 GMT 54.576775 -6.200118 5,575 111 287 4096
2021-01-25 06:36:43 GMT 54.577286 -6.202198 5,475 111 287 4096
2021-01-25 06:36:41 GMT 54.578751 -6.208891 5,300 111 287 4096
2021-01-25 06:36:38 GMT 54.579937 -6.214100 5,125 111 287 3840
2021-01-25 06:36:34 GMT 54.581818 -6.222301 4,825 111 287 3776
2021-01-25 06:36:32 GMT 54.583057 -6.227750 4,450 112 287 3840
2021-01-25 06:36:29 GMT 54.584782 -6.234908 4,500 112 286 3648
2021-01-25 06:36:24 GMT 54.587128 -6.244516 4,200 113 285 3520
2021-01-25 06:36:21 GMT 54.588970 -6.251637 4,050 114 285 3392
2021-01-25 06:36:18 GMT 54.590366 -6.256797 3,900 115 284 2816
2021-01-25 06:36:14 GMT 54.592758 -6.264873 3,725 119 280 2304
2021-01-25 06:36:12 GMT 54.594418 -6.269781 3,650 124 277 1984
2021-01-25 06:36:06 GMT 54.598892 -6.280060 3,475 133 268 1600
2021-01-25 06:36:02 GMT 54.601868 -6.285068 3,300 154 248 1472
2021-01-25 06:35:59 GMT 54.605255 -6.289673 3,275 148 255 1600
2021-01-25 06:35:55 GMT 54.608986 -6.293252 3,175 157 246 1408
2021-01-25 06:35:51 GMT 54.612946 -6.295731 2,975 181 222 1024
2021-01-25 06:35:47 GMT 54.618484 -6.297330 2,975 181 222 1088
2021-01-25 06:35:43 GMT 54.621597 -6.297186 2,925 186 216 768
2021-01-25 06:35:40 GMT 54.624115 -6.296459 2,900 194 207 640
2021-01-25 06:35:36 GMT 54.627979 -6.294417 2,825 205 194 1280
2021-01-25 06:35:33 GMT 54.630306 -6.292419 2,775 212 188 1408
2021-01-25 06:35:30 GMT 54.632217 -6.290319 2,700 217 183 1472
2021-01-25 06:35:25 GMT 54.635429 -6.285595 2,600 228 172 1600
2021-01-25 06:35:22 GMT 54.637337 -6.281932 2,450 236 165 1536
2021-01-25 06:35:18 GMT 54.638874 -6.278021 2,400 240 161 1600
2021-01-25 06:35:14 GMT 54.640457 -6.273360 2,125 242 157 1664
2021-01-25 06:35:11 GMT 54.641342 -6.270530 2,225 242 154 1600
2021-01-25 06:35:08 GMT 54.642471 -6.266973 2,150 242 152 1664
2021-01-25 06:35:04 GMT 54.643707 -6.263015 2,050 242 147 1664
2021-01-25 06:35:02 GMT 54.644348 -6.260995 2,000 242 147 1664
2021-01-25 06:35:00 GMT 54.644974 -6.259044 1,950 242 144 1664
2021-01-25 06:34:59 GMT 54.645676 -6.256714 1,875 242 144 1664
2021-01-25 06:34:58 GMT 54.645676 -6.256714 1,875 242 143 1664
2021-01-25 06:34:57 GMT 54.645950 -6.255825 1,850 242 141 1664
2021-01-25 06:34:56 GMT 54.646271 -6.254856 1,825 242 140 1600
2021-01-25 06:34:55 GMT 54.646603 -6.253801 1,800 242 140 1600
2021-01-25 06:34:52 GMT 54.647415 -6.251059 1,725 242 138 1600
2021-01-25 06:34:46 GMT 54.649200 -6.245324 1,550 243 134 1984
2021-01-25 06:34:45 GMT 54.649475 -6.244354 1,525 243 134 2112
2021-01-25 06:34:44 GMT 54.649750 -6.243466 1,475 243 134 2176
2021-01-25 06:34:43 GMT 54.650047 -6.242482 1,425 243 134 2432
2021-01-25 06:34:41 GMT 54.650650 -6.240484 1,350 243 134 2560
2021-01-25 06:34:40 GMT 54.650978 -6.239485 1,300 243 134 2688
2021-01-25 06:34:38 GMT 54.651535 -6.237571 1,200 243 135 2816
2021-01-25 06:34:37 GMT 54.651855 -6.236518 1,150 244 136 2816
2021-01-25 06:34:35 GMT 54.652451 -6.234418 1,050 245 138 2624
2021-01-25 06:34:33 GMT 54.653027 -6.232411 950 245 138 2624
2021-01-25 06:34:23 GMT 54.655655 -6.222786 550 246 144 1984
2021-01-25 06:34:13 GMT 54.658493 -6.212122 450 246 128 -128
2021-01-25 06:33:20 GMT 54.662773 -6.196370 0 154 5
2021-01-25 06:33:09 GMT 54.663055 -6.196601 0 154 9
2021-01-25 06:33:02 GMT 54.663338 -6.196830 0 151 10
2021-01-25 06:32:53 GMT 54.663708 -6.197225 0 129 13
2021-01-25 06:32:31 GMT 54.663849 -6.198952 0 64 12
2021-01-25 06:32:21 GMT 54.663609 -6.199864 0 64 15
2021-01-25 06:32:12 GMT 54.663349 -6.200825 0 64 16
2021-01-25 06:32:01 GMT 54.662964 -6.202240 0 64 21
2021-01-25 06:31:52 GMT 54.662601 -6.203600 0 64 21
2021-01-25 06:31:27 GMT 54.661709 -6.206942 0 64 16
2021-01-25 06:31:21 GMT 54.661526 -6.207599 0 64 16
2021-01-25 06:31:07 GMT 54.661125 -6.209093 0 64 15
2021-01-25 06:30:58 GMT 54.660881 -6.209980 0 64 13
We lost coverage of the aircraft here for a total of 6 minutes
2021-01-25 06:25:18 GMT 54.662041 -6.213051 0 244 4

Making use of Plane Finder data

You are free to use the raw flight data, aircraft information and images provided in this report for your own purposes provided the data is correctly attributed to Plane Finder. We ask that you please credit Plane Finder and link to planefinder.net in close proximity to the content.

Optionally one of the following logos (no smaller then 150x24px) can be used and must link to planefinder.net

Embedding the Plane Finder map

You are welcome to embed the Plane Finder playback map on your website to offer visitors a more interactive experience. We suggest using the following HTML code:

<iframe src="//planefinder.net/data/report/U2830-G-EZAX-7700-squawk-2021-01-25/map" width="800" height="600" seamless="seamless"></iframe>

Where our data comes from

Plane Finder has a global network of data feeds and antenna radars that receive data broadcast directly from aircraft. The primary technologies used are ADS-B and MLAT. We also show feeds from the FAA and a FLARM glider feed.

Click here to find out more about the Plane Finder network.

How we collect our data